<?xml version="1.0" encoding="UTF-8" standalone="no" ?>
<gpx xmlns="http://www.topografix.com/GPX/1/1" xmlns:xsi="http://www.w3.org/2001/XMLSchema-instance" xsi:schemaLocation="http://www.topografix.com/GPX/1/1 http://www.topografix.com/GPX/1/1/gpx.xsd" version="1.1" creator="VisuGPX - https://www.visugpx.com">
  <metadata>
    <name>grande verte</name>
    <desc><![CDATA[grande verte]]></desc>
  </metadata>
  <trk>
    <name><![CDATA[2011-06-26T07:36:57Z]]></name>
    <trkseg>
      <trkpt lat="45.64494" lon="5.98306">
        <ele>1324.3535156</ele>
        <time>2011-06-26T07:36:57Z</time>
      </trkpt>
      <trkpt lat="45.64497" lon="5.98308">
        <ele>1326.276123</ele>
        <time>2011-06-26T07:37:03Z</time>
      </trkpt>
      <trkpt lat="45.64509" lon="5.98308">
        <ele>1326.7568359</ele>
        <time>2011-06-26T07:37:09Z</time>
      </trkpt>
      <trkpt lat="45.64511" lon="5.98306">
        <ele>1327.7180176</ele>
        <time>2011-06-26T07:37:10Z</time>
      </trkpt>
      <trkpt lat="45.64522" lon="5.98288">
        <ele>1330.6020508</ele>
        <time>2011-06-26T07:37:17Z</time>
      </trkpt>
      <trkpt lat="45.64529" lon="5.98262">
        <ele>1332.5246582</ele>
        <time>2011-06-26T07:37:25Z</time>
      </trkpt>
      <trkpt lat="45.64534" lon="5.98234">
        <ele>1332.0439453</ele>
        <time>2011-06-26T07:37:33Z</time>
      </trkpt>
      <trkpt lat="45.64536" lon="5.98207">
        <ele>1330.1213379</ele>
        <time>2011-06-26T07:37:41Z</time>
      </trkpt>
      <trkpt lat="45.6454" lon="5.98181">
        <ele>1331.0827637</ele>
        <time>2011-06-26T07:37:48Z</time>
      </trkpt>
      <trkpt lat="45.64545" lon="5.98144">
        <ele>1331.0827637</ele>
        <time>2011-06-26T07:37:57Z</time>
      </trkpt>
      <trkpt lat="45.64548" lon="5.98111">
        <ele>1332.5246582</ele>
        <time>2011-06-26T07:38:04Z</time>
      </trkpt>
      <trkpt lat="45.64555" lon="5.98089">
        <ele>1333.005127</ele>
        <time>2011-06-26T07:38:10Z</time>
      </trkpt>
      <trkpt lat="45.64567" lon="5.98077">
        <ele>1333.4858398</ele>
        <time>2011-06-26T07:38:15Z</time>
      </trkpt>
      <trkpt lat="45.64581" lon="5.98081">
        <ele>1334.4472656</ele>
        <time>2011-06-26T07:38:20Z</time>
      </trkpt>
      <trkpt lat="45.64594" lon="5.98103">
        <ele>1334.9279785</ele>
        <time>2011-06-26T07:38:26Z</time>
      </trkpt>
      <trkpt lat="45.64607" lon="5.9813">
        <ele>1335.8891602</ele>
        <time>2011-06-26T07:38:33Z</time>
      </trkpt>
      <trkpt lat="45.64626" lon="5.9814">
        <ele>1336.8503418</ele>
        <time>2011-06-26T07:38:39Z</time>
      </trkpt>
      <trkpt lat="45.64648" lon="5.9814">
        <ele>1337.8117676</ele>
        <time>2011-06-26T07:38:46Z</time>
      </trkpt>
      <trkpt lat="45.64665" lon="5.98138">
        <ele>1339.2536621</ele>
        <time>2011-06-26T07:38:51Z</time>
      </trkpt>
      <trkpt lat="45.6468" lon="5.98134">
        <ele>1342.1379395</ele>
        <time>2011-06-26T07:38:56Z</time>
      </trkpt>
      <trkpt lat="45.647" lon="5.9813">
        <ele>1344.5410156</ele>
        <time>2011-06-26T07:39:02Z</time>
      </trkpt>
      <trkpt lat="45.6473" lon="5.98124">
        <ele>1346.4638672</ele>
        <time>2011-06-26T07:39:11Z</time>
      </trkpt>
      <trkpt lat="45.64764" lon="5.98114">
        <ele>1347.9057617</ele>
        <time>2011-06-26T07:39:22Z</time>
      </trkpt>
      <trkpt lat="45.64792" lon="5.98108">
        <ele>1349.3476563</ele>
        <time>2011-06-26T07:39:31Z</time>
      </trkpt>
      <trkpt lat="45.6481" lon="5.98115">
        <ele>1348.8669434</ele>
        <time>2011-06-26T07:39:37Z</time>
      </trkpt>
      <trkpt lat="45.64824" lon="5.98135">
        <ele>1347.4250488</ele>
        <time>2011-06-26T07:39:42Z</time>
      </trkpt>
      <trkpt lat="45.64834" lon="5.98151">
        <ele>1346.9443359</ele>
        <time>2011-06-26T07:39:45Z</time>
      </trkpt>
      <trkpt lat="45.64843" lon="5.98183">
        <ele>1344.5410156</ele>
        <time>2011-06-26T07:39:49Z</time>
      </trkpt>
      <trkpt lat="45.64857" lon="5.9823">
        <ele>1341.6572266</ele>
        <time>2011-06-26T07:39:54Z</time>
      </trkpt>
      <trkpt lat="45.64868" lon="5.98246">
        <ele>1340.6958008</ele>
        <time>2011-06-26T07:39:56Z</time>
      </trkpt>
      <trkpt lat="45.64891" lon="5.98286">
        <ele>1339.734375</ele>
        <time>2011-06-26T07:40:01Z</time>
      </trkpt>
      <trkpt lat="45.64904" lon="5.98324">
        <ele>1339.2536621</ele>
        <time>2011-06-26T07:40:06Z</time>
      </trkpt>
      <trkpt lat="45.6491" lon="5.98339">
        <ele>1338.2924805</ele>
        <time>2011-06-26T07:40:08Z</time>
      </trkpt>
      <trkpt lat="45.64935" lon="5.9839">
        <ele>1335.4084473</ele>
        <time>2011-06-26T07:40:15Z</time>
      </trkpt>
      <trkpt lat="45.6494" lon="5.98397">
        <ele>1334.9279785</ele>
        <time>2011-06-26T07:40:16Z</time>
      </trkpt>
      <trkpt lat="45.64946" lon="5.98412">
        <ele>1334.4472656</ele>
        <time>2011-06-26T07:40:18Z</time>
      </trkpt>
      <trkpt lat="45.64958" lon="5.98438">
        <ele>1333.4858398</ele>
        <time>2011-06-26T07:40:22Z</time>
      </trkpt>
      <trkpt lat="45.64987" lon="5.9848">
        <ele>1332.5246582</ele>
        <time>2011-06-26T07:40:30Z</time>
      </trkpt>
      <trkpt lat="45.65001" lon="5.98499">
        <ele>1332.5246582</ele>
        <time>2011-06-26T07:40:34Z</time>
      </trkpt>
      <trkpt lat="45.65018" lon="5.98508">
        <ele>1332.0439453</ele>
        <time>2011-06-26T07:40:38Z</time>
      </trkpt>
      <trkpt lat="45.65028" lon="5.98505">
        <ele>1333.005127</ele>
        <time>2011-06-26T07:40:40Z</time>
      </trkpt>
      <trkpt lat="45.65054" lon="5.98514">
        <ele>1333.4858398</ele>
        <time>2011-06-26T07:40:46Z</time>
      </trkpt>
      <trkpt lat="45.65057" lon="5.98519">
        <ele>1333.4858398</ele>
        <time>2011-06-26T07:40:47Z</time>
      </trkpt>
      <trkpt lat="45.65079" lon="5.98562">
        <ele>1333.9665527</ele>
        <time>2011-06-26T07:40:55Z</time>
      </trkpt>
      <trkpt lat="45.65087" lon="5.9858">
        <ele>1334.9279785</ele>
        <time>2011-06-26T07:40:59Z</time>
      </trkpt>
      <trkpt lat="45.65094" lon="5.98595">
        <ele>1334.4472656</ele>
        <time>2011-06-26T07:41:02Z</time>
      </trkpt>
      <trkpt lat="45.6511" lon="5.98612">
        <ele>1333.4858398</ele>
        <time>2011-06-26T07:41:06Z</time>
      </trkpt>
      <trkpt lat="45.6514" lon="5.98629">
        <ele>1332.5246582</ele>
        <time>2011-06-26T07:41:12Z</time>
      </trkpt>
      <trkpt lat="45.65153" lon="5.98643">
        <ele>1332.5246582</ele>
        <time>2011-06-26T07:41:15Z</time>
      </trkpt>
      <trkpt lat="45.65169" lon="5.98671">
        <ele>1331.0827637</ele>
        <time>2011-06-26T07:41:20Z</time>
      </trkpt>
      <trkpt lat="45.6518" lon="5.98708">
        <ele>1330.6020508</ele>
        <time>2011-06-26T07:41:25Z</time>
      </trkpt>
      <trkpt lat="45.65184" lon="5.9875">
        <ele>1331.0827637</ele>
        <time>2011-06-26T07:41:31Z</time>
      </trkpt>
      <trkpt lat="45.65193" lon="5.98782">
        <ele>1329.640625</ele>
        <time>2011-06-26T07:41:36Z</time>
      </trkpt>
      <trkpt lat="45.65216" lon="5.98813">
        <ele>1328.6794434</ele>
        <time>2011-06-26T07:41:42Z</time>
      </trkpt>
      <trkpt lat="45.65221" lon="5.98817">
        <ele>1328.6794434</ele>
        <time>2011-06-26T07:41:43Z</time>
      </trkpt>
      <trkpt lat="45.65226" lon="5.98844">
        <ele>1328.1987305</ele>
        <time>2011-06-26T07:41:47Z</time>
      </trkpt>
      <trkpt lat="45.65227" lon="5.9886">
        <ele>1328.1987305</ele>
        <time>2011-06-26T07:41:49Z</time>
      </trkpt>
      <trkpt lat="45.6522" lon="5.98911">
        <ele>1329.1599121</ele>
        <time>2011-06-26T07:41:56Z</time>
      </trkpt>
      <trkpt lat="45.65219" lon="5.98917">
        <ele>1329.1599121</ele>
        <time>2011-06-26T07:41:57Z</time>
      </trkpt>
      <trkpt lat="45.65224" lon="5.98943">
        <ele>1330.1213379</ele>
        <time>2011-06-26T07:42:02Z</time>
      </trkpt>
      <trkpt lat="45.65227" lon="5.98946">
        <ele>1330.1213379</ele>
        <time>2011-06-26T07:42:03Z</time>
      </trkpt>
      <trkpt lat="45.6525" lon="5.98962">
        <ele>1331.5632324</ele>
        <time>2011-06-26T07:42:09Z</time>
      </trkpt>
      <trkpt lat="45.65261" lon="5.9898">
        <ele>1332.0439453</ele>
        <time>2011-06-26T07:42:13Z</time>
      </trkpt>
      <trkpt lat="45.65278" lon="5.99038">
        <ele>1330.1213379</ele>
        <time>2011-06-26T07:42:21Z</time>
      </trkpt>
      <trkpt lat="45.65289" lon="5.99064">
        <ele>1330.1213379</ele>
        <time>2011-06-26T07:42:25Z</time>
      </trkpt>
      <trkpt lat="45.65307" lon="5.99087">
        <ele>1330.6020508</ele>
        <time>2011-06-26T07:42:30Z</time>
      </trkpt>
      <trkpt lat="45.6532" lon="5.99097">
        <ele>1331.0827637</ele>
        <time>2011-06-26T07:42:33Z</time>
      </trkpt>
      <trkpt lat="45.65338" lon="5.99109">
        <ele>1333.9665527</ele>
        <time>2011-06-26T07:42:38Z</time>
      </trkpt>
      <trkpt lat="45.65354" lon="5.99132">
        <ele>1336.369873</ele>
        <time>2011-06-26T07:42:45Z</time>
      </trkpt>
      <trkpt lat="45.65368" lon="5.99168">
        <ele>1338.2924805</ele>
        <time>2011-06-26T07:42:53Z</time>
      </trkpt>
      <trkpt lat="45.65369" lon="5.99197">
        <ele>1338.2924805</ele>
        <time>2011-06-26T07:42:58Z</time>
      </trkpt>
      <trkpt lat="45.65371" lon="5.99236">
        <ele>1339.2536621</ele>
        <time>2011-06-26T07:43:04Z</time>
      </trkpt>
      <trkpt lat="45.65374" lon="5.99253">
        <ele>1340.6958008</ele>
        <time>2011-06-26T07:43:08Z</time>
      </trkpt>
      <trkpt lat="45.65378" lon="5.99293">
        <ele>1344.0605469</ele>
        <time>2011-06-26T07:43:17Z</time>
      </trkpt>
      <trkpt lat="45.65381" lon="5.99328">
        <ele>1346.4638672</ele>
        <time>2011-06-26T07:43:24Z</time>
      </trkpt>
      <trkpt lat="45.65384" lon="5.99363">
        <ele>1347.9057617</ele>
        <time>2011-06-26T07:43:31Z</time>
      </trkpt>
      <trkpt lat="45.65378" lon="5.99378">
        <ele>1348.8669434</ele>
        <time>2011-06-26T07:43:35Z</time>
      </trkpt>
      <trkpt lat="45.65367" lon="5.99398">
        <ele>1351.2702637</ele>
        <time>2011-06-26T07:43:42Z</time>
      </trkpt>
      <trkpt lat="45.65351" lon="5.9941">
        <ele>1354.6347656</ele>
        <time>2011-06-26T07:43:48Z</time>
      </trkpt>
      <trkpt lat="45.65336" lon="5.99407">
        <ele>1359.9221191</ele>
        <time>2011-06-26T07:43:53Z</time>
      </trkpt>
      <trkpt lat="45.65325" lon="5.99417">
        <ele>1363.2868652</ele>
        <time>2011-06-26T07:43:59Z</time>
      </trkpt>
      <trkpt lat="45.65322" lon="5.99439">
        <ele>1363.767334</ele>
        <time>2011-06-26T07:44:04Z</time>
      </trkpt>
      <trkpt lat="45.65315" lon="5.99456">
        <ele>1367.1320801</ele>
        <time>2011-06-26T07:44:09Z</time>
      </trkpt>
      <trkpt lat="45.65299" lon="5.99471">
        <ele>1363.767334</ele>
        <time>2011-06-26T07:44:15Z</time>
      </trkpt>
      <trkpt lat="45.65284" lon="5.99477">
        <ele>1360.8835449</ele>
        <time>2011-06-26T07:44:20Z</time>
      </trkpt>
      <trkpt lat="45.65267" lon="5.99479">
        <ele>1357.9997559</ele>
        <time>2011-06-26T07:44:25Z</time>
      </trkpt>
      <trkpt lat="45.65252" lon="5.99482">
        <ele>1361.8449707</ele>
        <time>2011-06-26T07:44:30Z</time>
      </trkpt>
      <trkpt lat="45.65236" lon="5.99489">
        <ele>1362.3254395</ele>
        <time>2011-06-26T07:44:35Z</time>
      </trkpt>
      <trkpt lat="45.65223" lon="5.99499">
        <ele>1361.3642578</ele>
        <time>2011-06-26T07:44:38Z</time>
      </trkpt>
      <trkpt lat="45.65201" lon="5.99508">
        <ele>1362.8061523</ele>
        <time>2011-06-26T07:44:43Z</time>
      </trkpt>
      <trkpt lat="45.65186" lon="5.99509">
        <ele>1363.2868652</ele>
        <time>2011-06-26T07:44:47Z</time>
      </trkpt>
      <trkpt lat="45.65169" lon="5.99518">
        <ele>1360.402832</ele>
        <time>2011-06-26T07:44:50Z</time>
      </trkpt>
      <trkpt lat="45.65164" lon="5.99523">
        <ele>1359.4416504</ele>
        <time>2011-06-26T07:44:51Z</time>
      </trkpt>
      <trkpt lat="45.65148" lon="5.99542">
        <ele>1357.0383301</ele>
        <time>2011-06-26T07:44:56Z</time>
      </trkpt>
      <trkpt lat="45.65142" lon="5.9955">
        <ele>1356.0769043</ele>
        <time>2011-06-26T07:44:58Z</time>
      </trkpt>
      <trkpt lat="45.6513" lon="5.9957">
        <ele>1354.6347656</ele>
        <time>2011-06-26T07:45:02Z</time>
      </trkpt>
      <trkpt lat="45.65109" lon="5.99584">
        <ele>1350.309082</ele>
        <time>2011-06-26T07:45:08Z</time>
      </trkpt>
      <trkpt lat="45.65088" lon="5.99592">
        <ele>1346.4638672</ele>
        <time>2011-06-26T07:45:13Z</time>
      </trkpt>
      <trkpt lat="45.65085" lon="5.99594">
        <ele>1345.9831543</ele>
        <time>2011-06-26T07:45:14Z</time>
      </trkpt>
      <trkpt lat="45.65072" lon="5.996">
        <ele>1341.1765137</ele>
        <time>2011-06-26T07:45:18Z</time>
      </trkpt>
      <trkpt lat="45.65059" lon="5.99587">
        <ele>1335.4084473</ele>
        <time>2011-06-26T07:45:23Z</time>
      </trkpt>
      <trkpt lat="45.65044" lon="5.99579">
        <ele>1333.4858398</ele>
        <time>2011-06-26T07:45:27Z</time>
      </trkpt>
      <trkpt lat="45.6503" lon="5.99579">
        <ele>1330.6020508</ele>
        <time>2011-06-26T07:45:30Z</time>
      </trkpt>
      <trkpt lat="45.65011" lon="5.99583">
        <ele>1328.1987305</ele>
        <time>2011-06-26T07:45:33Z</time>
      </trkpt>
      <trkpt lat="45.64988" lon="5.99589">
        <ele>1323.8725586</ele>
        <time>2011-06-26T07:45:37Z</time>
      </trkpt>
      <trkpt lat="45.64967" lon="5.9958">
        <ele>1320.0273438</ele>
        <time>2011-06-26T07:45:42Z</time>
      </trkpt>
      <trkpt lat="45.6496" lon="5.99572">
        <ele>1316.6628418</ele>
        <time>2011-06-26T07:45:44Z</time>
      </trkpt>
      <trkpt lat="45.6494" lon="5.99566">
        <ele>1316.1821289</ele>
        <time>2011-06-26T07:45:49Z</time>
      </trkpt>
      <trkpt lat="45.6494" lon="5.99575">
        <ele>1317.6240234</ele>
        <time>2011-06-26T07:45:52Z</time>
      </trkpt>
      <trkpt lat="45.64941" lon="5.99582">
        <ele>1316.1821289</ele>
        <time>2011-06-26T07:45:54Z</time>
      </trkpt>
      <trkpt lat="45.64941" lon="5.9959">
        <ele>1315.7016602</ele>
        <time>2011-06-26T07:45:56Z</time>
      </trkpt>
      <trkpt lat="45.64933" lon="5.99612">
        <ele>1317.1435547</ele>
        <time>2011-06-26T07:46:01Z</time>
      </trkpt>
      <trkpt lat="45.64929" lon="5.99634">
        <ele>1323.3920898</ele>
        <time>2011-06-26T07:46:05Z</time>
      </trkpt>
      <trkpt lat="45.64928" lon="5.99636">
        <ele>1325.7954102</ele>
        <time>2011-06-26T07:46:06Z</time>
      </trkpt>
      <trkpt lat="45.64913" lon="5.99649">
        <ele>1333.005127</ele>
        <time>2011-06-26T07:46:15Z</time>
      </trkpt>
      <trkpt lat="45.64911" lon="5.99651">
        <ele>1334.4472656</ele>
        <time>2011-06-26T07:46:17Z</time>
      </trkpt>
      <trkpt lat="45.64903" lon="5.99666">
        <ele>1334.4472656</ele>
        <time>2011-06-26T07:46:23Z</time>
      </trkpt>
      <trkpt lat="45.64895" lon="5.9968">
        <ele>1330.1213379</ele>
        <time>2011-06-26T07:46:26Z</time>
      </trkpt>
      <trkpt lat="45.6488" lon="5.99695">
        <ele>1327.7180176</ele>
        <time>2011-06-26T07:46:31Z</time>
      </trkpt>
      <trkpt lat="45.64869" lon="5.99706">
        <ele>1323.3920898</ele>
        <time>2011-06-26T07:46:36Z</time>
      </trkpt>
      <trkpt lat="45.64856" lon="5.99723">
        <ele>1318.1047363</ele>
        <time>2011-06-26T07:46:42Z</time>
      </trkpt>
      <trkpt lat="45.64848" lon="5.99737">
        <ele>1315.7016602</ele>
        <time>2011-06-26T07:46:47Z</time>
      </trkpt>
      <trkpt lat="45.64839" lon="5.99748">
        <ele>1315.2209473</ele>
        <time>2011-06-26T07:46:52Z</time>
      </trkpt>
      <trkpt lat="45.64838" lon="5.99753">
        <ele>1315.2209473</ele>
        <time>2011-06-26T07:46:55Z</time>
      </trkpt>
      <trkpt lat="45.64837" lon="5.99764">
        <ele>1316.1821289</ele>
        <time>2011-06-26T07:47:00Z</time>
      </trkpt>
      <trkpt lat="45.64835" lon="5.99769">
        <ele>1316.1821289</ele>
        <time>2011-06-26T07:47:02Z</time>
      </trkpt>
      <trkpt lat="45.6483" lon="5.9978">
        <ele>1313.2983398</ele>
        <time>2011-06-26T07:47:09Z</time>
      </trkpt>
      <trkpt lat="45.64826" lon="5.99789">
        <ele>1311.8564453</ele>
        <time>2011-06-26T07:47:13Z</time>
      </trkpt>
      <trkpt lat="45.64824" lon="5.99796">
        <ele>1309.453125</ele>
        <time>2011-06-26T07:47:17Z</time>
      </trkpt>
      <trkpt lat="45.64819" lon="5.998">
        <ele>1308.9724121</ele>
        <time>2011-06-26T07:47:21Z</time>
      </trkpt>
      <trkpt lat="45.64815" lon="5.99815">
        <ele>1306.5688477</ele>
        <time>2011-06-26T07:47:25Z</time>
      </trkpt>
      <trkpt lat="45.64815" lon="5.99822">
        <ele>1305.607666</ele>
        <time>2011-06-26T07:47:28Z</time>
      </trkpt>
      <trkpt lat="45.64813" lon="5.99832">
        <ele>1305.607666</ele>
        <time>2011-06-26T07:47:32Z</time>
      </trkpt>
      <trkpt lat="45.64812" lon="5.99841">
        <ele>1305.1269531</ele>
        <time>2011-06-26T07:47:39Z</time>
      </trkpt>
      <trkpt lat="45.64814" lon="5.99846">
        <ele>1305.1269531</ele>
        <time>2011-06-26T07:47:42Z</time>
      </trkpt>
      <trkpt lat="45.64809" lon="5.9985">
        <ele>1305.1269531</ele>
        <time>2011-06-26T07:47:48Z</time>
      </trkpt>
      <trkpt lat="45.648" lon="5.99855">
        <ele>1305.1269531</ele>
        <time>2011-06-26T07:47:53Z</time>
      </trkpt>
      <trkpt lat="45.64789" lon="5.99861">
        <ele>1303.6850586</ele>
        <time>2011-06-26T07:47:57Z</time>
      </trkpt>
      <trkpt lat="45.64781" lon="5.9987">
        <ele>1303.2043457</ele>
        <time>2011-06-26T07:48:01Z</time>
      </trkpt>
      <trkpt lat="45.64778" lon="5.99879">
        <ele>1305.1269531</ele>
        <time>2011-06-26T07:48:04Z</time>
      </trkpt>
      <trkpt lat="45.64778" lon="5.99885">
        <ele>1305.607666</ele>
        <time>2011-06-26T07:48:17Z</time>
      </trkpt>
      <trkpt lat="45.64779" lon="5.99887">
        <ele>1301.7624512</ele>
        <time>2011-06-26T07:48:32Z</time>
      </trkpt>
      <trkpt lat="45.64781" lon="5.99903">
        <ele>1299.3591309</ele>
        <time>2011-06-26T07:48:38Z</time>
      </trkpt>
      <trkpt lat="45.6478" lon="5.99922">
        <ele>1299.3591309</ele>
        <time>2011-06-26T07:48:43Z</time>
      </trkpt>
      <trkpt lat="45.64781" lon="5.99931">
        <ele>1298.878418</ele>
        <time>2011-06-26T07:48:45Z</time>
      </trkpt>
      <trkpt lat="45.64782" lon="5.99959">
        <ele>1292.1494141</ele>
        <time>2011-06-26T07:48:51Z</time>
      </trkpt>
      <trkpt lat="45.64786" lon="5.99981">
        <ele>1294.0720215</ele>
        <time>2011-06-26T07:48:55Z</time>
      </trkpt>
      <trkpt lat="45.64789" lon="5.9999">
        <ele>1294.0720215</ele>
        <time>2011-06-26T07:48:58Z</time>
      </trkpt>
      <trkpt lat="45.64788" lon="6.00005">
        <ele>1294.0720215</ele>
        <time>2011-06-26T07:49:03Z</time>
      </trkpt>
      <trkpt lat="45.64788" lon="6.0001">
        <ele>1295.0332031</ele>
        <time>2011-06-26T07:49:06Z</time>
      </trkpt>
      <trkpt lat="45.64788" lon="6.00014">
        <ele>1295.0332031</ele>
        <time>2011-06-26T07:49:10Z</time>
      </trkpt>
      <trkpt lat="45.64787" lon="6.00025">
        <ele>1293.1105957</ele>
        <time>2011-06-26T07:49:15Z</time>
      </trkpt>
      <trkpt lat="45.64785" lon="6.00033">
        <ele>1290.7070313</ele>
        <time>2011-06-26T07:49:19Z</time>
      </trkpt>
      <trkpt lat="45.64785" lon="6.00039">
        <ele>1289.2651367</ele>
        <time>2011-06-26T07:49:25Z</time>
      </trkpt>
      <trkpt lat="45.64787" lon="6.00042">
        <ele>1290.7070313</ele>
        <time>2011-06-26T07:49:30Z</time>
      </trkpt>
      <trkpt lat="45.64785" lon="6.00046">
        <ele>1290.7070313</ele>
        <time>2011-06-26T07:49:36Z</time>
      </trkpt>
      <trkpt lat="45.64785" lon="6.00048">
        <ele>1290.2265625</ele>
        <time>2011-06-26T07:49:37Z</time>
      </trkpt>
      <trkpt lat="45.64784" lon="6.00056">
        <ele>1290.2265625</ele>
        <time>2011-06-26T07:49:44Z</time>
      </trkpt>
      <trkpt lat="45.64788" lon="6.0006">
        <ele>1289.2651367</ele>
        <time>2011-06-26T07:49:48Z</time>
      </trkpt>
      <trkpt lat="45.64791" lon="6.00063">
        <ele>1289.7458496</ele>
        <time>2011-06-26T07:49:51Z</time>
      </trkpt>
      <trkpt lat="45.64796" lon="6.00068">
        <ele>1288.784668</ele>
        <time>2011-06-26T07:49:55Z</time>
      </trkpt>
      <trkpt lat="45.64804" lon="6.00077">
        <ele>1287.8232422</ele>
        <time>2011-06-26T07:50:01Z</time>
      </trkpt>
      <trkpt lat="45.64808" lon="6.00079">
        <ele>1288.784668</ele>
        <time>2011-06-26T07:50:03Z</time>
      </trkpt>
      <trkpt lat="45.64814" lon="6.00078">
        <ele>1294.5524902</ele>
        <time>2011-06-26T07:50:09Z</time>
      </trkpt>
      <trkpt lat="45.64826" lon="6.0008">
        <ele>1295.9946289</ele>
        <time>2011-06-26T07:50:14Z</time>
      </trkpt>
      <trkpt lat="45.64836" lon="6.00082">
        <ele>1298.3977051</ele>
        <time>2011-06-26T07:50:19Z</time>
      </trkpt>
      <trkpt lat="45.6485" lon="6.00081">
        <ele>1301.2817383</ele>
        <time>2011-06-26T07:50:27Z</time>
      </trkpt>
      <trkpt lat="45.64852" lon="6.00083">
        <ele>1299.8398438</ele>
        <time>2011-06-26T07:50:31Z</time>
      </trkpt>
      <trkpt lat="45.64854" lon="6.00091">
        <ele>1297.9172363</ele>
        <time>2011-06-26T07:50:36Z</time>
      </trkpt>
      <trkpt lat="45.64854" lon="6.00095">
        <ele>1296.9558105</ele>
        <time>2011-06-26T07:50:39Z</time>
      </trkpt>
      <trkpt lat="45.64851" lon="6.00099">
        <ele>1297.4365234</ele>
        <time>2011-06-26T07:50:43Z</time>
      </trkpt>
      <trkpt lat="45.64846" lon="6.00108">
        <ele>1295.9946289</ele>
        <time>2011-06-26T07:50:50Z</time>
      </trkpt>
      <trkpt lat="45.64839" lon="6.0012">
        <ele>1293.5913086</ele>
        <time>2011-06-26T07:50:55Z</time>
      </trkpt>
      <trkpt lat="45.64836" lon="6.00133">
        <ele>1292.1494141</ele>
        <time>2011-06-26T07:50:58Z</time>
      </trkpt>
      <trkpt lat="45.64834" lon="6.00148">
        <ele>1291.1877441</ele>
        <time>2011-06-26T07:51:02Z</time>
      </trkpt>
      <trkpt lat="45.6483" lon="6.00166">
        <ele>1290.7070313</ele>
        <time>2011-06-26T07:51:09Z</time>
      </trkpt>
      <trkpt lat="45.64823" lon="6.00179">
        <ele>1289.7458496</ele>
        <time>2011-06-26T07:51:14Z</time>
      </trkpt>
      <trkpt lat="45.64822" lon="6.00201">
        <ele>1287.3425293</ele>
        <time>2011-06-26T07:51:18Z</time>
      </trkpt>
      <trkpt lat="45.64823" lon="6.00208">
        <ele>1286.8618164</ele>
        <time>2011-06-26T07:51:20Z</time>
      </trkpt>
      <trkpt lat="45.64822" lon="6.00213">
        <ele>1285.4199219</ele>
        <time>2011-06-26T07:51:22Z</time>
      </trkpt>
      <trkpt lat="45.6482" lon="6.00225">
        <ele>1283.0166016</ele>
        <time>2011-06-26T07:51:30Z</time>
      </trkpt>
      <trkpt lat="45.64815" lon="6.00238">
        <ele>1279.6520996</ele>
        <time>2011-06-26T07:51:35Z</time>
      </trkpt>
      <trkpt lat="45.64817" lon="6.00261">
        <ele>1276.7683105</ele>
        <time>2011-06-26T07:51:40Z</time>
      </trkpt>
      <trkpt lat="45.64822" lon="6.00287">
        <ele>1276.2875977</ele>
        <time>2011-06-26T07:51:43Z</time>
      </trkpt>
      <trkpt lat="45.64821" lon="6.00295">
        <ele>1276.7683105</ele>
        <time>2011-06-26T07:51:46Z</time>
      </trkpt>
      <trkpt lat="45.64818" lon="6.00295">
        <ele>1283.0166016</ele>
        <time>2011-06-26T07:51:51Z</time>
      </trkpt>
      <trkpt lat="45.64813" lon="6.00297">
        <ele>1281.574707</ele>
        <time>2011-06-26T07:51:59Z</time>
      </trkpt>
      <trkpt lat="45.64807" lon="6.00307">
        <ele>1279.6520996</ele>
        <time>2011-06-26T07:52:05Z</time>
      </trkpt>
      <trkpt lat="45.64805" lon="6.00309">
        <ele>1279.1713867</ele>
        <time>2011-06-26T07:52:06Z</time>
      </trkpt>
      <trkpt lat="45.64791" lon="6.00316">
        <ele>1277.7294922</ele>
        <time>2011-06-26T07:52:11Z</time>
      </trkpt>
      <trkpt lat="45.64782" lon="6.00318">
        <ele>1274.845459</ele>
        <time>2011-06-26T07:52:14Z</time>
      </trkpt>
      <trkpt lat="45.64764" lon="6.00331">
        <ele>1268.5969238</ele>
        <time>2011-06-26T07:52:20Z</time>
      </trkpt>
      <trkpt lat="45.64749" lon="6.00344">
        <ele>1262.3483887</ele>
        <time>2011-06-26T07:52:25Z</time>
      </trkpt>
      <trkpt lat="45.64743" lon="6.00365">
        <ele>1257.0610352</ele>
        <time>2011-06-26T07:52:29Z</time>
      </trkpt>
      <trkpt lat="45.64745" lon="6.00389">
        <ele>1254.1772461</ele>
        <time>2011-06-26T07:52:33Z</time>
      </trkpt>
      <trkpt lat="45.64746" lon="6.00395">
        <ele>1252.7351074</ele>
        <time>2011-06-26T07:52:34Z</time>
      </trkpt>
      <trkpt lat="45.64754" lon="6.00422">
        <ele>1252.7351074</ele>
        <time>2011-06-26T07:52:39Z</time>
      </trkpt>
      <trkpt lat="45.64764" lon="6.00435">
        <ele>1252.7351074</ele>
        <time>2011-06-26T07:52:42Z</time>
      </trkpt>
      <trkpt lat="45.64772" lon="6.00445">
        <ele>1251.7739258</ele>
        <time>2011-06-26T07:52:45Z</time>
      </trkpt>
      <trkpt lat="45.64786" lon="6.00457">
        <ele>1248.8898926</ele>
        <time>2011-06-26T07:52:49Z</time>
      </trkpt>
      <trkpt lat="45.64793" lon="6.00466">
        <ele>1248.8898926</ele>
        <time>2011-06-26T07:52:51Z</time>
      </trkpt>
      <trkpt lat="45.648" lon="6.00482">
        <ele>1248.4091797</ele>
        <time>2011-06-26T07:52:57Z</time>
      </trkpt>
      <trkpt lat="45.64808" lon="6.00496">
        <ele>1249.8513184</ele>
        <time>2011-06-26T07:53:02Z</time>
      </trkpt>
      <trkpt lat="45.64816" lon="6.00506">
        <ele>1250.3320313</ele>
        <time>2011-06-26T07:53:05Z</time>
      </trkpt>
      <trkpt lat="45.6482" lon="6.00522">
        <ele>1252.7351074</ele>
        <time>2011-06-26T07:53:09Z</time>
      </trkpt>
      <trkpt lat="45.64825" lon="6.00549">
        <ele>1253.6965332</ele>
        <time>2011-06-26T07:53:14Z</time>
      </trkpt>
      <trkpt lat="45.64831" lon="6.0057">
        <ele>1252.2543945</ele>
        <time>2011-06-26T07:53:20Z</time>
      </trkpt>
      <trkpt lat="45.64832" lon="6.00588">
        <ele>1251.7739258</ele>
        <time>2011-06-26T07:53:24Z</time>
      </trkpt>
      <trkpt lat="45.64834" lon="6.00595">
        <ele>1251.2932129</ele>
        <time>2011-06-26T07:53:26Z</time>
      </trkpt>
      <trkpt lat="45.64838" lon="6.00593">
        <ele>1250.8125</ele>
        <time>2011-06-26T07:53:30Z</time>
      </trkpt>
      <trkpt lat="45.64846" lon="6.00588">
        <ele>1252.2543945</ele>
        <time>2011-06-26T07:53:36Z</time>
      </trkpt>
      <trkpt lat="45.64853" lon="6.00583">
        <ele>1254.6577148</ele>
        <time>2011-06-26T07:53:42Z</time>
      </trkpt>
      <trkpt lat="45.64854" lon="6.00579">
        <ele>1253.2158203</ele>
        <time>2011-06-26T07:53:48Z</time>
      </trkpt>
      <trkpt lat="45.64856" lon="6.0058">
        <ele>1254.1772461</ele>
        <time>2011-06-26T07:53:58Z</time>
      </trkpt>
      <trkpt lat="45.64864" lon="6.00573">
        <ele>1253.6965332</ele>
        <time>2011-06-26T07:54:03Z</time>
      </trkpt>
      <trkpt lat="45.6487" lon="6.00569">
        <ele>1252.7351074</ele>
        <time>2011-06-26T07:54:07Z</time>
      </trkpt>
      <trkpt lat="45.64885" lon="6.00563">
        <ele>1253.6965332</ele>
        <time>2011-06-26T07:54:12Z</time>
      </trkpt>
      <trkpt lat="45.64904" lon="6.00562">
        <ele>1255.1384277</ele>
        <time>2011-06-26T07:54:17Z</time>
      </trkpt>
      <trkpt lat="45.64914" lon="6.00565">
        <ele>1255.1384277</ele>
        <time>2011-06-26T07:54:21Z</time>
      </trkpt>
      <trkpt lat="45.64917" lon="6.00573">
        <ele>1253.6965332</ele>
        <time>2011-06-26T07:54:25Z</time>
      </trkpt>
      <trkpt lat="45.64919" lon="6.00583">
        <ele>1252.7351074</ele>
        <time>2011-06-26T07:54:29Z</time>
      </trkpt>
      <trkpt lat="45.64916" lon="6.00597">
        <ele>1250.3320313</ele>
        <time>2011-06-26T07:54:35Z</time>
      </trkpt>
      <trkpt lat="45.64917" lon="6.006">
        <ele>1250.3320313</ele>
        <time>2011-06-26T07:54:36Z</time>
      </trkpt>
      <trkpt lat="45.64921" lon="6.0062">
        <ele>1251.7739258</ele>
        <time>2011-06-26T07:54:41Z</time>
      </trkpt>
      <trkpt lat="45.64926" lon="6.00638">
        <ele>1253.6965332</ele>
        <time>2011-06-26T07:54:45Z</time>
      </trkpt>
      <trkpt lat="45.64936" lon="6.00641">
        <ele>1252.7351074</ele>
        <time>2011-06-26T07:54:49Z</time>
      </trkpt>
      <trkpt lat="45.6494" lon="6.00645">
        <ele>1252.2543945</ele>
        <time>2011-06-26T07:54:51Z</time>
      </trkpt>
      <trkpt lat="45.64948" lon="6.00663">
        <ele>1252.2543945</ele>
        <time>2011-06-26T07:54:58Z</time>
      </trkpt>
      <trkpt lat="45.64952" lon="6.0067">
        <ele>1252.7351074</ele>
        <time>2011-06-26T07:55:00Z</time>
      </trkpt>
      <trkpt lat="45.64966" lon="6.00685">
        <ele>1255.1384277</ele>
        <time>2011-06-26T07:55:05Z</time>
      </trkpt>
      <trkpt lat="45.64978" lon="6.00699">
        <ele>1256.5803223</ele>
        <time>2011-06-26T07:55:10Z</time>
      </trkpt>
      <trkpt lat="45.64986" lon="6.00713">
        <ele>1260.9064941</ele>
        <time>2011-06-26T07:55:14Z</time>
      </trkpt>
      <trkpt lat="45.64995" lon="6.00728">
        <ele>1262.3483887</ele>
        <time>2011-06-26T07:55:19Z</time>
      </trkpt>
      <trkpt lat="45.64999" lon="6.00734">
        <ele>1261.387207</ele>
        <time>2011-06-26T07:55:22Z</time>
      </trkpt>
      <trkpt lat="45.65007" lon="6.00748">
        <ele>1265.2324219</ele>
        <time>2011-06-26T07:55:28Z</time>
      </trkpt>
      <trkpt lat="45.65018" lon="6.0076">
        <ele>1262.3483887</ele>
        <time>2011-06-26T07:55:33Z</time>
      </trkpt>
      <trkpt lat="45.65024" lon="6.00771">
        <ele>1262.3483887</ele>
        <time>2011-06-26T07:55:37Z</time>
      </trkpt>
      <trkpt lat="45.65025" lon="6.00774">
        <ele>1262.3483887</ele>
        <time>2011-06-26T07:55:39Z</time>
      </trkpt>
      <trkpt lat="45.65034" lon="6.00789">
        <ele>1262.3483887</ele>
        <time>2011-06-26T07:55:45Z</time>
      </trkpt>
      <trkpt lat="45.65038" lon="6.00798">
        <ele>1262.8291016</ele>
        <time>2011-06-26T07:55:47Z</time>
      </trkpt>
      <trkpt lat="45.65047" lon="6.00819">
        <ele>1257.541748</ele>
        <time>2011-06-26T07:55:52Z</time>
      </trkpt>
      <trkpt lat="45.65059" lon="6.00828">
        <ele>1257.541748</ele>
        <time>2011-06-26T07:55:57Z</time>
      </trkpt>
      <trkpt lat="45.65067" lon="6.00837">
        <ele>1259.9448242</ele>
        <time>2011-06-26T07:56:00Z</time>
      </trkpt>
      <trkpt lat="45.65076" lon="6.00855">
        <ele>1261.387207</ele>
        <time>2011-06-26T07:56:06Z</time>
      </trkpt>
      <trkpt lat="45.65082" lon="6.00872">
        <ele>1260.9064941</ele>
        <time>2011-06-26T07:56:11Z</time>
      </trkpt>
      <trkpt lat="45.65088" lon="6.00894">
        <ele>1258.9836426</ele>
        <time>2011-06-26T07:56:16Z</time>
      </trkpt>
      <trkpt lat="45.6509" lon="6.009">
        <ele>1256.0996094</ele>
        <time>2011-06-26T07:56:17Z</time>
      </trkpt>
      <trkpt lat="45.65097" lon="6.00932">
        <ele>1249.8513184</ele>
        <time>2011-06-26T07:56:23Z</time>
      </trkpt>
      <trkpt lat="45.65098" lon="6.0094">
        <ele>1253.6965332</ele>
        <time>2011-06-26T07:56:24Z</time>
      </trkpt>
      <trkpt lat="45.65112" lon="6.00966">
        <ele>1260.4257813</ele>
        <time>2011-06-26T07:56:30Z</time>
      </trkpt>
      <trkpt lat="45.65114" lon="6.00973">
        <ele>1262.3483887</ele>
        <time>2011-06-26T07:56:32Z</time>
      </trkpt>
      <trkpt lat="45.65111" lon="6.00987">
        <ele>1266.6743164</ele>
        <time>2011-06-26T07:56:36Z</time>
      </trkpt>
      <trkpt lat="45.65099" lon="6.01007">
        <ele>1267.1550293</ele>
        <time>2011-06-26T07:56:42Z</time>
      </trkpt>
      <trkpt lat="45.65083" lon="6.01021">
        <ele>1262.8291016</ele>
        <time>2011-06-26T07:56:46Z</time>
      </trkpt>
      <trkpt lat="45.65074" lon="6.01026">
        <ele>1261.387207</ele>
        <time>2011-06-26T07:56:48Z</time>
      </trkpt>
      <trkpt lat="45.65062" lon="6.01038">
        <ele>1259.9448242</ele>
        <time>2011-06-26T07:56:51Z</time>
      </trkpt>
      <trkpt lat="45.65045" lon="6.01054">
        <ele>1255.6191406</ele>
        <time>2011-06-26T07:56:56Z</time>
      </trkpt>
      <trkpt lat="45.65043" lon="6.01059">
        <ele>1256.0996094</ele>
        <time>2011-06-26T07:56:57Z</time>
      </trkpt>
      <trkpt lat="45.65036" lon="6.01071">
        <ele>1256.5803223</ele>
        <time>2011-06-26T07:56:59Z</time>
      </trkpt>
      <trkpt lat="45.6503" lon="6.01091">
        <ele>1255.1384277</ele>
        <time>2011-06-26T07:57:02Z</time>
      </trkpt>
      <trkpt lat="45.65021" lon="6.01121">
        <ele>1255.1384277</ele>
        <time>2011-06-26T07:57:07Z</time>
      </trkpt>
      <trkpt lat="45.65014" lon="6.01135">
        <ele>1252.7351074</ele>
        <time>2011-06-26T07:57:10Z</time>
      </trkpt>
      <trkpt lat="45.64996" lon="6.01161">
        <ele>1247.447998</ele>
        <time>2011-06-26T07:57:15Z</time>
      </trkpt>
      <trkpt lat="45.64998" lon="6.01183">
        <ele>1245.5253906</ele>
        <time>2011-06-26T07:57:19Z</time>
      </trkpt>
      <trkpt lat="45.6501" lon="6.01204">
        <ele>1239.2766113</ele>
        <time>2011-06-26T07:57:24Z</time>
      </trkpt>
      <trkpt lat="45.65013" lon="6.01208">
        <ele>1237.8347168</ele>
        <time>2011-06-26T07:57:25Z</time>
      </trkpt>
      <trkpt lat="45.65033" lon="6.01228">
        <ele>1230.625</ele>
        <time>2011-06-26T07:57:31Z</time>
      </trkpt>
      <trkpt lat="45.65036" lon="6.01246">
        <ele>1229.6635742</ele>
        <time>2011-06-26T07:57:35Z</time>
      </trkpt>
      <trkpt lat="45.65036" lon="6.0125">
        <ele>1229.6635742</ele>
        <time>2011-06-26T07:57:36Z</time>
      </trkpt>
      <trkpt lat="45.65036" lon="6.0126">
        <ele>1227.7407227</ele>
        <time>2011-06-26T07:57:39Z</time>
      </trkpt>
      <trkpt lat="45.65041" lon="6.01272">
        <ele>1220.5310059</ele>
        <time>2011-06-26T07:57:43Z</time>
      </trkpt>
      <trkpt lat="45.65052" lon="6.01296">
        <ele>1210.9177246</ele>
        <time>2011-06-26T07:57:49Z</time>
      </trkpt>
      <trkpt lat="45.65053" lon="6.01304">
        <ele>1208.9951172</ele>
        <time>2011-06-26T07:57:50Z</time>
      </trkpt>
      <trkpt lat="45.65055" lon="6.01327">
        <ele>1206.5917969</ele>
        <time>2011-06-26T07:57:53Z</time>
      </trkpt>
      <trkpt lat="45.65064" lon="6.01349">
        <ele>1210.4370117</ele>
        <time>2011-06-26T07:57:57Z</time>
      </trkpt>
      <trkpt lat="45.65073" lon="6.01362">
        <ele>1212.3598633</ele>
        <time>2011-06-26T07:58:00Z</time>
      </trkpt>
      <trkpt lat="45.65096" lon="6.0139">
        <ele>1218.6083984</ele>
        <time>2011-06-26T07:58:07Z</time>
      </trkpt>
      <trkpt lat="45.65102" lon="6.01397">
        <ele>1218.1276855</ele>
        <time>2011-06-26T07:58:09Z</time>
      </trkpt>
      <trkpt lat="45.65108" lon="6.01412">
        <ele>1217.6469727</ele>
        <time>2011-06-26T07:58:12Z</time>
      </trkpt>
      <trkpt lat="45.65115" lon="6.01426">
        <ele>1217.6469727</ele>
        <time>2011-06-26T07:58:16Z</time>
      </trkpt>
      <trkpt lat="45.65131" lon="6.01448">
        <ele>1217.1665039</ele>
        <time>2011-06-26T07:58:22Z</time>
      </trkpt>
      <trkpt lat="45.65147" lon="6.01469">
        <ele>1220.050293</ele>
        <time>2011-06-26T07:58:26Z</time>
      </trkpt>
      <trkpt lat="45.65151" lon="6.01475">
        <ele>1222.4536133</ele>
        <time>2011-06-26T07:58:27Z</time>
      </trkpt>
      <trkpt lat="45.65169" lon="6.01491">
        <ele>1227.2602539</ele>
        <time>2011-06-26T07:58:31Z</time>
      </trkpt>
      <trkpt lat="45.65184" lon="6.0151">
        <ele>1230.1442871</ele>
        <time>2011-06-26T07:58:35Z</time>
      </trkpt>
      <trkpt lat="45.652" lon="6.01554">
        <ele>1224.8569336</ele>
        <time>2011-06-26T07:58:41Z</time>
      </trkpt>
      <trkpt lat="45.652" lon="6.01568">
        <ele>1225.8181152</ele>
        <time>2011-06-26T07:58:43Z</time>
      </trkpt>
      <trkpt lat="45.652" lon="6.01582">
        <ele>1227.2602539</ele>
        <time>2011-06-26T07:58:45Z</time>
      </trkpt>
      <trkpt lat="45.652" lon="6.01596">
        <ele>1226.2988281</ele>
        <time>2011-06-26T07:58:47Z</time>
      </trkpt>
      <trkpt lat="45.65201" lon="6.01609">
        <ele>1226.779541</ele>
        <time>2011-06-26T07:58:49Z</time>
      </trkpt>
      <trkpt lat="45.65203" lon="6.01621">
        <ele>1228.2216797</ele>
        <time>2011-06-26T07:58:51Z</time>
      </trkpt>
      <trkpt lat="45.65205" lon="6.01639">
        <ele>1228.7023926</ele>
        <time>2011-06-26T07:58:54Z</time>
      </trkpt>
      <trkpt lat="45.65206" lon="6.01648">
        <ele>1225.3374023</ele>
        <time>2011-06-26T07:58:56Z</time>
      </trkpt>
      <trkpt lat="45.65201" lon="6.01668">
        <ele>1222.9343262</ele>
        <time>2011-06-26T07:59:02Z</time>
      </trkpt>
      <trkpt lat="45.65198" lon="6.01684">
        <ele>1223.4150391</ele>
        <time>2011-06-26T07:59:06Z</time>
      </trkpt>
      <trkpt lat="45.65194" lon="6.017">
        <ele>1224.3762207</ele>
        <time>2011-06-26T07:59:09Z</time>
      </trkpt>
      <trkpt lat="45.65199" lon="6.01716">
        <ele>1216.2050781</ele>
        <time>2011-06-26T07:59:13Z</time>
      </trkpt>
      <trkpt lat="45.65203" lon="6.01722">
        <ele>1214.2824707</ele>
        <time>2011-06-26T07:59:15Z</time>
      </trkpt>
      <trkpt lat="45.65203" lon="6.01734">
        <ele>1213.3212891</ele>
        <time>2011-06-26T07:59:20Z</time>
      </trkpt>
      <trkpt lat="45.65198" lon="6.01744">
        <ele>1211.8791504</ele>
        <time>2011-06-26T07:59:23Z</time>
      </trkpt>
      <trkpt lat="45.65197" lon="6.01768">
        <ele>1202.746582</ele>
        <time>2011-06-26T07:59:28Z</time>
      </trkpt>
      <trkpt lat="45.65199" lon="6.0179">
        <ele>1196.0175781</ele>
        <time>2011-06-26T07:59:32Z</time>
      </trkpt>
      <trkpt lat="45.65197" lon="6.01814">
        <ele>1189.7687988</ele>
        <time>2011-06-26T07:59:36Z</time>
      </trkpt>
      <trkpt lat="45.65194" lon="6.01826">
        <ele>1186.4042969</ele>
        <time>2011-06-26T07:59:38Z</time>
      </trkpt>
      <trkpt lat="45.65197" lon="6.01853">
        <ele>1180.1557617</ele>
        <time>2011-06-26T07:59:43Z</time>
      </trkpt>
      <trkpt lat="45.652" lon="6.01857">
        <ele>1179.6748047</ele>
        <time>2011-06-26T07:59:44Z</time>
      </trkpt>
      <trkpt lat="45.65209" lon="6.01886">
        <ele>1179.1940918</ele>
        <time>2011-06-26T07:59:49Z</time>
      </trkpt>
      <trkpt lat="45.65209" lon="6.01902">
        <ele>1177.7521973</ele>
        <time>2011-06-26T07:59:51Z</time>
      </trkpt>
      <trkpt lat="45.65212" lon="6.01928">
        <ele>1176.7910156</ele>
        <time>2011-06-26T07:59:54Z</time>
      </trkpt>
      <trkpt lat="45.65228" lon="6.01951">
        <ele>1186.8847656</ele>
        <time>2011-06-26T07:59:59Z</time>
      </trkpt>
      <trkpt lat="45.65242" lon="6.01952">
        <ele>1188.8076172</ele>
        <time>2011-06-26T08:00:04Z</time>
      </trkpt>
      <trkpt lat="45.6525" lon="6.01955">
        <ele>1189.7687988</ele>
        <time>2011-06-26T08:00:07Z</time>
      </trkpt>
      <trkpt lat="45.65272" lon="6.01962">
        <ele>1192.652832</ele>
        <time>2011-06-26T08:00:14Z</time>
      </trkpt>
      <trkpt lat="45.65284" lon="6.01963">
        <ele>1196.9787598</ele>
        <time>2011-06-26T08:00:19Z</time>
      </trkpt>
      <trkpt lat="45.65299" lon="6.01959">
        <ele>1197.4594727</ele>
        <time>2011-06-26T08:00:26Z</time>
      </trkpt>
      <trkpt lat="45.65306" lon="6.01957">
        <ele>1196.9787598</ele>
        <time>2011-06-26T08:00:32Z</time>
      </trkpt>
      <trkpt lat="45.65311" lon="6.01956">
        <ele>1196.9787598</ele>
        <time>2011-06-26T08:00:37Z</time>
      </trkpt>
      <trkpt lat="45.6532" lon="6.01957">
        <ele>1197.9401855</ele>
        <time>2011-06-26T08:00:44Z</time>
      </trkpt>
      <trkpt lat="45.65324" lon="6.01955">
        <ele>1196.9787598</ele>
        <time>2011-06-26T08:00:48Z</time>
      </trkpt>
      <trkpt lat="45.65329" lon="6.01955">
        <ele>1196.498291</ele>
        <time>2011-06-26T08:00:55Z</time>
      </trkpt>
      <trkpt lat="45.65329" lon="6.01954">
        <ele>1201.3046875</ele>
        <time>2011-06-26T08:00:59Z</time>
      </trkpt>
      <trkpt lat="45.65335" lon="6.01955">
        <ele>1200.8239746</ele>
        <time>2011-06-26T08:01:03Z</time>
      </trkpt>
      <trkpt lat="45.65346" lon="6.01966">
        <ele>1203.7080078</ele>
        <time>2011-06-26T08:01:09Z</time>
      </trkpt>
      <trkpt lat="45.65355" lon="6.01991">
        <ele>1203.7080078</ele>
        <time>2011-06-26T08:01:15Z</time>
      </trkpt>
      <trkpt lat="45.65363" lon="6.02018">
        <ele>1202.746582</ele>
        <time>2011-06-26T08:01:20Z</time>
      </trkpt>
      <trkpt lat="45.65374" lon="6.02039">
        <ele>1201.7854004</ele>
        <time>2011-06-26T08:01:24Z</time>
      </trkpt>
      <trkpt lat="45.6539" lon="6.02056">
        <ele>1201.7854004</ele>
        <time>2011-06-26T08:01:27Z</time>
      </trkpt>
      <trkpt lat="45.65408" lon="6.02067">
        <ele>1202.746582</ele>
        <time>2011-06-26T08:01:31Z</time>
      </trkpt>
      <trkpt lat="45.65422" lon="6.02066">
        <ele>1204.6691895</ele>
        <time>2011-06-26T08:01:36Z</time>
      </trkpt>
      <trkpt lat="45.65433" lon="6.02064">
        <ele>1205.6306152</ele>
        <time>2011-06-26T08:01:41Z</time>
      </trkpt>
      <trkpt lat="45.6544" lon="6.02067">
        <ele>1206.5917969</ele>
        <time>2011-06-26T08:01:44Z</time>
      </trkpt>
      <trkpt lat="45.65455" lon="6.02075">
        <ele>1209.4758301</ele>
        <time>2011-06-26T08:01:51Z</time>
      </trkpt>
      <trkpt lat="45.65467" lon="6.02085">
        <ele>1211.3984375</ele>
        <time>2011-06-26T08:01:57Z</time>
      </trkpt>
      <trkpt lat="45.65478" lon="6.02092">
        <ele>1212.3598633</ele>
        <time>2011-06-26T08:02:03Z</time>
      </trkpt>
      <trkpt lat="45.65488" lon="6.02097">
        <ele>1214.2824707</ele>
        <time>2011-06-26T08:02:08Z</time>
      </trkpt>
      <trkpt lat="45.65497" lon="6.02099">
        <ele>1215.7246094</ele>
        <time>2011-06-26T08:02:14Z</time>
      </trkpt>
      <trkpt lat="45.65507" lon="6.02105">
        <ele>1218.1276855</ele>
        <time>2011-06-26T08:02:20Z</time>
      </trkpt>
      <trkpt lat="45.65519" lon="6.02111">
        <ele>1219.0891113</ele>
        <time>2011-06-26T08:02:26Z</time>
      </trkpt>
      <trkpt lat="45.65532" lon="6.02119">
        <ele>1219.5698242</ele>
        <time>2011-06-26T08:02:32Z</time>
      </trkpt>
      <trkpt lat="45.65548" lon="6.02123">
        <ele>1220.5310059</ele>
        <time>2011-06-26T08:02:39Z</time>
      </trkpt>
      <trkpt lat="45.65565" lon="6.02125">
        <ele>1219.0891113</ele>
        <time>2011-06-26T08:02:46Z</time>
      </trkpt>
      <trkpt lat="45.65579" lon="6.02125">
        <ele>1217.6469727</ele>
        <time>2011-06-26T08:02:51Z</time>
      </trkpt>
      <trkpt lat="45.6559" lon="6.02123">
        <ele>1217.1665039</ele>
        <time>2011-06-26T08:02:55Z</time>
      </trkpt>
      <trkpt lat="45.65605" lon="6.02122">
        <ele>1216.2050781</ele>
        <time>2011-06-26T08:02:59Z</time>
      </trkpt>
      <trkpt lat="45.65625" lon="6.02127">
        <ele>1214.2824707</ele>
        <time>2011-06-26T08:03:03Z</time>
      </trkpt>
      <trkpt lat="45.6564" lon="6.02138">
        <ele>1212.8405762</ele>
        <time>2011-06-26T08:03:06Z</time>
      </trkpt>
      <trkpt lat="45.65661" lon="6.02158">
        <ele>1212.8405762</ele>
        <time>2011-06-26T08:03:11Z</time>
      </trkpt>
      <trkpt lat="45.65674" lon="6.02171">
        <ele>1214.2824707</ele>
        <time>2011-06-26T08:03:15Z</time>
      </trkpt>
      <trkpt lat="45.65697" lon="6.02182">
        <ele>1216.685791</ele>
        <time>2011-06-26T08:03:22Z</time>
      </trkpt>
      <trkpt lat="45.65721" lon="6.02196">
        <ele>1213.3212891</ele>
        <time>2011-06-26T08:03:29Z</time>
      </trkpt>
      <trkpt lat="45.65734" lon="6.02204">
        <ele>1215.2438965</ele>
        <time>2011-06-26T08:03:33Z</time>
      </trkpt>
      <trkpt lat="45.65749" lon="6.02219">
        <ele>1219.0891113</ele>
        <time>2011-06-26T08:03:37Z</time>
      </trkpt>
      <trkpt lat="45.65758" lon="6.02227">
        <ele>1221.0117188</ele>
        <time>2011-06-26T08:03:39Z</time>
      </trkpt>
      <trkpt lat="45.65776" lon="6.02239">
        <ele>1221.0117188</ele>
        <time>2011-06-26T08:03:43Z</time>
      </trkpt>
      <trkpt lat="45.658" lon="6.02244">
        <ele>1222.4536133</ele>
        <time>2011-06-26T08:03:48Z</time>
      </trkpt>
      <trkpt lat="45.6583" lon="6.02256">
        <ele>1222.4536133</ele>
        <time>2011-06-26T08:03:54Z</time>
      </trkpt>
      <trkpt lat="45.65863" lon="6.02275">
        <ele>1222.4536133</ele>
        <time>2011-06-26T08:04:00Z</time>
      </trkpt>
      <trkpt lat="45.65872" lon="6.02281">
        <ele>1221.9729004</ele>
        <time>2011-06-26T08:04:02Z</time>
      </trkpt>
      <trkpt lat="45.65885" lon="6.02286">
        <ele>1223.8955078</ele>
        <time>2011-06-26T08:04:05Z</time>
      </trkpt>
      <trkpt lat="45.659" lon="6.02302">
        <ele>1225.8181152</ele>
        <time>2011-06-26T08:04:09Z</time>
      </trkpt>
      <trkpt lat="45.65907" lon="6.02308">
        <ele>1227.2602539</ele>
        <time>2011-06-26T08:04:11Z</time>
      </trkpt>
      <trkpt lat="45.65927" lon="6.02324">
        <ele>1230.1442871</ele>
        <time>2011-06-26T08:04:17Z</time>
      </trkpt>
      <trkpt lat="45.65957" lon="6.02348">
        <ele>1231.5861816</ele>
        <time>2011-06-26T08:04:24Z</time>
      </trkpt>
      <trkpt lat="45.65961" lon="6.02352">
        <ele>1232.0668945</ele>
        <time>2011-06-26T08:04:25Z</time>
      </trkpt>
      <trkpt lat="45.65989" lon="6.02366">
        <ele>1233.0280762</ele>
        <time>2011-06-26T08:04:32Z</time>
      </trkpt>
      <trkpt lat="45.66005" lon="6.02373">
        <ele>1232.5476074</ele>
        <time>2011-06-26T08:04:36Z</time>
      </trkpt>
      <trkpt lat="45.66027" lon="6.02383">
        <ele>1233.989502</ele>
        <time>2011-06-26T08:04:41Z</time>
      </trkpt>
      <trkpt lat="45.66055" lon="6.02406">
        <ele>1234.4702148</ele>
        <time>2011-06-26T08:04:48Z</time>
      </trkpt>
      <trkpt lat="45.66074" lon="6.0242">
        <ele>1238.3154297</ele>
        <time>2011-06-26T08:04:53Z</time>
      </trkpt>
      <trkpt lat="45.66088" lon="6.02427">
        <ele>1240.2380371</ele>
        <time>2011-06-26T08:04:57Z</time>
      </trkpt>
      <trkpt lat="45.66112" lon="6.0244">
        <ele>1242.1606445</ele>
        <time>2011-06-26T08:05:04Z</time>
      </trkpt>
      <trkpt lat="45.66139" lon="6.02444">
        <ele>1243.6025391</ele>
        <time>2011-06-26T08:05:11Z</time>
      </trkpt>
      <trkpt lat="45.66159" lon="6.02453">
        <ele>1245.5253906</ele>
        <time>2011-06-26T08:05:17Z</time>
      </trkpt>
      <trkpt lat="45.66181" lon="6.02465">
        <ele>1248.4091797</ele>
        <time>2011-06-26T08:05:24Z</time>
      </trkpt>
      <trkpt lat="45.66205" lon="6.02477">
        <ele>1252.7351074</ele>
        <time>2011-06-26T08:05:32Z</time>
      </trkpt>
      <trkpt lat="45.66229" lon="6.02494">
        <ele>1254.6577148</ele>
        <time>2011-06-26T08:05:40Z</time>
      </trkpt>
      <trkpt lat="45.66251" lon="6.02511">
        <ele>1256.5803223</ele>
        <time>2011-06-26T08:05:47Z</time>
      </trkpt>
      <trkpt lat="45.66271" lon="6.02522">
        <ele>1256.5803223</ele>
        <time>2011-06-26T08:05:52Z</time>
      </trkpt>
      <trkpt lat="45.66305" lon="6.02529">
        <ele>1255.6191406</ele>
        <time>2011-06-26T08:05:59Z</time>
      </trkpt>
      <trkpt lat="45.66317" lon="6.02535">
        <ele>1255.1384277</ele>
        <time>2011-06-26T08:06:02Z</time>
      </trkpt>
      <trkpt lat="45.66339" lon="6.02545">
        <ele>1253.6965332</ele>
        <time>2011-06-26T08:06:08Z</time>
      </trkpt>
      <trkpt lat="45.66355" lon="6.02546">
        <ele>1255.1384277</ele>
        <time>2011-06-26T08:06:12Z</time>
      </trkpt>
      <trkpt lat="45.66378" lon="6.0254">
        <ele>1256.0996094</ele>
        <time>2011-06-26T08:06:18Z</time>
      </trkpt>
      <trkpt lat="45.66391" lon="6.02546">
        <ele>1257.541748</ele>
        <time>2011-06-26T08:06:22Z</time>
      </trkpt>
      <trkpt lat="45.66411" lon="6.02559">
        <ele>1258.9836426</ele>
        <time>2011-06-26T08:06:28Z</time>
      </trkpt>
      <trkpt lat="45.66428" lon="6.02569">
        <ele>1259.9448242</ele>
        <time>2011-06-26T08:06:33Z</time>
      </trkpt>
      <trkpt lat="45.66451" lon="6.02582">
        <ele>1258.9836426</ele>
        <time>2011-06-26T08:06:39Z</time>
      </trkpt>
      <trkpt lat="45.66486" lon="6.02595">
        <ele>1259.9448242</ele>
        <time>2011-06-26T08:06:45Z</time>
      </trkpt>
      <trkpt lat="45.66498" lon="6.02603">
        <ele>1260.4257813</ele>
        <time>2011-06-26T08:06:47Z</time>
      </trkpt>
      <trkpt lat="45.66512" lon="6.02618">
        <ele>1259.4643555</ele>
        <time>2011-06-26T08:06:50Z</time>
      </trkpt>
      <trkpt lat="45.6654" lon="6.0264">
        <ele>1260.9064941</ele>
        <time>2011-06-26T08:06:55Z</time>
      </trkpt>
      <trkpt lat="45.66557" lon="6.02645">
        <ele>1259.9448242</ele>
        <time>2011-06-26T08:06:58Z</time>
      </trkpt>
      <trkpt lat="45.66579" lon="6.02669">
        <ele>1258.9836426</ele>
        <time>2011-06-26T08:07:03Z</time>
      </trkpt>
      <trkpt lat="45.66587" lon="6.02682">
        <ele>1260.9064941</ele>
        <time>2011-06-26T08:07:05Z</time>
      </trkpt>
      <trkpt lat="45.66604" lon="6.02705">
        <ele>1261.8679199</ele>
        <time>2011-06-26T08:07:09Z</time>
      </trkpt>
      <trkpt lat="45.66642" lon="6.02725">
        <ele>1259.4643555</ele>
        <time>2011-06-26T08:07:15Z</time>
      </trkpt>
      <trkpt lat="45.66672" lon="6.02735">
        <ele>1258.5029297</ele>
        <time>2011-06-26T08:07:20Z</time>
      </trkpt>
      <trkpt lat="45.66678" lon="6.02737">
        <ele>1258.5029297</ele>
        <time>2011-06-26T08:07:21Z</time>
      </trkpt>
      <trkpt lat="45.66704" lon="6.02747">
        <ele>1258.0224609</ele>
        <time>2011-06-26T08:07:25Z</time>
      </trkpt>
      <trkpt lat="45.66727" lon="6.02764">
        <ele>1258.5029297</ele>
        <time>2011-06-26T08:07:29Z</time>
      </trkpt>
      <trkpt lat="45.66755" lon="6.02765">
        <ele>1259.4643555</ele>
        <time>2011-06-26T08:07:34Z</time>
      </trkpt>
      <trkpt lat="45.6676" lon="6.02761">
        <ele>1258.9836426</ele>
        <time>2011-06-26T08:07:35Z</time>
      </trkpt>
      <trkpt lat="45.66797" lon="6.02744">
        <ele>1259.9448242</ele>
        <time>2011-06-26T08:07:41Z</time>
      </trkpt>
      <trkpt lat="45.66803" lon="6.02745">
        <ele>1260.9064941</ele>
        <time>2011-06-26T08:07:42Z</time>
      </trkpt>
      <trkpt lat="45.66839" lon="6.02758">
        <ele>1263.3098145</ele>
        <time>2011-06-26T08:07:48Z</time>
      </trkpt>
      <trkpt lat="45.6687" lon="6.02765">
        <ele>1263.3098145</ele>
        <time>2011-06-26T08:07:54Z</time>
      </trkpt>
      <trkpt lat="45.66878" lon="6.02765">
        <ele>1262.8291016</ele>
        <time>2011-06-26T08:07:56Z</time>
      </trkpt>
      <trkpt lat="45.66894" lon="6.02761">
        <ele>1261.387207</ele>
        <time>2011-06-26T08:08:00Z</time>
      </trkpt>
      <trkpt lat="45.66914" lon="6.02765">
        <ele>1259.9448242</ele>
        <time>2011-06-26T08:08:05Z</time>
      </trkpt>
      <trkpt lat="45.66939" lon="6.02781">
        <ele>1262.3483887</ele>
        <time>2011-06-26T08:08:11Z</time>
      </trkpt>
      <trkpt lat="45.66977" lon="6.02792">
        <ele>1261.8679199</ele>
        <time>2011-06-26T08:08:17Z</time>
      </trkpt>
      <trkpt lat="45.66996" lon="6.02796">
        <ele>1262.3483887</ele>
        <time>2011-06-26T08:08:20Z</time>
      </trkpt>
      <trkpt lat="45.67026" lon="6.02807">
        <ele>1262.3483887</ele>
        <time>2011-06-26T08:08:25Z</time>
      </trkpt>
      <trkpt lat="45.67044" lon="6.02814">
        <ele>1258.9836426</ele>
        <time>2011-06-26T08:08:29Z</time>
      </trkpt>
      <trkpt lat="45.67079" lon="6.0283">
        <ele>1252.2543945</ele>
        <time>2011-06-26T08:08:35Z</time>
      </trkpt>
      <trkpt lat="45.67105" lon="6.02844">
        <ele>1249.8513184</ele>
        <time>2011-06-26T08:08:38Z</time>
      </trkpt>
      <trkpt lat="45.67133" lon="6.02868">
        <ele>1247.447998</ele>
        <time>2011-06-26T08:08:41Z</time>
      </trkpt>
      <trkpt lat="45.67162" lon="6.02882">
        <ele>1246.4868164</ele>
        <time>2011-06-26T08:08:45Z</time>
      </trkpt>
      <trkpt lat="45.67195" lon="6.02892">
        <ele>1246.0061035</ele>
        <time>2011-06-26T08:08:51Z</time>
      </trkpt>
      <trkpt lat="45.67199" lon="6.02894">
        <ele>1246.4868164</ele>
        <time>2011-06-26T08:08:52Z</time>
      </trkpt>
      <trkpt lat="45.67242" lon="6.02929">
        <ele>1254.1772461</ele>
        <time>2011-06-26T08:09:03Z</time>
      </trkpt>
      <trkpt lat="45.67257" lon="6.02937">
        <ele>1256.0996094</ele>
        <time>2011-06-26T08:09:07Z</time>
      </trkpt>
      <trkpt lat="45.6729" lon="6.02935">
        <ele>1259.4643555</ele>
        <time>2011-06-26T08:09:15Z</time>
      </trkpt>
      <trkpt lat="45.67341" lon="6.02929">
        <ele>1263.7902832</ele>
        <time>2011-06-26T08:09:28Z</time>
      </trkpt>
      <trkpt lat="45.6738" lon="6.02925">
        <ele>1267.1550293</ele>
        <time>2011-06-26T08:09:38Z</time>
      </trkpt>
      <trkpt lat="45.67404" lon="6.02923">
        <ele>1271.0002441</ele>
        <time>2011-06-26T08:09:44Z</time>
      </trkpt>
      <trkpt lat="45.67422" lon="6.02932">
        <ele>1272.9228516</ele>
        <time>2011-06-26T08:09:49Z</time>
      </trkpt>
      <trkpt lat="45.67455" lon="6.02957">
        <ele>1275.3259277</ele>
        <time>2011-06-26T08:09:59Z</time>
      </trkpt>
      <trkpt lat="45.67485" lon="6.02964">
        <ele>1276.7683105</ele>
        <time>2011-06-26T08:10:07Z</time>
      </trkpt>
      <trkpt lat="45.67518" lon="6.0297">
        <ele>1278.690918</ele>
        <time>2011-06-26T08:10:16Z</time>
      </trkpt>
      <trkpt lat="45.6755" lon="6.02973">
        <ele>1282.0554199</ele>
        <time>2011-06-26T08:10:25Z</time>
      </trkpt>
      <trkpt lat="45.67577" lon="6.02972">
        <ele>1285.9006348</ele>
        <time>2011-06-26T08:10:33Z</time>
      </trkpt>
      <trkpt lat="45.67601" lon="6.02973">
        <ele>1288.784668</ele>
        <time>2011-06-26T08:10:40Z</time>
      </trkpt>
      <trkpt lat="45.67618" lon="6.02986">
        <ele>1290.2265625</ele>
        <time>2011-06-26T08:10:46Z</time>
      </trkpt>
      <trkpt lat="45.6764" lon="6.03007">
        <ele>1293.1105957</ele>
        <time>2011-06-26T08:10:54Z</time>
      </trkpt>
      <trkpt lat="45.67659" lon="6.03033">
        <ele>1294.5524902</ele>
        <time>2011-06-26T08:11:02Z</time>
      </trkpt>
      <trkpt lat="45.67669" lon="6.0306">
        <ele>1296.9558105</ele>
        <time>2011-06-26T08:11:09Z</time>
      </trkpt>
      <trkpt lat="45.67684" lon="6.03098">
        <ele>1298.878418</ele>
        <time>2011-06-26T08:11:19Z</time>
      </trkpt>
      <trkpt lat="45.67693" lon="6.03132">
        <ele>1300.8010254</ele>
        <time>2011-06-26T08:11:27Z</time>
      </trkpt>
      <trkpt lat="45.67709" lon="6.03156">
        <ele>1302.7236328</ele>
        <time>2011-06-26T08:11:34Z</time>
      </trkpt>
      <trkpt lat="45.67732" lon="6.0317">
        <ele>1304.6462402</ele>
        <time>2011-06-26T08:11:41Z</time>
      </trkpt>
      <trkpt lat="45.67759" lon="6.0318">
        <ele>1307.5302734</ele>
        <time>2011-06-26T08:11:49Z</time>
      </trkpt>
      <trkpt lat="45.67773" lon="6.03194">
        <ele>1308.0112305</ele>
        <time>2011-06-26T08:11:55Z</time>
      </trkpt>
      <trkpt lat="45.67775" lon="6.03209">
        <ele>1306.5688477</ele>
        <time>2011-06-26T08:12:00Z</time>
      </trkpt>
      <trkpt lat="45.67773" lon="6.03233">
        <ele>1306.5688477</ele>
        <time>2011-06-26T08:12:05Z</time>
      </trkpt>
      <trkpt lat="45.67775" lon="6.03246">
        <ele>1307.0495605</ele>
        <time>2011-06-26T08:12:09Z</time>
      </trkpt>
      <trkpt lat="45.67775" lon="6.03246">
        <ele>1307.0495605</ele>
        <time>2011-06-26T08:12:13Z</time>
      </trkpt>
      <trkpt lat="45.67774" lon="6.0325">
        <ele>1307.0495605</ele>
        <time>2011-06-26T08:12:18Z</time>
      </trkpt>
      <trkpt lat="45.67777" lon="6.03255">
        <ele>1307.0495605</ele>
        <time>2011-06-26T08:12:25Z</time>
      </trkpt>
      <trkpt lat="45.67781" lon="6.03258">
        <ele>1307.5302734</ele>
        <time>2011-06-26T08:12:34Z</time>
      </trkpt>
      <trkpt lat="45.67783" lon="6.03257">
        <ele>1307.0495605</ele>
        <time>2011-06-26T08:12:35Z</time>
      </trkpt>
      <trkpt lat="45.67782" lon="6.03249">
        <ele>1305.607666</ele>
        <time>2011-06-26T08:12:41Z</time>
      </trkpt>
      <trkpt lat="45.67781" lon="6.03247">
        <ele>1305.1269531</ele>
        <time>2011-06-26T08:12:43Z</time>
      </trkpt>
      <trkpt lat="45.67778" lon="6.03244">
        <ele>1306.5688477</ele>
        <time>2011-06-26T08:12:50Z</time>
      </trkpt>
      <trkpt lat="45.67776" lon="6.03245">
        <ele>1304.6462402</ele>
        <time>2011-06-26T08:13:02Z</time>
      </trkpt>
      <trkpt lat="45.67775" lon="6.03247">
        <ele>1304.6462402</ele>
        <time>2011-06-26T08:13:06Z</time>
      </trkpt>
      <trkpt lat="45.67769" lon="6.03238">
        <ele>1316.6628418</ele>
        <time>2011-06-26T08:13:32Z</time>
      </trkpt>
      <trkpt lat="45.67771" lon="6.03241">
        <ele>1314.7402344</ele>
        <time>2011-06-26T08:13:34Z</time>
      </trkpt>
      <trkpt lat="45.67777" lon="6.03253">
        <ele>1310.8950195</ele>
        <time>2011-06-26T08:13:42Z</time>
      </trkpt>
      <trkpt lat="45.67779" lon="6.03255">
        <ele>1311.3757324</ele>
        <time>2011-06-26T08:13:45Z</time>
      </trkpt>
      <trkpt lat="45.67788" lon="6.03255">
        <ele>1308.4916992</ele>
        <time>2011-06-26T08:13:52Z</time>
      </trkpt>
      <trkpt lat="45.6779" lon="6.03254">
        <ele>1308.4916992</ele>
        <time>2011-06-26T08:14:03Z</time>
      </trkpt>
      <trkpt lat="45.67781" lon="6.03257">
        <ele>1308.4916992</ele>
        <time>2011-06-26T08:14:20Z</time>
      </trkpt>
      <trkpt lat="45.67786" lon="6.03256">
        <ele>1308.4916992</ele>
        <time>2011-06-26T08:14:36Z</time>
      </trkpt>
      <trkpt lat="45.67796" lon="6.03256">
        <ele>1304.1657715</ele>
        <time>2011-06-26T08:14:53Z</time>
      </trkpt>
      <trkpt lat="45.67799" lon="6.03257">
        <ele>1308.4916992</ele>
        <time>2011-06-26T08:15:08Z</time>
      </trkpt>
      <trkpt lat="45.678" lon="6.03259">
        <ele>1312.3369141</ele>
        <time>2011-06-26T08:15:24Z</time>
      </trkpt>
      <trkpt lat="45.67797" lon="6.0326">
        <ele>1310.4143066</ele>
        <time>2011-06-26T08:15:27Z</time>
      </trkpt>
      <trkpt lat="45.67793" lon="6.03261">
        <ele>1308.9724121</ele>
        <time>2011-06-26T08:15:34Z</time>
      </trkpt>
      <trkpt lat="45.67795" lon="6.0326">
        <ele>1300.8010254</ele>
        <time>2011-06-26T08:15:50Z</time>
      </trkpt>
      <trkpt lat="45.67794" lon="6.03256">
        <ele>1310.4143066</ele>
        <time>2011-06-26T08:16:24Z</time>
      </trkpt>
      <trkpt lat="45.67792" lon="6.03255">
        <ele>1311.3757324</ele>
        <time>2011-06-26T08:16:27Z</time>
      </trkpt>
      <trkpt lat="45.67794" lon="6.03255">
        <ele>1311.3757324</ele>
        <time>2011-06-26T08:16:30Z</time>
      </trkpt>
      <trkpt lat="45.678" lon="6.03257">
        <ele>1313.7788086</ele>
        <time>2011-06-26T08:16:40Z</time>
      </trkpt>
      <trkpt lat="45.67793" lon="6.03259">
        <ele>1315.7016602</ele>
        <time>2011-06-26T08:16:53Z</time>
      </trkpt>
      <trkpt lat="45.67794" lon="6.0326">
        <ele>1312.3369141</ele>
        <time>2011-06-26T08:17:02Z</time>
      </trkpt>
      <trkpt lat="45.67795" lon="6.03256">
        <ele>1308.4916992</ele>
        <time>2011-06-26T08:17:13Z</time>
      </trkpt>
      <trkpt lat="45.67796" lon="6.03252">
        <ele>1309.9335938</ele>
        <time>2011-06-26T08:17:19Z</time>
      </trkpt>
      <trkpt lat="45.67795" lon="6.03253">
        <ele>1308.9724121</ele>
        <time>2011-06-26T08:17:30Z</time>
      </trkpt>
      <trkpt lat="45.67788" lon="6.03254">
        <ele>1308.4916992</ele>
        <time>2011-06-26T08:17:37Z</time>
      </trkpt>
      <trkpt lat="45.67787" lon="6.03256">
        <ele>1309.453125</ele>
        <time>2011-06-26T08:17:42Z</time>
      </trkpt>
      <trkpt lat="45.67787" lon="6.03258">
        <ele>1306.5688477</ele>
        <time>2011-06-26T08:17:57Z</time>
      </trkpt>
      <trkpt lat="45.67783" lon="6.0326">
        <ele>1308.4916992</ele>
        <time>2011-06-26T08:18:05Z</time>
      </trkpt>
      <trkpt lat="45.67782" lon="6.0326">
        <ele>1308.9724121</ele>
        <time>2011-06-26T08:18:15Z</time>
      </trkpt>
      <trkpt lat="45.67782" lon="6.0326">
        <ele>1309.9335938</ele>
        <time>2011-06-26T08:18:22Z</time>
      </trkpt>
      <trkpt lat="45.67782" lon="6.0326">
        <ele>1310.4143066</ele>
        <time>2011-06-26T08:18:32Z</time>
      </trkpt>
      <trkpt lat="45.67785" lon="6.0326">
        <ele>1309.9335938</ele>
        <time>2011-06-26T08:18:41Z</time>
      </trkpt>
      <trkpt lat="45.67786" lon="6.0326">
        <ele>1309.453125</ele>
        <time>2011-06-26T08:18:44Z</time>
      </trkpt>
      <trkpt lat="45.67787" lon="6.03258">
        <ele>1308.9724121</ele>
        <time>2011-06-26T08:18:50Z</time>
      </trkpt>
      <trkpt lat="45.67783" lon="6.03258">
        <ele>1308.4916992</ele>
        <time>2011-06-26T08:18:57Z</time>
      </trkpt>
      <trkpt lat="45.6778" lon="6.0326">
        <ele>1308.9724121</ele>
        <time>2011-06-26T08:19:01Z</time>
      </trkpt>
      <trkpt lat="45.67781" lon="6.03259">
        <ele>1308.0112305</ele>
        <time>2011-06-26T08:19:06Z</time>
      </trkpt>
      <trkpt lat="45.67784" lon="6.0326">
        <ele>1305.1269531</ele>
        <time>2011-06-26T08:19:14Z</time>
      </trkpt>
      <trkpt lat="45.67792" lon="6.03257">
        <ele>1301.7624512</ele>
        <time>2011-06-26T08:19:35Z</time>
      </trkpt>
      <trkpt lat="45.67794" lon="6.03255">
        <ele>1303.2043457</ele>
        <time>2011-06-26T08:19:49Z</time>
      </trkpt>
      <trkpt lat="45.67801" lon="6.03259">
        <ele>1303.2043457</ele>
        <time>2011-06-26T08:20:03Z</time>
      </trkpt>
      <trkpt lat="45.67802" lon="6.0326">
        <ele>1303.2043457</ele>
        <time>2011-06-26T08:20:07Z</time>
      </trkpt>
      <trkpt lat="45.67791" lon="6.03257">
        <ele>1308.0112305</ele>
        <time>2011-06-26T08:20:37Z</time>
      </trkpt>
      <trkpt lat="45.67789" lon="6.03262">
        <ele>1308.4916992</ele>
        <time>2011-06-26T08:20:44Z</time>
      </trkpt>
      <trkpt lat="45.6779" lon="6.03267">
        <ele>1308.9724121</ele>
        <time>2011-06-26T08:20:48Z</time>
      </trkpt>
      <trkpt lat="45.67791" lon="6.03277">
        <ele>1309.453125</ele>
        <time>2011-06-26T08:20:53Z</time>
      </trkpt>
      <trkpt lat="45.67786" lon="6.03302">
        <ele>1308.4916992</ele>
        <time>2011-06-26T08:21:00Z</time>
      </trkpt>
      <trkpt lat="45.67788" lon="6.03323">
        <ele>1306.0881348</ele>
        <time>2011-06-26T08:21:03Z</time>
      </trkpt>
      <trkpt lat="45.67792" lon="6.03339">
        <ele>1304.6462402</ele>
        <time>2011-06-26T08:21:05Z</time>
      </trkpt>
      <trkpt lat="45.67797" lon="6.0337">
        <ele>1302.2429199</ele>
        <time>2011-06-26T08:21:09Z</time>
      </trkpt>
      <trkpt lat="45.67806" lon="6.03408">
        <ele>1300.3205566</ele>
        <time>2011-06-26T08:21:15Z</time>
      </trkpt>
      <trkpt lat="45.67815" lon="6.03427">
        <ele>1297.9172363</ele>
        <time>2011-06-26T08:21:21Z</time>
      </trkpt>
      <trkpt lat="45.6783" lon="6.03438">
        <ele>1297.4365234</ele>
        <time>2011-06-26T08:21:26Z</time>
      </trkpt>
      <trkpt lat="45.67847" lon="6.03442">
        <ele>1297.9172363</ele>
        <time>2011-06-26T08:21:31Z</time>
      </trkpt>
      <trkpt lat="45.67857" lon="6.03453">
        <ele>1296.9558105</ele>
        <time>2011-06-26T08:21:34Z</time>
      </trkpt>
      <trkpt lat="45.67871" lon="6.03468">
        <ele>1296.4753418</ele>
        <time>2011-06-26T08:21:38Z</time>
      </trkpt>
      <trkpt lat="45.67885" lon="6.03465">
        <ele>1295.9946289</ele>
        <time>2011-06-26T08:21:42Z</time>
      </trkpt>
      <trkpt lat="45.67907" lon="6.03447">
        <ele>1296.9558105</ele>
        <time>2011-06-26T08:21:49Z</time>
      </trkpt>
      <trkpt lat="45.6792" lon="6.03436">
        <ele>1297.9172363</ele>
        <time>2011-06-26T08:21:55Z</time>
      </trkpt>
      <trkpt lat="45.67934" lon="6.03426">
        <ele>1298.3977051</ele>
        <time>2011-06-26T08:22:01Z</time>
      </trkpt>
      <trkpt lat="45.67947" lon="6.03406">
        <ele>1296.4753418</ele>
        <time>2011-06-26T08:22:05Z</time>
      </trkpt>
      <trkpt lat="45.67965" lon="6.03382">
        <ele>1293.5913086</ele>
        <time>2011-06-26T08:22:09Z</time>
      </trkpt>
      <trkpt lat="45.67988" lon="6.03357">
        <ele>1293.1105957</ele>
        <time>2011-06-26T08:22:14Z</time>
      </trkpt>
      <trkpt lat="45.68004" lon="6.03358">
        <ele>1293.5913086</ele>
        <time>2011-06-26T08:22:17Z</time>
      </trkpt>
      <trkpt lat="45.6801" lon="6.03361">
        <ele>1293.1105957</ele>
        <time>2011-06-26T08:22:18Z</time>
      </trkpt>
      <trkpt lat="45.68038" lon="6.03369">
        <ele>1291.668457</ele>
        <time>2011-06-26T08:22:23Z</time>
      </trkpt>
      <trkpt lat="45.6805" lon="6.03365">
        <ele>1291.668457</ele>
        <time>2011-06-26T08:22:25Z</time>
      </trkpt>
      <trkpt lat="45.68071" lon="6.03345">
        <ele>1290.2265625</ele>
        <time>2011-06-26T08:22:29Z</time>
      </trkpt>
      <trkpt lat="45.68093" lon="6.03311">
        <ele>1289.2651367</ele>
        <time>2011-06-26T08:22:34Z</time>
      </trkpt>
      <trkpt lat="45.68113" lon="6.03285">
        <ele>1290.2265625</ele>
        <time>2011-06-26T08:22:39Z</time>
      </trkpt>
      <trkpt lat="45.68117" lon="6.03283">
        <ele>1290.2265625</ele>
        <time>2011-06-26T08:22:40Z</time>
      </trkpt>
      <trkpt lat="45.68129" lon="6.03281">
        <ele>1291.1877441</ele>
        <time>2011-06-26T08:22:43Z</time>
      </trkpt>
      <trkpt lat="45.68144" lon="6.03274">
        <ele>1292.630127</ele>
        <time>2011-06-26T08:22:47Z</time>
      </trkpt>
      <trkpt lat="45.68168" lon="6.03258">
        <ele>1293.1105957</ele>
        <time>2011-06-26T08:22:55Z</time>
      </trkpt>
      <trkpt lat="45.68189" lon="6.03253">
        <ele>1293.5913086</ele>
        <time>2011-06-26T08:23:01Z</time>
      </trkpt>
      <trkpt lat="45.68214" lon="6.03254">
        <ele>1294.0720215</ele>
        <time>2011-06-26T08:23:06Z</time>
      </trkpt>
      <trkpt lat="45.6823" lon="6.03259">
        <ele>1294.0720215</ele>
        <time>2011-06-26T08:23:10Z</time>
      </trkpt>
      <trkpt lat="45.68237" lon="6.03278">
        <ele>1295.9946289</ele>
        <time>2011-06-26T08:23:14Z</time>
      </trkpt>
      <trkpt lat="45.68238" lon="6.03283">
        <ele>1295.9946289</ele>
        <time>2011-06-26T08:23:15Z</time>
      </trkpt>
      <trkpt lat="45.68247" lon="6.03316">
        <ele>1297.9172363</ele>
        <time>2011-06-26T08:23:22Z</time>
      </trkpt>
      <trkpt lat="45.68267" lon="6.03334">
        <ele>1301.2817383</ele>
        <time>2011-06-26T08:23:29Z</time>
      </trkpt>
      <trkpt lat="45.68288" lon="6.03348">
        <ele>1304.1657715</ele>
        <time>2011-06-26T08:23:36Z</time>
      </trkpt>
      <trkpt lat="45.68313" lon="6.03353">
        <ele>1303.2043457</ele>
        <time>2011-06-26T08:23:43Z</time>
      </trkpt>
      <trkpt lat="45.68337" lon="6.03348">
        <ele>1303.2043457</ele>
        <time>2011-06-26T08:23:50Z</time>
      </trkpt>
      <trkpt lat="45.6836" lon="6.03348">
        <ele>1303.2043457</ele>
        <time>2011-06-26T08:23:57Z</time>
      </trkpt>
      <trkpt lat="45.68371" lon="6.03359">
        <ele>1303.6850586</ele>
        <time>2011-06-26T08:24:01Z</time>
      </trkpt>
      <trkpt lat="45.68383" lon="6.03376">
        <ele>1306.0881348</ele>
        <time>2011-06-26T08:24:06Z</time>
      </trkpt>
      <trkpt lat="45.68396" lon="6.03387">
        <ele>1308.0112305</ele>
        <time>2011-06-26T08:24:11Z</time>
      </trkpt>
      <trkpt lat="45.68412" lon="6.0339">
        <ele>1308.4916992</ele>
        <time>2011-06-26T08:24:16Z</time>
      </trkpt>
      <trkpt lat="45.68429" lon="6.03388">
        <ele>1308.9724121</ele>
        <time>2011-06-26T08:24:21Z</time>
      </trkpt>
      <trkpt lat="45.68441" lon="6.03397">
        <ele>1308.9724121</ele>
        <time>2011-06-26T08:24:25Z</time>
      </trkpt>
      <trkpt lat="45.68452" lon="6.03427">
        <ele>1315.2209473</ele>
        <time>2011-06-26T08:24:31Z</time>
      </trkpt>
      <trkpt lat="45.68467" lon="6.0345">
        <ele>1317.6240234</ele>
        <time>2011-06-26T08:24:36Z</time>
      </trkpt>
      <trkpt lat="45.6847" lon="6.03453">
        <ele>1316.1821289</ele>
        <time>2011-06-26T08:24:37Z</time>
      </trkpt>
      <trkpt lat="45.68475" lon="6.03461">
        <ele>1314.2595215</ele>
        <time>2011-06-26T08:24:39Z</time>
      </trkpt>
      <trkpt lat="45.68484" lon="6.03489">
        <ele>1312.3369141</ele>
        <time>2011-06-26T08:24:44Z</time>
      </trkpt>
      <trkpt lat="45.68497" lon="6.03508">
        <ele>1311.8564453</ele>
        <time>2011-06-26T08:24:49Z</time>
      </trkpt>
      <trkpt lat="45.68511" lon="6.03527">
        <ele>1311.3757324</ele>
        <time>2011-06-26T08:24:55Z</time>
      </trkpt>
      <trkpt lat="45.6852" lon="6.03553">
        <ele>1313.2983398</ele>
        <time>2011-06-26T08:25:01Z</time>
      </trkpt>
      <trkpt lat="45.68526" lon="6.03591">
        <ele>1316.6628418</ele>
        <time>2011-06-26T08:25:09Z</time>
      </trkpt>
      <trkpt lat="45.68537" lon="6.03612">
        <ele>1316.6628418</ele>
        <time>2011-06-26T08:25:14Z</time>
      </trkpt>
      <trkpt lat="45.68553" lon="6.03632">
        <ele>1314.7402344</ele>
        <time>2011-06-26T08:25:18Z</time>
      </trkpt>
      <trkpt lat="45.68574" lon="6.03648">
        <ele>1314.7402344</ele>
        <time>2011-06-26T08:25:22Z</time>
      </trkpt>
      <trkpt lat="45.68592" lon="6.0364">
        <ele>1313.2983398</ele>
        <time>2011-06-26T08:25:26Z</time>
      </trkpt>
      <trkpt lat="45.68595" lon="6.03633">
        <ele>1313.2983398</ele>
        <time>2011-06-26T08:25:27Z</time>
      </trkpt>
      <trkpt lat="45.68602" lon="6.03619">
        <ele>1312.3369141</ele>
        <time>2011-06-26T08:25:29Z</time>
      </trkpt>
      <trkpt lat="45.68614" lon="6.03599">
        <ele>1312.3369141</ele>
        <time>2011-06-26T08:25:32Z</time>
      </trkpt>
      <trkpt lat="45.68634" lon="6.03581">
        <ele>1312.817627</ele>
        <time>2011-06-26T08:25:36Z</time>
      </trkpt>
      <trkpt lat="45.68649" lon="6.03575">
        <ele>1313.7788086</ele>
        <time>2011-06-26T08:25:39Z</time>
      </trkpt>
      <trkpt lat="45.68676" lon="6.03577">
        <ele>1312.3369141</ele>
        <time>2011-06-26T08:25:45Z</time>
      </trkpt>
      <trkpt lat="45.68685" lon="6.03576">
        <ele>1312.817627</ele>
        <time>2011-06-26T08:25:47Z</time>
      </trkpt>
      <trkpt lat="45.68694" lon="6.03573">
        <ele>1314.2595215</ele>
        <time>2011-06-26T08:25:49Z</time>
      </trkpt>
      <trkpt lat="45.68701" lon="6.03567">
        <ele>1314.2595215</ele>
        <time>2011-06-26T08:25:51Z</time>
      </trkpt>
      <trkpt lat="45.6873" lon="6.03534">
        <ele>1317.1435547</ele>
        <time>2011-06-26T08:25:59Z</time>
      </trkpt>
      <trkpt lat="45.68747" lon="6.03509">
        <ele>1316.6628418</ele>
        <time>2011-06-26T08:26:04Z</time>
      </trkpt>
      <trkpt lat="45.68755" lon="6.035">
        <ele>1316.1821289</ele>
        <time>2011-06-26T08:26:06Z</time>
      </trkpt>
      <trkpt lat="45.68769" lon="6.0347">
        <ele>1316.1821289</ele>
        <time>2011-06-26T08:26:11Z</time>
      </trkpt>
      <trkpt lat="45.68775" lon="6.03458">
        <ele>1315.2209473</ele>
        <time>2011-06-26T08:26:13Z</time>
      </trkpt>
      <trkpt lat="45.68782" lon="6.03421">
        <ele>1315.2209473</ele>
        <time>2011-06-26T08:26:18Z</time>
      </trkpt>
      <trkpt lat="45.68779" lon="6.03398">
        <ele>1316.1821289</ele>
        <time>2011-06-26T08:26:21Z</time>
      </trkpt>
      <trkpt lat="45.68773" lon="6.0338">
        <ele>1316.6628418</ele>
        <time>2011-06-26T08:26:24Z</time>
      </trkpt>
      <trkpt lat="45.68764" lon="6.03366">
        <ele>1317.1435547</ele>
        <time>2011-06-26T08:26:27Z</time>
      </trkpt>
      <trkpt lat="45.68758" lon="6.03357">
        <ele>1318.1047363</ele>
        <time>2011-06-26T08:26:29Z</time>
      </trkpt>
      <trkpt lat="45.68745" lon="6.03341">
        <ele>1318.5854492</ele>
        <time>2011-06-26T08:26:33Z</time>
      </trkpt>
      <trkpt lat="45.68735" lon="6.03331">
        <ele>1319.546875</ele>
        <time>2011-06-26T08:26:36Z</time>
      </trkpt>
      <trkpt lat="45.68717" lon="6.0331">
        <ele>1321.4692383</ele>
        <time>2011-06-26T08:26:43Z</time>
      </trkpt>
      <trkpt lat="45.68702" lon="6.03294">
        <ele>1325.7954102</ele>
        <time>2011-06-26T08:26:49Z</time>
      </trkpt>
      <trkpt lat="45.6868" lon="6.03276">
        <ele>1333.4858398</ele>
        <time>2011-06-26T08:26:55Z</time>
      </trkpt>
      <trkpt lat="45.68666" lon="6.0327">
        <ele>1334.4472656</ele>
        <time>2011-06-26T08:26:58Z</time>
      </trkpt>
      <trkpt lat="45.68649" lon="6.03254">
        <ele>1334.4472656</ele>
        <time>2011-06-26T08:27:04Z</time>
      </trkpt>
      <trkpt lat="45.68631" lon="6.03244">
        <ele>1335.8891602</ele>
        <time>2011-06-26T08:27:08Z</time>
      </trkpt>
      <trkpt lat="45.68625" lon="6.03242">
        <ele>1337.3310547</ele>
        <time>2011-06-26T08:27:09Z</time>
      </trkpt>
      <trkpt lat="45.68613" lon="6.0324">
        <ele>1338.2924805</ele>
        <time>2011-06-26T08:27:11Z</time>
      </trkpt>
      <trkpt lat="45.68598" lon="6.03242">
        <ele>1339.2536621</ele>
        <time>2011-06-26T08:27:14Z</time>
      </trkpt>
      <trkpt lat="45.68588" lon="6.03245">
        <ele>1337.8117676</ele>
        <time>2011-06-26T08:27:16Z</time>
      </trkpt>
      <trkpt lat="45.68573" lon="6.03247">
        <ele>1340.6958008</ele>
        <time>2011-06-26T08:27:19Z</time>
      </trkpt>
      <trkpt lat="45.68552" lon="6.03248">
        <ele>1340.215332</ele>
        <time>2011-06-26T08:27:23Z</time>
      </trkpt>
      <trkpt lat="45.68521" lon="6.03254">
        <ele>1334.4472656</ele>
        <time>2011-06-26T08:27:28Z</time>
      </trkpt>
      <trkpt lat="45.685" lon="6.03252">
        <ele>1333.4858398</ele>
        <time>2011-06-26T08:27:31Z</time>
      </trkpt>
      <trkpt lat="45.6848" lon="6.03242">
        <ele>1329.640625</ele>
        <time>2011-06-26T08:27:35Z</time>
      </trkpt>
      <trkpt lat="45.6848" lon="6.03226">
        <ele>1325.7954102</ele>
        <time>2011-06-26T08:27:38Z</time>
      </trkpt>
      <trkpt lat="45.68481" lon="6.0322">
        <ele>1325.3146973</ele>
        <time>2011-06-26T08:27:39Z</time>
      </trkpt>
      <trkpt lat="45.6849" lon="6.03187">
        <ele>1325.7954102</ele>
        <time>2011-06-26T08:27:44Z</time>
      </trkpt>
      <trkpt lat="45.68492" lon="6.03163">
        <ele>1326.7568359</ele>
        <time>2011-06-26T08:27:48Z</time>
      </trkpt>
      <trkpt lat="45.6849" lon="6.03139">
        <ele>1326.7568359</ele>
        <time>2011-06-26T08:27:52Z</time>
      </trkpt>
      <trkpt lat="45.6849" lon="6.03117">
        <ele>1327.2375488</ele>
        <time>2011-06-26T08:27:56Z</time>
      </trkpt>
      <trkpt lat="45.68491" lon="6.03105">
        <ele>1327.7180176</ele>
        <time>2011-06-26T08:27:58Z</time>
      </trkpt>
      <trkpt lat="45.68493" lon="6.03068">
        <ele>1327.7180176</ele>
        <time>2011-06-26T08:28:05Z</time>
      </trkpt>
      <trkpt lat="45.68489" lon="6.03037">
        <ele>1327.7180176</ele>
        <time>2011-06-26T08:28:11Z</time>
      </trkpt>
      <trkpt lat="45.68486" lon="6.02999">
        <ele>1329.1599121</ele>
        <time>2011-06-26T08:28:18Z</time>
      </trkpt>
      <trkpt lat="45.68476" lon="6.02983">
        <ele>1329.640625</ele>
        <time>2011-06-26T08:28:22Z</time>
      </trkpt>
      <trkpt lat="45.68461" lon="6.02971">
        <ele>1334.9279785</ele>
        <time>2011-06-26T08:28:27Z</time>
      </trkpt>
      <trkpt lat="45.68447" lon="6.02956">
        <ele>1335.4084473</ele>
        <time>2011-06-26T08:28:32Z</time>
      </trkpt>
      <trkpt lat="45.68439" lon="6.0293">
        <ele>1335.4084473</ele>
        <time>2011-06-26T08:28:37Z</time>
      </trkpt>
      <trkpt lat="45.68438" lon="6.02901">
        <ele>1337.3310547</ele>
        <time>2011-06-26T08:28:42Z</time>
      </trkpt>
      <trkpt lat="45.68446" lon="6.02874">
        <ele>1341.6572266</ele>
        <time>2011-06-26T08:28:47Z</time>
      </trkpt>
      <trkpt lat="45.68452" lon="6.02855">
        <ele>1339.734375</ele>
        <time>2011-06-26T08:28:52Z</time>
      </trkpt>
      <trkpt lat="45.68473" lon="6.02834">
        <ele>1338.7731934</ele>
        <time>2011-06-26T08:28:59Z</time>
      </trkpt>
      <trkpt lat="45.68482" lon="6.0281">
        <ele>1340.215332</ele>
        <time>2011-06-26T08:29:04Z</time>
      </trkpt>
      <trkpt lat="45.6849" lon="6.02777">
        <ele>1340.215332</ele>
        <time>2011-06-26T08:29:10Z</time>
      </trkpt>
      <trkpt lat="45.68496" lon="6.02744">
        <ele>1341.1765137</ele>
        <time>2011-06-26T08:29:16Z</time>
      </trkpt>
      <trkpt lat="45.68502" lon="6.02712">
        <ele>1343.579834</ele>
        <time>2011-06-26T08:29:22Z</time>
      </trkpt>
      <trkpt lat="45.685" lon="6.0268">
        <ele>1344.5410156</ele>
        <time>2011-06-26T08:29:28Z</time>
      </trkpt>
      <trkpt lat="45.68497" lon="6.02643">
        <ele>1346.9443359</ele>
        <time>2011-06-26T08:29:35Z</time>
      </trkpt>
      <trkpt lat="45.68494" lon="6.02612">
        <ele>1347.9057617</ele>
        <time>2011-06-26T08:29:41Z</time>
      </trkpt>
      <trkpt lat="45.68492" lon="6.0258">
        <ele>1346.9443359</ele>
        <time>2011-06-26T08:29:47Z</time>
      </trkpt>
      <trkpt lat="45.68491" lon="6.02547">
        <ele>1347.9057617</ele>
        <time>2011-06-26T08:29:53Z</time>
      </trkpt>
      <trkpt lat="45.68482" lon="6.02523">
        <ele>1349.8283691</ele>
        <time>2011-06-26T08:29:58Z</time>
      </trkpt>
      <trkpt lat="45.68462" lon="6.02501">
        <ele>1352.7121582</ele>
        <time>2011-06-26T08:30:05Z</time>
      </trkpt>
      <trkpt lat="45.6844" lon="6.02492">
        <ele>1356.0769043</ele>
        <time>2011-06-26T08:30:11Z</time>
      </trkpt>
      <trkpt lat="45.68424" lon="6.02486">
        <ele>1357.519043</ele>
        <time>2011-06-26T08:30:16Z</time>
      </trkpt>
      <trkpt lat="45.68407" lon="6.02479">
        <ele>1360.402832</ele>
        <time>2011-06-26T08:30:21Z</time>
      </trkpt>
      <trkpt lat="45.68386" lon="6.02467">
        <ele>1361.8449707</ele>
        <time>2011-06-26T08:30:27Z</time>
      </trkpt>
      <trkpt lat="45.68362" lon="6.02445">
        <ele>1362.8061523</ele>
        <time>2011-06-26T08:30:34Z</time>
      </trkpt>
      <trkpt lat="45.68333" lon="6.0242">
        <ele>1363.2868652</ele>
        <time>2011-06-26T08:30:43Z</time>
      </trkpt>
      <trkpt lat="45.68316" lon="6.0241">
        <ele>1363.767334</ele>
        <time>2011-06-26T08:30:48Z</time>
      </trkpt>
      <trkpt lat="45.68296" lon="6.02404">
        <ele>1364.2480469</ele>
        <time>2011-06-26T08:30:54Z</time>
      </trkpt>
      <trkpt lat="45.68278" lon="6.02392">
        <ele>1365.6901855</ele>
        <time>2011-06-26T08:30:59Z</time>
      </trkpt>
      <trkpt lat="45.68265" lon="6.02372">
        <ele>1370.0158691</ele>
        <time>2011-06-26T08:31:04Z</time>
      </trkpt>
      <trkpt lat="45.68255" lon="6.02352">
        <ele>1375.7839355</ele>
        <time>2011-06-26T08:31:08Z</time>
      </trkpt>
      <trkpt lat="45.68231" lon="6.02311">
        <ele>1378.6679688</ele>
        <time>2011-06-26T08:31:15Z</time>
      </trkpt>
      <trkpt lat="45.68205" lon="6.02265">
        <ele>1370.9772949</ele>
        <time>2011-06-26T08:31:22Z</time>
      </trkpt>
      <trkpt lat="45.68178" lon="6.02236">
        <ele>1367.6125488</ele>
        <time>2011-06-26T08:31:27Z</time>
      </trkpt>
      <trkpt lat="45.68146" lon="6.0219">
        <ele>1364.7287598</ele>
        <time>2011-06-26T08:31:34Z</time>
      </trkpt>
      <trkpt lat="45.6812" lon="6.02154">
        <ele>1362.3254395</ele>
        <time>2011-06-26T08:31:40Z</time>
      </trkpt>
      <trkpt lat="45.68111" lon="6.02145">
        <ele>1362.3254395</ele>
        <time>2011-06-26T08:31:42Z</time>
      </trkpt>
      <trkpt lat="45.68074" lon="6.02122">
        <ele>1363.2868652</ele>
        <time>2011-06-26T08:31:49Z</time>
      </trkpt>
      <trkpt lat="45.68068" lon="6.02119">
        <ele>1363.2868652</ele>
        <time>2011-06-26T08:31:50Z</time>
      </trkpt>
      <trkpt lat="45.68049" lon="6.02095">
        <ele>1361.3642578</ele>
        <time>2011-06-26T08:31:54Z</time>
      </trkpt>
      <trkpt lat="45.68046" lon="6.02087">
        <ele>1360.402832</ele>
        <time>2011-06-26T08:31:55Z</time>
      </trkpt>
      <trkpt lat="45.68041" lon="6.02072">
        <ele>1359.4416504</ele>
        <time>2011-06-26T08:31:57Z</time>
      </trkpt>
      <trkpt lat="45.68028" lon="6.02065">
        <ele>1357.9997559</ele>
        <time>2011-06-26T08:32:01Z</time>
      </trkpt>
      <trkpt lat="45.68024" lon="6.02077">
        <ele>1357.9997559</ele>
        <time>2011-06-26T08:32:04Z</time>
      </trkpt>
      <trkpt lat="45.68018" lon="6.02111">
        <ele>1359.9221191</ele>
        <time>2011-06-26T08:32:13Z</time>
      </trkpt>
      <trkpt lat="45.68013" lon="6.02135">
        <ele>1361.3642578</ele>
        <time>2011-06-26T08:32:19Z</time>
      </trkpt>
      <trkpt lat="45.68004" lon="6.02159">
        <ele>1362.8061523</ele>
        <time>2011-06-26T08:32:26Z</time>
      </trkpt>
      <trkpt lat="45.67998" lon="6.02178">
        <ele>1364.2480469</ele>
        <time>2011-06-26T08:32:32Z</time>
      </trkpt>
      <trkpt lat="45.67989" lon="6.02195">
        <ele>1364.2480469</ele>
        <time>2011-06-26T08:32:37Z</time>
      </trkpt>
      <trkpt lat="45.67978" lon="6.02199">
        <ele>1365.6901855</ele>
        <time>2011-06-26T08:32:41Z</time>
      </trkpt>
      <trkpt lat="45.67974" lon="6.02198">
        <ele>1366.1706543</ele>
        <time>2011-06-26T08:32:43Z</time>
      </trkpt>
      <trkpt lat="45.67967" lon="6.02188">
        <ele>1368.0932617</ele>
        <time>2011-06-26T08:32:48Z</time>
      </trkpt>
      <trkpt lat="45.67962" lon="6.02171">
        <ele>1370.9772949</ele>
        <time>2011-06-26T08:32:54Z</time>
      </trkpt>
      <trkpt lat="45.6796" lon="6.02154">
        <ele>1371.9384766</ele>
        <time>2011-06-26T08:32:59Z</time>
      </trkpt>
      <trkpt lat="45.67952" lon="6.02137">
        <ele>1372.4194336</ele>
        <time>2011-06-26T08:33:05Z</time>
      </trkpt>
      <trkpt lat="45.67941" lon="6.02115">
        <ele>1373.8613281</ele>
        <time>2011-06-26T08:33:11Z</time>
      </trkpt>
      <trkpt lat="45.67929" lon="6.02096">
        <ele>1375.3032227</ele>
        <time>2011-06-26T08:33:16Z</time>
      </trkpt>
      <trkpt lat="45.67919" lon="6.02073">
        <ele>1377.2260742</ele>
        <time>2011-06-26T08:33:22Z</time>
      </trkpt>
      <trkpt lat="45.6791" lon="6.02052">
        <ele>1375.3032227</ele>
        <time>2011-06-26T08:33:27Z</time>
      </trkpt>
      <trkpt lat="45.67905" lon="6.02038">
        <ele>1375.3032227</ele>
        <time>2011-06-26T08:33:31Z</time>
      </trkpt>
      <trkpt lat="45.67899" lon="6.0202">
        <ele>1376.2646484</ele>
        <time>2011-06-26T08:33:36Z</time>
      </trkpt>
      <trkpt lat="45.67891" lon="6.01998">
        <ele>1375.7839355</ele>
        <time>2011-06-26T08:33:42Z</time>
      </trkpt>
      <trkpt lat="45.67885" lon="6.01982">
        <ele>1373.8613281</ele>
        <time>2011-06-26T08:33:47Z</time>
      </trkpt>
      <trkpt lat="45.67889" lon="6.0197">
        <ele>1372.4194336</ele>
        <time>2011-06-26T08:33:52Z</time>
      </trkpt>
      <trkpt lat="45.67895" lon="6.01957">
        <ele>1370.496582</ele>
        <time>2011-06-26T08:33:56Z</time>
      </trkpt>
      <trkpt lat="45.67896" lon="6.01951">
        <ele>1371.4577637</ele>
        <time>2011-06-26T08:33:59Z</time>
      </trkpt>
      <trkpt lat="45.67899" lon="6.01939">
        <ele>1371.4577637</ele>
        <time>2011-06-26T08:34:04Z</time>
      </trkpt>
      <trkpt lat="45.67902" lon="6.01926">
        <ele>1370.496582</ele>
        <time>2011-06-26T08:34:09Z</time>
      </trkpt>
      <trkpt lat="45.67904" lon="6.01923">
        <ele>1370.496582</ele>
        <time>2011-06-26T08:34:10Z</time>
      </trkpt>
      <trkpt lat="45.67908" lon="6.01909">
        <ele>1373.3808594</ele>
        <time>2011-06-26T08:34:16Z</time>
      </trkpt>
      <trkpt lat="45.67915" lon="6.01896">
        <ele>1370.0158691</ele>
        <time>2011-06-26T08:34:22Z</time>
      </trkpt>
      <trkpt lat="45.6792" lon="6.01885">
        <ele>1369.0546875</ele>
        <time>2011-06-26T08:34:26Z</time>
      </trkpt>
      <trkpt lat="45.6792" lon="6.01884">
        <ele>1369.0546875</ele>
        <time>2011-06-26T08:34:27Z</time>
      </trkpt>
      <trkpt lat="45.67921" lon="6.01882">
        <ele>1369.0546875</ele>
        <time>2011-06-26T08:34:29Z</time>
      </trkpt>
      <trkpt lat="45.67923" lon="6.01879">
        <ele>1371.9384766</ele>
        <time>2011-06-26T08:34:34Z</time>
      </trkpt>
      <trkpt lat="45.67926" lon="6.01869">
        <ele>1373.8613281</ele>
        <time>2011-06-26T08:34:40Z</time>
      </trkpt>
      <trkpt lat="45.67926" lon="6.01863">
        <ele>1374.8227539</ele>
        <time>2011-06-26T08:34:45Z</time>
      </trkpt>
      <trkpt lat="45.67926" lon="6.01861">
        <ele>1374.342041</ele>
        <time>2011-06-26T08:34:46Z</time>
      </trkpt>
      <trkpt lat="45.67928" lon="6.01857">
        <ele>1372.9001465</ele>
        <time>2011-06-26T08:34:50Z</time>
      </trkpt>
      <trkpt lat="45.67931" lon="6.01852">
        <ele>1370.496582</ele>
        <time>2011-06-26T08:34:56Z</time>
      </trkpt>
      <trkpt lat="45.67938" lon="6.01831">
        <ele>1369.0546875</ele>
        <time>2011-06-26T08:35:01Z</time>
      </trkpt>
      <trkpt lat="45.67936" lon="6.01812">
        <ele>1368.5739746</ele>
        <time>2011-06-26T08:35:06Z</time>
      </trkpt>
      <trkpt lat="45.67927" lon="6.01791">
        <ele>1367.1320801</ele>
        <time>2011-06-26T08:35:12Z</time>
      </trkpt>
      <trkpt lat="45.67912" lon="6.01774">
        <ele>1368.0932617</ele>
        <time>2011-06-26T08:35:18Z</time>
      </trkpt>
      <trkpt lat="45.67903" lon="6.01762">
        <ele>1366.6513672</ele>
        <time>2011-06-26T08:35:22Z</time>
      </trkpt>
      <trkpt lat="45.67887" lon="6.01749">
        <ele>1365.2094727</ele>
        <time>2011-06-26T08:35:27Z</time>
      </trkpt>
      <trkpt lat="45.67864" lon="6.01734">
        <ele>1367.6125488</ele>
        <time>2011-06-26T08:35:34Z</time>
      </trkpt>
      <trkpt lat="45.67838" lon="6.01722">
        <ele>1369.0546875</ele>
        <time>2011-06-26T08:35:40Z</time>
      </trkpt>
      <trkpt lat="45.67796" lon="6.01712">
        <ele>1365.6901855</ele>
        <time>2011-06-26T08:35:48Z</time>
      </trkpt>
      <trkpt lat="45.67759" lon="6.01696">
        <ele>1366.1706543</ele>
        <time>2011-06-26T08:35:55Z</time>
      </trkpt>
      <trkpt lat="45.67755" lon="6.01692">
        <ele>1365.6901855</ele>
        <time>2011-06-26T08:35:56Z</time>
      </trkpt>
      <trkpt lat="45.67742" lon="6.0167">
        <ele>1366.1706543</ele>
        <time>2011-06-26T08:36:01Z</time>
      </trkpt>
      <trkpt lat="45.67739" lon="6.01657">
        <ele>1364.7287598</ele>
        <time>2011-06-26T08:36:05Z</time>
      </trkpt>
      <trkpt lat="45.67744" lon="6.01636">
        <ele>1364.7287598</ele>
        <time>2011-06-26T08:36:09Z</time>
      </trkpt>
      <trkpt lat="45.6776" lon="6.01608">
        <ele>1359.4416504</ele>
        <time>2011-06-26T08:36:14Z</time>
      </trkpt>
      <trkpt lat="45.67767" lon="6.01589">
        <ele>1358.4802246</ele>
        <time>2011-06-26T08:36:19Z</time>
      </trkpt>
      <trkpt lat="45.67778" lon="6.01573">
        <ele>1354.6347656</ele>
        <time>2011-06-26T08:36:25Z</time>
      </trkpt>
      <trkpt lat="45.67785" lon="6.01552">
        <ele>1354.1542969</ele>
        <time>2011-06-26T08:36:30Z</time>
      </trkpt>
      <trkpt lat="45.67784" lon="6.01527">
        <ele>1357.9997559</ele>
        <time>2011-06-26T08:36:36Z</time>
      </trkpt>
      <trkpt lat="45.67789" lon="6.01513">
        <ele>1357.9997559</ele>
        <time>2011-06-26T08:36:41Z</time>
      </trkpt>
      <trkpt lat="45.67791" lon="6.015">
        <ele>1358.4802246</ele>
        <time>2011-06-26T08:36:46Z</time>
      </trkpt>
      <trkpt lat="45.67798" lon="6.01483">
        <ele>1356.5576172</ele>
        <time>2011-06-26T08:36:50Z</time>
      </trkpt>
      <trkpt lat="45.67798" lon="6.0148">
        <ele>1357.9997559</ele>
        <time>2011-06-26T08:36:52Z</time>
      </trkpt>
      <trkpt lat="45.67804" lon="6.01474">
        <ele>1355.1154785</ele>
        <time>2011-06-26T08:36:57Z</time>
      </trkpt>
      <trkpt lat="45.67808" lon="6.0147">
        <ele>1352.7121582</ele>
        <time>2011-06-26T08:37:01Z</time>
      </trkpt>
      <trkpt lat="45.67812" lon="6.01454">
        <ele>1349.3476563</ele>
        <time>2011-06-26T08:37:07Z</time>
      </trkpt>
      <trkpt lat="45.67817" lon="6.01444">
        <ele>1347.4250488</ele>
        <time>2011-06-26T08:37:10Z</time>
      </trkpt>
      <trkpt lat="45.67825" lon="6.01425">
        <ele>1348.3862305</ele>
        <time>2011-06-26T08:37:15Z</time>
      </trkpt>
      <trkpt lat="45.67833" lon="6.01402">
        <ele>1348.8669434</ele>
        <time>2011-06-26T08:37:19Z</time>
      </trkpt>
      <trkpt lat="45.67834" lon="6.01388">
        <ele>1350.309082</ele>
        <time>2011-06-26T08:37:23Z</time>
      </trkpt>
      <trkpt lat="45.67835" lon="6.01386">
        <ele>1351.2702637</ele>
        <time>2011-06-26T08:37:24Z</time>
      </trkpt>
      <trkpt lat="45.67836" lon="6.01379">
        <ele>1353.1928711</ele>
        <time>2011-06-26T08:37:31Z</time>
      </trkpt>
      <trkpt lat="45.67839" lon="6.01362">
        <ele>1354.6347656</ele>
        <time>2011-06-26T08:37:37Z</time>
      </trkpt>
      <trkpt lat="45.6784" lon="6.01343">
        <ele>1355.5961914</ele>
        <time>2011-06-26T08:37:41Z</time>
      </trkpt>
      <trkpt lat="45.67852" lon="6.01327">
        <ele>1352.7121582</ele>
        <time>2011-06-26T08:37:47Z</time>
      </trkpt>
      <trkpt lat="45.67864" lon="6.01302">
        <ele>1349.3476563</ele>
        <time>2011-06-26T08:37:52Z</time>
      </trkpt>
      <trkpt lat="45.67869" lon="6.01293">
        <ele>1348.3862305</ele>
        <time>2011-06-26T08:37:55Z</time>
      </trkpt>
      <trkpt lat="45.67872" lon="6.01284">
        <ele>1352.2314453</ele>
        <time>2011-06-26T08:38:02Z</time>
      </trkpt>
      <trkpt lat="45.67873" lon="6.01278">
        <ele>1355.1154785</ele>
        <time>2011-06-26T08:38:08Z</time>
      </trkpt>
      <trkpt lat="45.67876" lon="6.01272">
        <ele>1356.0769043</ele>
        <time>2011-06-26T08:38:14Z</time>
      </trkpt>
      <trkpt lat="45.67878" lon="6.01257">
        <ele>1355.1154785</ele>
        <time>2011-06-26T08:38:17Z</time>
      </trkpt>
      <trkpt lat="45.67885" lon="6.01242">
        <ele>1352.7121582</ele>
        <time>2011-06-26T08:38:21Z</time>
      </trkpt>
      <trkpt lat="45.67889" lon="6.01235">
        <ele>1351.2702637</ele>
        <time>2011-06-26T08:38:24Z</time>
      </trkpt>
      <trkpt lat="45.67886" lon="6.01219">
        <ele>1350.309082</ele>
        <time>2011-06-26T08:38:29Z</time>
      </trkpt>
      <trkpt lat="45.67881" lon="6.01198">
        <ele>1350.7895508</ele>
        <time>2011-06-26T08:38:34Z</time>
      </trkpt>
      <trkpt lat="45.67886" lon="6.01175">
        <ele>1352.2314453</ele>
        <time>2011-06-26T08:38:40Z</time>
      </trkpt>
      <trkpt lat="45.67891" lon="6.01161">
        <ele>1352.2314453</ele>
        <time>2011-06-26T08:38:45Z</time>
      </trkpt>
      <trkpt lat="45.67894" lon="6.01156">
        <ele>1353.1928711</ele>
        <time>2011-06-26T08:38:49Z</time>
      </trkpt>
      <trkpt lat="45.67896" lon="6.0115">
        <ele>1355.1154785</ele>
        <time>2011-06-26T08:38:54Z</time>
      </trkpt>
      <trkpt lat="45.679" lon="6.0114">
        <ele>1355.1154785</ele>
        <time>2011-06-26T08:38:59Z</time>
      </trkpt>
      <trkpt lat="45.67912" lon="6.0113">
        <ele>1350.7895508</ele>
        <time>2011-06-26T08:39:05Z</time>
      </trkpt>
      <trkpt lat="45.67929" lon="6.01126">
        <ele>1345.5024414</ele>
        <time>2011-06-26T08:39:10Z</time>
      </trkpt>
      <trkpt lat="45.67942" lon="6.01119">
        <ele>1342.1379395</ele>
        <time>2011-06-26T08:39:14Z</time>
      </trkpt>
      <trkpt lat="45.67948" lon="6.01119">
        <ele>1341.6572266</ele>
        <time>2011-06-26T08:39:19Z</time>
      </trkpt>
      <trkpt lat="45.6795" lon="6.01118">
        <ele>1345.9831543</ele>
        <time>2011-06-26T08:39:33Z</time>
      </trkpt>
      <trkpt lat="45.67953" lon="6.01118">
        <ele>1345.0217285</ele>
        <time>2011-06-26T08:39:43Z</time>
      </trkpt>
      <trkpt lat="45.67954" lon="6.01118">
        <ele>1345.0217285</ele>
        <time>2011-06-26T08:39:48Z</time>
      </trkpt>
      <trkpt lat="45.67954" lon="6.01116">
        <ele>1348.3862305</ele>
        <time>2011-06-26T08:41:03Z</time>
      </trkpt>
      <trkpt lat="45.67954" lon="6.01118">
        <ele>1343.579834</ele>
        <time>2011-06-26T08:41:52Z</time>
      </trkpt>
      <trkpt lat="45.67951" lon="6.01122">
        <ele>1358.4802246</ele>
        <time>2011-06-26T08:42:06Z</time>
      </trkpt>
      <trkpt lat="45.67953" lon="6.01119">
        <ele>1356.5576172</ele>
        <time>2011-06-26T08:42:16Z</time>
      </trkpt>
      <trkpt lat="45.67953" lon="6.01122">
        <ele>1358.4802246</ele>
        <time>2011-06-26T08:42:27Z</time>
      </trkpt>
      <trkpt lat="45.67954" lon="6.01122">
        <ele>1361.3642578</ele>
        <time>2011-06-26T08:42:43Z</time>
      </trkpt>
      <trkpt lat="45.67955" lon="6.01121">
        <ele>1357.9997559</ele>
        <time>2011-06-26T08:42:50Z</time>
      </trkpt>
      <trkpt lat="45.67956" lon="6.01123">
        <ele>1360.8835449</ele>
        <time>2011-06-26T08:43:09Z</time>
      </trkpt>
      <trkpt lat="45.67955" lon="6.01124">
        <ele>1359.9221191</ele>
        <time>2011-06-26T08:43:25Z</time>
      </trkpt>
      <trkpt lat="45.67957" lon="6.01123">
        <ele>1362.3254395</ele>
        <time>2011-06-26T08:43:41Z</time>
      </trkpt>
      <trkpt lat="45.67957" lon="6.01122">
        <ele>1361.3642578</ele>
        <time>2011-06-26T08:43:47Z</time>
      </trkpt>
      <trkpt lat="45.67958" lon="6.01119">
        <ele>1355.5961914</ele>
        <time>2011-06-26T08:44:03Z</time>
      </trkpt>
      <trkpt lat="45.6796" lon="6.01121">
        <ele>1357.0383301</ele>
        <time>2011-06-26T08:44:19Z</time>
      </trkpt>
      <trkpt lat="45.67963" lon="6.01121">
        <ele>1356.5576172</ele>
        <time>2011-06-26T08:44:25Z</time>
      </trkpt>
      <trkpt lat="45.67966" lon="6.01118">
        <ele>1362.8061523</ele>
        <time>2011-06-26T08:44:54Z</time>
      </trkpt>
      <trkpt lat="45.67968" lon="6.01118">
        <ele>1362.8061523</ele>
        <time>2011-06-26T08:45:03Z</time>
      </trkpt>
      <trkpt lat="45.67973" lon="6.0112">
        <ele>1361.8449707</ele>
        <time>2011-06-26T08:45:08Z</time>
      </trkpt>
      <trkpt lat="45.67983" lon="6.0113">
        <ele>1357.519043</ele>
        <time>2011-06-26T08:45:13Z</time>
      </trkpt>
      <trkpt lat="45.67996" lon="6.01138">
        <ele>1353.673584</ele>
        <time>2011-06-26T08:45:18Z</time>
      </trkpt>
      <trkpt lat="45.68005" lon="6.01127">
        <ele>1349.8283691</ele>
        <time>2011-06-26T08:45:24Z</time>
      </trkpt>
      <trkpt lat="45.68014" lon="6.01118">
        <ele>1345.9831543</ele>
        <time>2011-06-26T08:45:29Z</time>
      </trkpt>
      <trkpt lat="45.68023" lon="6.01114">
        <ele>1341.6572266</ele>
        <time>2011-06-26T08:45:34Z</time>
      </trkpt>
      <trkpt lat="45.68026" lon="6.01112">
        <ele>1342.1379395</ele>
        <time>2011-06-26T08:45:36Z</time>
      </trkpt>
      <trkpt lat="45.68025" lon="6.01099">
        <ele>1344.5410156</ele>
        <time>2011-06-26T08:45:42Z</time>
      </trkpt>
      <trkpt lat="45.68022" lon="6.01096">
        <ele>1344.5410156</ele>
        <time>2011-06-26T08:45:44Z</time>
      </trkpt>
      <trkpt lat="45.68015" lon="6.01087">
        <ele>1345.0217285</ele>
        <time>2011-06-26T08:45:49Z</time>
      </trkpt>
      <trkpt lat="45.68012" lon="6.01082">
        <ele>1345.0217285</ele>
        <time>2011-06-26T08:45:51Z</time>
      </trkpt>
      <trkpt lat="45.67999" lon="6.01071">
        <ele>1347.4250488</ele>
        <time>2011-06-26T08:45:58Z</time>
      </trkpt>
      <trkpt lat="45.67983" lon="6.01065">
        <ele>1347.4250488</ele>
        <time>2011-06-26T08:46:05Z</time>
      </trkpt>
      <trkpt lat="45.67967" lon="6.01059">
        <ele>1348.3862305</ele>
        <time>2011-06-26T08:46:11Z</time>
      </trkpt>
      <trkpt lat="45.67954" lon="6.01047">
        <ele>1349.3476563</ele>
        <time>2011-06-26T08:46:16Z</time>
      </trkpt>
      <trkpt lat="45.67943" lon="6.01023">
        <ele>1348.8669434</ele>
        <time>2011-06-26T08:46:22Z</time>
      </trkpt>
      <trkpt lat="45.67945" lon="6.01004">
        <ele>1349.3476563</ele>
        <time>2011-06-26T08:46:26Z</time>
      </trkpt>
      <trkpt lat="45.67948" lon="6.00986">
        <ele>1349.8283691</ele>
        <time>2011-06-26T08:46:30Z</time>
      </trkpt>
      <trkpt lat="45.67949" lon="6.00965">
        <ele>1349.3476563</ele>
        <time>2011-06-26T08:46:34Z</time>
      </trkpt>
      <trkpt lat="45.67958" lon="6.00928">
        <ele>1351.7509766</ele>
        <time>2011-06-26T08:46:41Z</time>
      </trkpt>
      <trkpt lat="45.67972" lon="6.00884">
        <ele>1355.5961914</ele>
        <time>2011-06-26T08:46:48Z</time>
      </trkpt>
      <trkpt lat="45.67978" lon="6.00872">
        <ele>1353.1928711</ele>
        <time>2011-06-26T08:46:50Z</time>
      </trkpt>
      <trkpt lat="45.67992" lon="6.00847">
        <ele>1352.7121582</ele>
        <time>2011-06-26T08:46:54Z</time>
      </trkpt>
      <trkpt lat="45.6802" lon="6.00814">
        <ele>1347.9057617</ele>
        <time>2011-06-26T08:47:00Z</time>
      </trkpt>
      <trkpt lat="45.68028" lon="6.00803">
        <ele>1345.9831543</ele>
        <time>2011-06-26T08:47:02Z</time>
      </trkpt>
      <trkpt lat="45.68035" lon="6.00792">
        <ele>1344.5410156</ele>
        <time>2011-06-26T08:47:04Z</time>
      </trkpt>
      <trkpt lat="45.6804" lon="6.00762">
        <ele>1342.1379395</ele>
        <time>2011-06-26T08:47:08Z</time>
      </trkpt>
      <trkpt lat="45.6804" lon="6.00722">
        <ele>1339.734375</ele>
        <time>2011-06-26T08:47:13Z</time>
      </trkpt>
      <trkpt lat="45.68044" lon="6.00701">
        <ele>1338.7731934</ele>
        <time>2011-06-26T08:47:16Z</time>
      </trkpt>
      <trkpt lat="45.68043" lon="6.00658">
        <ele>1336.8503418</ele>
        <time>2011-06-26T08:47:22Z</time>
      </trkpt>
      <trkpt lat="45.68043" lon="6.00645">
        <ele>1335.8891602</ele>
        <time>2011-06-26T08:47:24Z</time>
      </trkpt>
      <trkpt lat="45.68033" lon="6.00628">
        <ele>1336.369873</ele>
        <time>2011-06-26T08:47:28Z</time>
      </trkpt>
      <trkpt lat="45.6802" lon="6.00628">
        <ele>1336.369873</ele>
        <time>2011-06-26T08:47:32Z</time>
      </trkpt>
      <trkpt lat="45.68" lon="6.00639">
        <ele>1337.3310547</ele>
        <time>2011-06-26T08:47:37Z</time>
      </trkpt>
      <trkpt lat="45.67987" lon="6.00638">
        <ele>1339.2536621</ele>
        <time>2011-06-26T08:47:40Z</time>
      </trkpt>
      <trkpt lat="45.67967" lon="6.00631">
        <ele>1342.1379395</ele>
        <time>2011-06-26T08:47:45Z</time>
      </trkpt>
      <trkpt lat="45.67947" lon="6.00627">
        <ele>1345.0217285</ele>
        <time>2011-06-26T08:47:52Z</time>
      </trkpt>
      <trkpt lat="45.67934" lon="6.00639">
        <ele>1346.9443359</ele>
        <time>2011-06-26T08:47:59Z</time>
      </trkpt>
      <trkpt lat="45.6793" lon="6.00654">
        <ele>1346.9443359</ele>
        <time>2011-06-26T08:48:04Z</time>
      </trkpt>
      <trkpt lat="45.67925" lon="6.0068">
        <ele>1347.9057617</ele>
        <time>2011-06-26T08:48:09Z</time>
      </trkpt>
      <trkpt lat="45.67913" lon="6.00693">
        <ele>1348.8669434</ele>
        <time>2011-06-26T08:48:13Z</time>
      </trkpt>
      <trkpt lat="45.67907" lon="6.00696">
        <ele>1350.309082</ele>
        <time>2011-06-26T08:48:15Z</time>
      </trkpt>
      <trkpt lat="45.67887" lon="6.00694">
        <ele>1354.1542969</ele>
        <time>2011-06-26T08:48:22Z</time>
      </trkpt>
      <trkpt lat="45.67874" lon="6.00706">
        <ele>1354.6347656</ele>
        <time>2011-06-26T08:48:27Z</time>
      </trkpt>
      <trkpt lat="45.67864" lon="6.00703">
        <ele>1352.7121582</ele>
        <time>2011-06-26T08:48:30Z</time>
      </trkpt>
      <trkpt lat="45.67862" lon="6.00677">
        <ele>1351.2702637</ele>
        <time>2011-06-26T08:48:35Z</time>
      </trkpt>
      <trkpt lat="45.6786" lon="6.00666">
        <ele>1351.2702637</ele>
        <time>2011-06-26T08:48:38Z</time>
      </trkpt>
      <trkpt lat="45.6786" lon="6.00642">
        <ele>1351.7509766</ele>
        <time>2011-06-26T08:48:44Z</time>
      </trkpt>
      <trkpt lat="45.67866" lon="6.00628">
        <ele>1350.7895508</ele>
        <time>2011-06-26T08:48:48Z</time>
      </trkpt>
      <trkpt lat="45.67878" lon="6.00614">
        <ele>1350.309082</ele>
        <time>2011-06-26T08:48:55Z</time>
      </trkpt>
      <trkpt lat="45.67885" lon="6.00604">
        <ele>1352.7121582</ele>
        <time>2011-06-26T08:49:00Z</time>
      </trkpt>
      <trkpt lat="45.67895" lon="6.00589">
        <ele>1352.2314453</ele>
        <time>2011-06-26T08:49:06Z</time>
      </trkpt>
      <trkpt lat="45.67903" lon="6.00569">
        <ele>1350.7895508</ele>
        <time>2011-06-26T08:49:12Z</time>
      </trkpt>
      <trkpt lat="45.67909" lon="6.0055">
        <ele>1349.8283691</ele>
        <time>2011-06-26T08:49:18Z</time>
      </trkpt>
      <trkpt lat="45.67915" lon="6.0053">
        <ele>1349.8283691</ele>
        <time>2011-06-26T08:49:24Z</time>
      </trkpt>
      <trkpt lat="45.67923" lon="6.00505">
        <ele>1352.2314453</ele>
        <time>2011-06-26T08:49:30Z</time>
      </trkpt>
      <trkpt lat="45.67928" lon="6.00481">
        <ele>1356.0769043</ele>
        <time>2011-06-26T08:49:36Z</time>
      </trkpt>
      <trkpt lat="45.67937" lon="6.00458">
        <ele>1357.9997559</ele>
        <time>2011-06-26T08:49:43Z</time>
      </trkpt>
      <trkpt lat="45.67945" lon="6.00438">
        <ele>1358.9609375</ele>
        <time>2011-06-26T08:49:49Z</time>
      </trkpt>
      <trkpt lat="45.67946" lon="6.00414">
        <ele>1359.9221191</ele>
        <time>2011-06-26T08:49:54Z</time>
      </trkpt>
      <trkpt lat="45.67944" lon="6.00384">
        <ele>1362.8061523</ele>
        <time>2011-06-26T08:50:00Z</time>
      </trkpt>
      <trkpt lat="45.67947" lon="6.00366">
        <ele>1365.2094727</ele>
        <time>2011-06-26T08:50:05Z</time>
      </trkpt>
      <trkpt lat="45.67955" lon="6.00345">
        <ele>1367.1320801</ele>
        <time>2011-06-26T08:50:11Z</time>
      </trkpt>
      <trkpt lat="45.67971" lon="6.00325">
        <ele>1368.0932617</ele>
        <time>2011-06-26T08:50:19Z</time>
      </trkpt>
      <trkpt lat="45.67981" lon="6.00305">
        <ele>1367.6125488</ele>
        <time>2011-06-26T08:50:25Z</time>
      </trkpt>
      <trkpt lat="45.67984" lon="6.00288">
        <ele>1368.0932617</ele>
        <time>2011-06-26T08:50:29Z</time>
      </trkpt>
      <trkpt lat="45.67984" lon="6.00273">
        <ele>1370.0158691</ele>
        <time>2011-06-26T08:50:33Z</time>
      </trkpt>
      <trkpt lat="45.67973" lon="6.00249">
        <ele>1374.8227539</ele>
        <time>2011-06-26T08:50:41Z</time>
      </trkpt>
      <trkpt lat="45.67965" lon="6.00233">
        <ele>1380.1098633</ele>
        <time>2011-06-26T08:50:48Z</time>
      </trkpt>
      <trkpt lat="45.67961" lon="6.00215">
        <ele>1382.5131836</ele>
        <time>2011-06-26T08:50:54Z</time>
      </trkpt>
      <trkpt lat="45.67957" lon="6.00193">
        <ele>1384.435791</ele>
        <time>2011-06-26T08:51:00Z</time>
      </trkpt>
      <trkpt lat="45.67957" lon="6.00163">
        <ele>1385.8776855</ele>
        <time>2011-06-26T08:51:06Z</time>
      </trkpt>
      <trkpt lat="45.67952" lon="6.00137">
        <ele>1386.8388672</ele>
        <time>2011-06-26T08:51:10Z</time>
      </trkpt>
      <trkpt lat="45.67951" lon="6.00126">
        <ele>1385.8776855</ele>
        <time>2011-06-26T08:51:12Z</time>
      </trkpt>
      <trkpt lat="45.67946" lon="6.00091">
        <ele>1387.3195801</ele>
        <time>2011-06-26T08:51:20Z</time>
      </trkpt>
      <trkpt lat="45.6794" lon="6.0007">
        <ele>1388.7619629</ele>
        <time>2011-06-26T08:51:26Z</time>
      </trkpt>
      <trkpt lat="45.67932" lon="6.00053">
        <ele>1389.2424316</ele>
        <time>2011-06-26T08:51:31Z</time>
      </trkpt>
      <trkpt lat="45.67923" lon="6.00035">
        <ele>1389.2424316</ele>
        <time>2011-06-26T08:51:36Z</time>
      </trkpt>
      <trkpt lat="45.67911" lon="6.00012">
        <ele>1393.0876465</ele>
        <time>2011-06-26T08:51:42Z</time>
      </trkpt>
      <trkpt lat="45.67899" lon="5.99994">
        <ele>1392.1264648</ele>
        <time>2011-06-26T08:51:46Z</time>
      </trkpt>
      <trkpt lat="45.67883" lon="5.99971">
        <ele>1391.645752</ele>
        <time>2011-06-26T08:51:50Z</time>
      </trkpt>
      <trkpt lat="45.67853" lon="5.99951">
        <ele>1390.6843262</ele>
        <time>2011-06-26T08:51:55Z</time>
      </trkpt>
      <trkpt lat="45.67848" lon="5.99948">
        <ele>1390.2038574</ele>
        <time>2011-06-26T08:51:56Z</time>
      </trkpt>
      <trkpt lat="45.67839" lon="5.9994">
        <ele>1390.2038574</ele>
        <time>2011-06-26T08:51:58Z</time>
      </trkpt>
      <trkpt lat="45.67838" lon="5.99914">
        <ele>1389.2424316</ele>
        <time>2011-06-26T08:52:03Z</time>
      </trkpt>
      <trkpt lat="45.67844" lon="5.99902">
        <ele>1387.800293</ele>
        <time>2011-06-26T08:52:08Z</time>
      </trkpt>
      <trkpt lat="45.67848" lon="5.99892">
        <ele>1386.8388672</ele>
        <time>2011-06-26T08:52:13Z</time>
      </trkpt>
      <trkpt lat="45.67844" lon="5.99882">
        <ele>1385.8776855</ele>
        <time>2011-06-26T08:52:19Z</time>
      </trkpt>
      <trkpt lat="45.67841" lon="5.9988">
        <ele>1385.3969727</ele>
        <time>2011-06-26T08:52:21Z</time>
      </trkpt>
      <trkpt lat="45.67837" lon="5.99878">
        <ele>1385.3969727</ele>
        <time>2011-06-26T08:52:23Z</time>
      </trkpt>
      <trkpt lat="45.67836" lon="5.99878">
        <ele>1383.4743652</ele>
        <time>2011-06-26T08:52:30Z</time>
      </trkpt>
      <trkpt lat="45.67836" lon="5.99878">
        <ele>1382.9936523</ele>
        <time>2011-06-26T08:52:41Z</time>
      </trkpt>
      <trkpt lat="45.67835" lon="5.99879">
        <ele>1382.9936523</ele>
        <time>2011-06-26T08:52:48Z</time>
      </trkpt>
      <trkpt lat="45.67832" lon="5.99879">
        <ele>1382.9936523</ele>
        <time>2011-06-26T08:52:52Z</time>
      </trkpt>
      <trkpt lat="45.67832" lon="5.9988">
        <ele>1382.9936523</ele>
        <time>2011-06-26T08:52:53Z</time>
      </trkpt>
      <trkpt lat="45.67833" lon="5.99902">
        <ele>1381.5517578</ele>
        <time>2011-06-26T08:52:59Z</time>
      </trkpt>
      <trkpt lat="45.67836" lon="5.9994">
        <ele>1379.1484375</ele>
        <time>2011-06-26T08:53:05Z</time>
      </trkpt>
      <trkpt lat="45.67836" lon="5.99946">
        <ele>1379.1484375</ele>
        <time>2011-06-26T08:53:06Z</time>
      </trkpt>
      <trkpt lat="45.67822" lon="5.99959">
        <ele>1377.706543</ele>
        <time>2011-06-26T08:53:11Z</time>
      </trkpt>
      <trkpt lat="45.67808" lon="5.99966">
        <ele>1376.7453613</ele>
        <time>2011-06-26T08:53:17Z</time>
      </trkpt>
      <trkpt lat="45.67795" lon="5.99968">
        <ele>1376.2646484</ele>
        <time>2011-06-26T08:53:23Z</time>
      </trkpt>
      <trkpt lat="45.67782" lon="5.99967">
        <ele>1380.5905762</ele>
        <time>2011-06-26T08:53:28Z</time>
      </trkpt>
      <trkpt lat="45.67768" lon="5.99964">
        <ele>1381.0712891</ele>
        <time>2011-06-26T08:53:32Z</time>
      </trkpt>
      <trkpt lat="45.6774" lon="5.99951">
        <ele>1382.9936523</ele>
        <time>2011-06-26T08:53:38Z</time>
      </trkpt>
      <trkpt lat="45.67733" lon="5.99948">
        <ele>1383.9550781</ele>
        <time>2011-06-26T08:53:40Z</time>
      </trkpt>
      <trkpt lat="45.67715" lon="5.99951">
        <ele>1382.9936523</ele>
        <time>2011-06-26T08:53:44Z</time>
      </trkpt>
      <trkpt lat="45.67693" lon="5.99954">
        <ele>1382.5131836</ele>
        <time>2011-06-26T08:53:48Z</time>
      </trkpt>
      <trkpt lat="45.67673" lon="5.9996">
        <ele>1381.5517578</ele>
        <time>2011-06-26T08:53:51Z</time>
      </trkpt>
      <trkpt lat="45.67641" lon="5.99959">
        <ele>1379.6291504</ele>
        <time>2011-06-26T08:53:56Z</time>
      </trkpt>
      <trkpt lat="45.67626" lon="5.99955">
        <ele>1378.6679688</ele>
        <time>2011-06-26T08:53:59Z</time>
      </trkpt>
      <trkpt lat="45.6761" lon="5.99955">
        <ele>1377.2260742</ele>
        <time>2011-06-26T08:54:04Z</time>
      </trkpt>
      <trkpt lat="45.67601" lon="5.99963">
        <ele>1376.2646484</ele>
        <time>2011-06-26T08:54:08Z</time>
      </trkpt>
      <trkpt lat="45.6759" lon="5.99966">
        <ele>1376.2646484</ele>
        <time>2011-06-26T08:54:12Z</time>
      </trkpt>
      <trkpt lat="45.67587" lon="5.99978">
        <ele>1375.3032227</ele>
        <time>2011-06-26T08:54:16Z</time>
      </trkpt>
      <trkpt lat="45.67583" lon="5.99988">
        <ele>1374.8227539</ele>
        <time>2011-06-26T08:54:18Z</time>
      </trkpt>
      <trkpt lat="45.67565" lon="6.00017">
        <ele>1370.9772949</ele>
        <time>2011-06-26T08:54:23Z</time>
      </trkpt>
      <trkpt lat="45.67557" lon="6.00027">
        <ele>1369.5354004</ele>
        <time>2011-06-26T08:54:25Z</time>
      </trkpt>
      <trkpt lat="45.67522" lon="6.0006">
        <ele>1366.6513672</ele>
        <time>2011-06-26T08:54:31Z</time>
      </trkpt>
      <trkpt lat="45.67488" lon="6.00092">
        <ele>1363.767334</ele>
        <time>2011-06-26T08:54:36Z</time>
      </trkpt>
      <trkpt lat="45.67479" lon="6.00104">
        <ele>1361.3642578</ele>
        <time>2011-06-26T08:54:38Z</time>
      </trkpt>
      <trkpt lat="45.67452" lon="6.00125">
        <ele>1358.4802246</ele>
        <time>2011-06-26T08:54:42Z</time>
      </trkpt>
      <trkpt lat="45.67438" lon="6.00132">
        <ele>1356.5576172</ele>
        <time>2011-06-26T08:54:44Z</time>
      </trkpt>
      <trkpt lat="45.67419" lon="6.00151">
        <ele>1355.5961914</ele>
        <time>2011-06-26T08:54:48Z</time>
      </trkpt>
      <trkpt lat="45.67401" lon="6.00174">
        <ele>1354.1542969</ele>
        <time>2011-06-26T08:54:52Z</time>
      </trkpt>
      <trkpt lat="45.6739" lon="6.00199">
        <ele>1352.7121582</ele>
        <time>2011-06-26T08:54:55Z</time>
      </trkpt>
      <trkpt lat="45.67379" lon="6.00244">
        <ele>1353.673584</ele>
        <time>2011-06-26T08:55:00Z</time>
      </trkpt>
      <trkpt lat="45.67377" lon="6.00287">
        <ele>1354.6347656</ele>
        <time>2011-06-26T08:55:05Z</time>
      </trkpt>
      <trkpt lat="45.67379" lon="6.00319">
        <ele>1354.1542969</ele>
        <time>2011-06-26T08:55:09Z</time>
      </trkpt>
      <trkpt lat="45.67376" lon="6.00365">
        <ele>1355.1154785</ele>
        <time>2011-06-26T08:55:15Z</time>
      </trkpt>
      <trkpt lat="45.67375" lon="6.00381">
        <ele>1356.5576172</ele>
        <time>2011-06-26T08:55:18Z</time>
      </trkpt>
      <trkpt lat="45.67372" lon="6.00402">
        <ele>1357.9997559</ele>
        <time>2011-06-26T08:55:22Z</time>
      </trkpt>
      <trkpt lat="45.67372" lon="6.00422">
        <ele>1358.9609375</ele>
        <time>2011-06-26T08:55:26Z</time>
      </trkpt>
      <trkpt lat="45.67372" lon="6.00455">
        <ele>1361.8449707</ele>
        <time>2011-06-26T08:55:32Z</time>
      </trkpt>
      <trkpt lat="45.6737" lon="6.00486">
        <ele>1364.7287598</ele>
        <time>2011-06-26T08:55:38Z</time>
      </trkpt>
      <trkpt lat="45.67365" lon="6.00508">
        <ele>1365.2094727</ele>
        <time>2011-06-26T08:55:42Z</time>
      </trkpt>
      <trkpt lat="45.67354" lon="6.0055">
        <ele>1365.6901855</ele>
        <time>2011-06-26T08:55:49Z</time>
      </trkpt>
      <trkpt lat="45.67348" lon="6.00576">
        <ele>1368.5739746</ele>
        <time>2011-06-26T08:55:55Z</time>
      </trkpt>
      <trkpt lat="45.67343" lon="6.00597">
        <ele>1370.0158691</ele>
        <time>2011-06-26T08:56:00Z</time>
      </trkpt>
      <trkpt lat="45.67337" lon="6.00623">
        <ele>1369.0546875</ele>
        <time>2011-06-26T08:56:03Z</time>
      </trkpt>
      <trkpt lat="45.67334" lon="6.00649">
        <ele>1368.5739746</ele>
        <time>2011-06-26T08:56:06Z</time>
      </trkpt>
      <trkpt lat="45.67331" lon="6.00665">
        <ele>1370.0158691</ele>
        <time>2011-06-26T08:56:11Z</time>
      </trkpt>
      <trkpt lat="45.67327" lon="6.00687">
        <ele>1370.9772949</ele>
        <time>2011-06-26T08:56:17Z</time>
      </trkpt>
      <trkpt lat="45.67327" lon="6.0069">
        <ele>1370.9772949</ele>
        <time>2011-06-26T08:56:18Z</time>
      </trkpt>
      <trkpt lat="45.67335" lon="6.00712">
        <ele>1371.4577637</ele>
        <time>2011-06-26T08:56:25Z</time>
      </trkpt>
      <trkpt lat="45.67339" lon="6.00728">
        <ele>1372.4194336</ele>
        <time>2011-06-26T08:56:30Z</time>
      </trkpt>
      <trkpt lat="45.67338" lon="6.00737">
        <ele>1372.4194336</ele>
        <time>2011-06-26T08:56:32Z</time>
      </trkpt>
      <trkpt lat="45.67327" lon="6.00768">
        <ele>1371.4577637</ele>
        <time>2011-06-26T08:56:36Z</time>
      </trkpt>
      <trkpt lat="45.67323" lon="6.0078">
        <ele>1370.9772949</ele>
        <time>2011-06-26T08:56:38Z</time>
      </trkpt>
      <trkpt lat="45.67319" lon="6.00801">
        <ele>1370.0158691</ele>
        <time>2011-06-26T08:56:42Z</time>
      </trkpt>
      <trkpt lat="45.67314" lon="6.00825">
        <ele>1365.6901855</ele>
        <time>2011-06-26T08:56:45Z</time>
      </trkpt>
      <trkpt lat="45.67312" lon="6.00869">
        <ele>1360.8835449</ele>
        <time>2011-06-26T08:56:49Z</time>
      </trkpt>
      <trkpt lat="45.67312" lon="6.00884">
        <ele>1359.9221191</ele>
        <time>2011-06-26T08:56:52Z</time>
      </trkpt>
      <trkpt lat="45.67295" lon="6.00915">
        <ele>1358.4802246</ele>
        <time>2011-06-26T08:56:58Z</time>
      </trkpt>
      <trkpt lat="45.67277" lon="6.00932">
        <ele>1359.9221191</ele>
        <time>2011-06-26T08:57:02Z</time>
      </trkpt>
      <trkpt lat="45.67263" lon="6.0095">
        <ele>1356.5576172</ele>
        <time>2011-06-26T08:57:05Z</time>
      </trkpt>
      <trkpt lat="45.67253" lon="6.0097">
        <ele>1355.5961914</ele>
        <time>2011-06-26T08:57:09Z</time>
      </trkpt>
      <trkpt lat="45.67253" lon="6.01001">
        <ele>1354.1542969</ele>
        <time>2011-06-26T08:57:15Z</time>
      </trkpt>
      <trkpt lat="45.67255" lon="6.01025">
        <ele>1353.673584</ele>
        <time>2011-06-26T08:57:18Z</time>
      </trkpt>
      <trkpt lat="45.67253" lon="6.01045">
        <ele>1355.1154785</ele>
        <time>2011-06-26T08:57:22Z</time>
      </trkpt>
      <trkpt lat="45.67252" lon="6.0106">
        <ele>1356.0769043</ele>
        <time>2011-06-26T08:57:24Z</time>
      </trkpt>
      <trkpt lat="45.6725" lon="6.01077">
        <ele>1356.0769043</ele>
        <time>2011-06-26T08:57:26Z</time>
      </trkpt>
      <trkpt lat="45.67241" lon="6.01111">
        <ele>1354.6347656</ele>
        <time>2011-06-26T08:57:31Z</time>
      </trkpt>
      <trkpt lat="45.67236" lon="6.01124">
        <ele>1353.673584</ele>
        <time>2011-06-26T08:57:33Z</time>
      </trkpt>
      <trkpt lat="45.67222" lon="6.01169">
        <ele>1351.7509766</ele>
        <time>2011-06-26T08:57:39Z</time>
      </trkpt>
      <trkpt lat="45.67217" lon="6.01196">
        <ele>1348.8669434</ele>
        <time>2011-06-26T08:57:43Z</time>
      </trkpt>
      <trkpt lat="45.67215" lon="6.01204">
        <ele>1347.4250488</ele>
        <time>2011-06-26T08:57:44Z</time>
      </trkpt>
      <trkpt lat="45.67212" lon="6.01221">
        <ele>1347.4250488</ele>
        <time>2011-06-26T08:57:46Z</time>
      </trkpt>
      <trkpt lat="45.67205" lon="6.01258">
        <ele>1347.4250488</ele>
        <time>2011-06-26T08:57:51Z</time>
      </trkpt>
      <trkpt lat="45.67206" lon="6.01277">
        <ele>1353.673584</ele>
        <time>2011-06-26T08:57:56Z</time>
      </trkpt>
      <trkpt lat="45.67201" lon="6.01306">
        <ele>1357.0383301</ele>
        <time>2011-06-26T08:58:03Z</time>
      </trkpt>
      <trkpt lat="45.67195" lon="6.01325">
        <ele>1357.9997559</ele>
        <time>2011-06-26T08:58:07Z</time>
      </trkpt>
      <trkpt lat="45.67189" lon="6.01351">
        <ele>1357.0383301</ele>
        <time>2011-06-26T08:58:12Z</time>
      </trkpt>
      <trkpt lat="45.67181" lon="6.01384">
        <ele>1356.5576172</ele>
        <time>2011-06-26T08:58:17Z</time>
      </trkpt>
      <trkpt lat="45.67178" lon="6.01401">
        <ele>1356.5576172</ele>
        <time>2011-06-26T08:58:20Z</time>
      </trkpt>
      <trkpt lat="45.67167" lon="6.01429">
        <ele>1356.5576172</ele>
        <time>2011-06-26T08:58:25Z</time>
      </trkpt>
      <trkpt lat="45.67163" lon="6.01448">
        <ele>1358.9609375</ele>
        <time>2011-06-26T08:58:30Z</time>
      </trkpt>
      <trkpt lat="45.67156" lon="6.01467">
        <ele>1359.4416504</ele>
        <time>2011-06-26T08:58:35Z</time>
      </trkpt>
      <trkpt lat="45.67146" lon="6.01473">
        <ele>1359.4416504</ele>
        <time>2011-06-26T08:58:39Z</time>
      </trkpt>
      <trkpt lat="45.67138" lon="6.01467">
        <ele>1359.4416504</ele>
        <time>2011-06-26T08:58:44Z</time>
      </trkpt>
      <trkpt lat="45.67129" lon="6.01464">
        <ele>1358.4802246</ele>
        <time>2011-06-26T08:58:48Z</time>
      </trkpt>
      <trkpt lat="45.67117" lon="6.01459">
        <ele>1359.9221191</ele>
        <time>2011-06-26T08:58:52Z</time>
      </trkpt>
      <trkpt lat="45.67107" lon="6.01445">
        <ele>1362.8061523</ele>
        <time>2011-06-26T08:58:57Z</time>
      </trkpt>
      <trkpt lat="45.67099" lon="6.0143">
        <ele>1365.6901855</ele>
        <time>2011-06-26T08:59:03Z</time>
      </trkpt>
      <trkpt lat="45.67092" lon="6.01416">
        <ele>1369.5354004</ele>
        <time>2011-06-26T08:59:08Z</time>
      </trkpt>
      <trkpt lat="45.67076" lon="6.01384">
        <ele>1371.9384766</ele>
        <time>2011-06-26T08:59:15Z</time>
      </trkpt>
      <trkpt lat="45.67068" lon="6.01358">
        <ele>1372.4194336</ele>
        <time>2011-06-26T08:59:20Z</time>
      </trkpt>
      <trkpt lat="45.67064" lon="6.01341">
        <ele>1373.3808594</ele>
        <time>2011-06-26T08:59:24Z</time>
      </trkpt>
      <trkpt lat="45.67055" lon="6.01322">
        <ele>1377.2260742</ele>
        <time>2011-06-26T08:59:30Z</time>
      </trkpt>
      <trkpt lat="45.67046" lon="6.01306">
        <ele>1378.6679688</ele>
        <time>2011-06-26T08:59:36Z</time>
      </trkpt>
      <trkpt lat="45.67038" lon="6.01291">
        <ele>1379.1484375</ele>
        <time>2011-06-26T08:59:41Z</time>
      </trkpt>
      <trkpt lat="45.67026" lon="6.01275">
        <ele>1380.1098633</ele>
        <time>2011-06-26T08:59:46Z</time>
      </trkpt>
      <trkpt lat="45.67006" lon="6.01251">
        <ele>1378.1872559</ele>
        <time>2011-06-26T08:59:53Z</time>
      </trkpt>
      <trkpt lat="45.66989" lon="6.01237">
        <ele>1377.706543</ele>
        <time>2011-06-26T08:59:59Z</time>
      </trkpt>
      <trkpt lat="45.66972" lon="6.01228">
        <ele>1376.2646484</ele>
        <time>2011-06-26T09:00:05Z</time>
      </trkpt>
      <trkpt lat="45.66967" lon="6.01227">
        <ele>1375.7839355</ele>
        <time>2011-06-26T09:00:08Z</time>
      </trkpt>
      <trkpt lat="45.66958" lon="6.01221">
        <ele>1374.342041</ele>
        <time>2011-06-26T09:00:13Z</time>
      </trkpt>
      <trkpt lat="45.66947" lon="6.01206">
        <ele>1374.342041</ele>
        <time>2011-06-26T09:00:19Z</time>
      </trkpt>
      <trkpt lat="45.6694" lon="6.01189">
        <ele>1378.1872559</ele>
        <time>2011-06-26T09:00:25Z</time>
      </trkpt>
      <trkpt lat="45.66937" lon="6.01169">
        <ele>1377.2260742</ele>
        <time>2011-06-26T09:00:29Z</time>
      </trkpt>
      <trkpt lat="45.66938" lon="6.01149">
        <ele>1377.2260742</ele>
        <time>2011-06-26T09:00:33Z</time>
      </trkpt>
      <trkpt lat="45.66929" lon="6.01128">
        <ele>1380.5905762</ele>
        <time>2011-06-26T09:00:38Z</time>
      </trkpt>
      <trkpt lat="45.66919" lon="6.01115">
        <ele>1380.5905762</ele>
        <time>2011-06-26T09:00:43Z</time>
      </trkpt>
      <trkpt lat="45.66905" lon="6.01096">
        <ele>1382.9936523</ele>
        <time>2011-06-26T09:00:48Z</time>
      </trkpt>
      <trkpt lat="45.66894" lon="6.01085">
        <ele>1382.0324707</ele>
        <time>2011-06-26T09:00:52Z</time>
      </trkpt>
      <trkpt lat="45.66885" lon="6.01074">
        <ele>1381.0712891</ele>
        <time>2011-06-26T09:00:59Z</time>
      </trkpt>
      <trkpt lat="45.66882" lon="6.01076">
        <ele>1380.1098633</ele>
        <time>2011-06-26T09:01:05Z</time>
      </trkpt>
      <trkpt lat="45.66877" lon="6.01074">
        <ele>1382.5131836</ele>
        <time>2011-06-26T09:01:11Z</time>
      </trkpt>
      <trkpt lat="45.66867" lon="6.01067">
        <ele>1382.0324707</ele>
        <time>2011-06-26T09:01:20Z</time>
      </trkpt>
      <trkpt lat="45.66855" lon="6.01065">
        <ele>1381.0712891</ele>
        <time>2011-06-26T09:01:24Z</time>
      </trkpt>
      <trkpt lat="45.66846" lon="6.01069">
        <ele>1380.5905762</ele>
        <time>2011-06-26T09:01:28Z</time>
      </trkpt>
      <trkpt lat="45.66834" lon="6.01079">
        <ele>1377.706543</ele>
        <time>2011-06-26T09:01:34Z</time>
      </trkpt>
      <trkpt lat="45.66823" lon="6.01086">
        <ele>1377.2260742</ele>
        <time>2011-06-26T09:01:40Z</time>
      </trkpt>
      <trkpt lat="45.66818" lon="6.01088">
        <ele>1377.706543</ele>
        <time>2011-06-26T09:01:42Z</time>
      </trkpt>
      <trkpt lat="45.66805" lon="6.01084">
        <ele>1378.6679688</ele>
        <time>2011-06-26T09:01:48Z</time>
      </trkpt>
      <trkpt lat="45.6679" lon="6.01074">
        <ele>1379.1484375</ele>
        <time>2011-06-26T09:01:53Z</time>
      </trkpt>
      <trkpt lat="45.66779" lon="6.01052">
        <ele>1379.6291504</ele>
        <time>2011-06-26T09:01:57Z</time>
      </trkpt>
      <trkpt lat="45.66774" lon="6.01042">
        <ele>1380.1098633</ele>
        <time>2011-06-26T09:01:59Z</time>
      </trkpt>
      <trkpt lat="45.66761" lon="6.01021">
        <ele>1379.6291504</ele>
        <time>2011-06-26T09:02:03Z</time>
      </trkpt>
      <trkpt lat="45.66744" lon="6.00999">
        <ele>1382.0324707</ele>
        <time>2011-06-26T09:02:09Z</time>
      </trkpt>
      <trkpt lat="45.66722" lon="6.00987">
        <ele>1384.435791</ele>
        <time>2011-06-26T09:02:14Z</time>
      </trkpt>
      <trkpt lat="45.66715" lon="6.00986">
        <ele>1384.9165039</ele>
        <time>2011-06-26T09:02:16Z</time>
      </trkpt>
      <trkpt lat="45.66697" lon="6.00983">
        <ele>1386.8388672</ele>
        <time>2011-06-26T09:02:21Z</time>
      </trkpt>
      <trkpt lat="45.66687" lon="6.00982">
        <ele>1386.3583984</ele>
        <time>2011-06-26T09:02:25Z</time>
      </trkpt>
      <trkpt lat="45.66669" lon="6.00964">
        <ele>1387.800293</ele>
        <time>2011-06-26T09:02:30Z</time>
      </trkpt>
      <trkpt lat="45.66651" lon="6.00963">
        <ele>1382.5131836</ele>
        <time>2011-06-26T09:02:34Z</time>
      </trkpt>
      <trkpt lat="45.66647" lon="6.00962">
        <ele>1382.5131836</ele>
        <time>2011-06-26T09:02:35Z</time>
      </trkpt>
      <trkpt lat="45.66641" lon="6.00957">
        <ele>1382.9936523</ele>
        <time>2011-06-26T09:02:37Z</time>
      </trkpt>
      <trkpt lat="45.66618" lon="6.00948">
        <ele>1382.5131836</ele>
        <time>2011-06-26T09:02:45Z</time>
      </trkpt>
      <trkpt lat="45.66599" lon="6.00942">
        <ele>1380.1098633</ele>
        <time>2011-06-26T09:02:51Z</time>
      </trkpt>
      <trkpt lat="45.66586" lon="6.00947">
        <ele>1378.6679688</ele>
        <time>2011-06-26T09:02:56Z</time>
      </trkpt>
      <trkpt lat="45.66568" lon="6.00956">
        <ele>1374.8227539</ele>
        <time>2011-06-26T09:03:01Z</time>
      </trkpt>
      <trkpt lat="45.66556" lon="6.0097">
        <ele>1375.3032227</ele>
        <time>2011-06-26T09:03:07Z</time>
      </trkpt>
      <trkpt lat="45.6654" lon="6.00965">
        <ele>1376.2646484</ele>
        <time>2011-06-26T09:03:12Z</time>
      </trkpt>
      <trkpt lat="45.66526" lon="6.00936">
        <ele>1376.2646484</ele>
        <time>2011-06-26T09:03:18Z</time>
      </trkpt>
      <trkpt lat="45.6652" lon="6.00927">
        <ele>1376.7453613</ele>
        <time>2011-06-26T09:03:20Z</time>
      </trkpt>
      <trkpt lat="45.66506" lon="6.00906">
        <ele>1377.706543</ele>
        <time>2011-06-26T09:03:25Z</time>
      </trkpt>
      <trkpt lat="45.66503" lon="6.00902">
        <ele>1378.1872559</ele>
        <time>2011-06-26T09:03:26Z</time>
      </trkpt>
      <trkpt lat="45.66484" lon="6.00871">
        <ele>1381.0712891</ele>
        <time>2011-06-26T09:03:33Z</time>
      </trkpt>
      <trkpt lat="45.66473" lon="6.00847">
        <ele>1381.5517578</ele>
        <time>2011-06-26T09:03:37Z</time>
      </trkpt>
      <trkpt lat="45.66458" lon="6.00844">
        <ele>1380.5905762</ele>
        <time>2011-06-26T09:03:41Z</time>
      </trkpt>
      <trkpt lat="45.66447" lon="6.00849">
        <ele>1379.1484375</ele>
        <time>2011-06-26T09:03:45Z</time>
      </trkpt>
      <trkpt lat="45.66438" lon="6.00856">
        <ele>1375.7839355</ele>
        <time>2011-06-26T09:03:50Z</time>
      </trkpt>
      <trkpt lat="45.66426" lon="6.00861">
        <ele>1374.8227539</ele>
        <time>2011-06-26T09:03:56Z</time>
      </trkpt>
      <trkpt lat="45.66422" lon="6.00861">
        <ele>1374.342041</ele>
        <time>2011-06-26T09:03:58Z</time>
      </trkpt>
      <trkpt lat="45.6641" lon="6.00852">
        <ele>1376.2646484</ele>
        <time>2011-06-26T09:04:04Z</time>
      </trkpt>
      <trkpt lat="45.66396" lon="6.0083">
        <ele>1380.5905762</ele>
        <time>2011-06-26T09:04:09Z</time>
      </trkpt>
      <trkpt lat="45.66391" lon="6.00809">
        <ele>1380.1098633</ele>
        <time>2011-06-26T09:04:13Z</time>
      </trkpt>
      <trkpt lat="45.66381" lon="6.00782">
        <ele>1381.0712891</ele>
        <time>2011-06-26T09:04:19Z</time>
      </trkpt>
      <trkpt lat="45.66371" lon="6.00761">
        <ele>1382.9936523</ele>
        <time>2011-06-26T09:04:23Z</time>
      </trkpt>
      <trkpt lat="45.66367" lon="6.00756">
        <ele>1382.5131836</ele>
        <time>2011-06-26T09:04:24Z</time>
      </trkpt>
      <trkpt lat="45.66354" lon="6.00734">
        <ele>1381.5517578</ele>
        <time>2011-06-26T09:04:28Z</time>
      </trkpt>
      <trkpt lat="45.66342" lon="6.00717">
        <ele>1380.1098633</ele>
        <time>2011-06-26T09:04:32Z</time>
      </trkpt>
      <trkpt lat="45.66318" lon="6.00679">
        <ele>1377.706543</ele>
        <time>2011-06-26T09:04:38Z</time>
      </trkpt>
      <trkpt lat="45.66315" lon="6.00671">
        <ele>1377.2260742</ele>
        <time>2011-06-26T09:04:39Z</time>
      </trkpt>
      <trkpt lat="45.66309" lon="6.00637">
        <ele>1374.8227539</ele>
        <time>2011-06-26T09:04:43Z</time>
      </trkpt>
      <trkpt lat="45.66307" lon="6.00623">
        <ele>1374.342041</ele>
        <time>2011-06-26T09:04:45Z</time>
      </trkpt>
      <trkpt lat="45.66298" lon="6.00597">
        <ele>1373.8613281</ele>
        <time>2011-06-26T09:04:50Z</time>
      </trkpt>
      <trkpt lat="45.66294" lon="6.00577">
        <ele>1373.3808594</ele>
        <time>2011-06-26T09:04:53Z</time>
      </trkpt>
      <trkpt lat="45.66293" lon="6.00551">
        <ele>1371.4577637</ele>
        <time>2011-06-26T09:04:58Z</time>
      </trkpt>
      <trkpt lat="45.66285" lon="6.00524">
        <ele>1374.342041</ele>
        <time>2011-06-26T09:05:03Z</time>
      </trkpt>
      <trkpt lat="45.66285" lon="6.00518">
        <ele>1376.2646484</ele>
        <time>2011-06-26T09:05:04Z</time>
      </trkpt>
      <trkpt lat="45.66277" lon="6.00486">
        <ele>1377.2260742</ele>
        <time>2011-06-26T09:05:09Z</time>
      </trkpt>
      <trkpt lat="45.66258" lon="6.00474">
        <ele>1373.3808594</ele>
        <time>2011-06-26T09:05:15Z</time>
      </trkpt>
      <trkpt lat="45.66244" lon="6.00466">
        <ele>1371.4577637</ele>
        <time>2011-06-26T09:05:19Z</time>
      </trkpt>
      <trkpt lat="45.66242" lon="6.0046">
        <ele>1371.4577637</ele>
        <time>2011-06-26T09:05:20Z</time>
      </trkpt>
      <trkpt lat="45.66221" lon="6.00421">
        <ele>1370.0158691</ele>
        <time>2011-06-26T09:05:26Z</time>
      </trkpt>
      <trkpt lat="45.66192" lon="6.00394">
        <ele>1367.1320801</ele>
        <time>2011-06-26T09:05:33Z</time>
      </trkpt>
      <trkpt lat="45.66183" lon="6.00387">
        <ele>1367.6125488</ele>
        <time>2011-06-26T09:05:35Z</time>
      </trkpt>
      <trkpt lat="45.66158" lon="6.00387">
        <ele>1364.7287598</ele>
        <time>2011-06-26T09:05:39Z</time>
      </trkpt>
      <trkpt lat="45.66147" lon="6.00395">
        <ele>1363.2868652</ele>
        <time>2011-06-26T09:05:41Z</time>
      </trkpt>
      <trkpt lat="45.66126" lon="6.00405">
        <ele>1362.8061523</ele>
        <time>2011-06-26T09:05:45Z</time>
      </trkpt>
      <trkpt lat="45.66099" lon="6.00405">
        <ele>1365.6901855</ele>
        <time>2011-06-26T09:05:51Z</time>
      </trkpt>
      <trkpt lat="45.66094" lon="6.00406">
        <ele>1366.1706543</ele>
        <time>2011-06-26T09:05:53Z</time>
      </trkpt>
      <trkpt lat="45.66074" lon="6.00421">
        <ele>1366.1706543</ele>
        <time>2011-06-26T09:05:59Z</time>
      </trkpt>
      <trkpt lat="45.66057" lon="6.00442">
        <ele>1364.2480469</ele>
        <time>2011-06-26T09:06:04Z</time>
      </trkpt>
      <trkpt lat="45.66042" lon="6.00458">
        <ele>1360.8835449</ele>
        <time>2011-06-26T09:06:09Z</time>
      </trkpt>
      <trkpt lat="45.66034" lon="6.00467">
        <ele>1359.9221191</ele>
        <time>2011-06-26T09:06:12Z</time>
      </trkpt>
      <trkpt lat="45.66022" lon="6.00465">
        <ele>1362.8061523</ele>
        <time>2011-06-26T09:06:16Z</time>
      </trkpt>
      <trkpt lat="45.66005" lon="6.00447">
        <ele>1363.2868652</ele>
        <time>2011-06-26T09:06:21Z</time>
      </trkpt>
      <trkpt lat="45.65982" lon="6.00411">
        <ele>1370.496582</ele>
        <time>2011-06-26T09:06:29Z</time>
      </trkpt>
      <trkpt lat="45.65969" lon="6.00396">
        <ele>1373.3808594</ele>
        <time>2011-06-26T09:06:33Z</time>
      </trkpt>
      <trkpt lat="45.65953" lon="6.00376">
        <ele>1377.2260742</ele>
        <time>2011-06-26T09:06:38Z</time>
      </trkpt>
      <trkpt lat="45.65949" lon="6.00371">
        <ele>1378.1872559</ele>
        <time>2011-06-26T09:06:39Z</time>
      </trkpt>
      <trkpt lat="45.65932" lon="6.00333">
        <ele>1379.1484375</ele>
        <time>2011-06-26T09:06:44Z</time>
      </trkpt>
      <trkpt lat="45.65928" lon="6.00325">
        <ele>1378.6679688</ele>
        <time>2011-06-26T09:06:45Z</time>
      </trkpt>
      <trkpt lat="45.6591" lon="6.00296">
        <ele>1376.7453613</ele>
        <time>2011-06-26T09:06:50Z</time>
      </trkpt>
      <trkpt lat="45.659" lon="6.00287">
        <ele>1376.2646484</ele>
        <time>2011-06-26T09:06:52Z</time>
      </trkpt>
      <trkpt lat="45.65879" lon="6.00257">
        <ele>1375.3032227</ele>
        <time>2011-06-26T09:06:57Z</time>
      </trkpt>
      <trkpt lat="45.65869" lon="6.00249">
        <ele>1374.342041</ele>
        <time>2011-06-26T09:06:59Z</time>
      </trkpt>
      <trkpt lat="45.65844" lon="6.00236">
        <ele>1370.0158691</ele>
        <time>2011-06-26T09:07:03Z</time>
      </trkpt>
      <trkpt lat="45.65818" lon="6.00212">
        <ele>1369.0546875</ele>
        <time>2011-06-26T09:07:08Z</time>
      </trkpt>
      <trkpt lat="45.65798" lon="6.00174">
        <ele>1369.0546875</ele>
        <time>2011-06-26T09:07:14Z</time>
      </trkpt>
      <trkpt lat="45.65767" lon="6.00137">
        <ele>1368.5739746</ele>
        <time>2011-06-26T09:07:21Z</time>
      </trkpt>
      <trkpt lat="45.65747" lon="6.00091">
        <ele>1363.2868652</ele>
        <time>2011-06-26T09:07:26Z</time>
      </trkpt>
      <trkpt lat="45.6573" lon="6.00036">
        <ele>1358.9609375</ele>
        <time>2011-06-26T09:07:31Z</time>
      </trkpt>
      <trkpt lat="45.65723" lon="6.00015">
        <ele>1357.519043</ele>
        <time>2011-06-26T09:07:33Z</time>
      </trkpt>
      <trkpt lat="45.65716" lon="6">
        <ele>1357.0383301</ele>
        <time>2011-06-26T09:07:35Z</time>
      </trkpt>
      <trkpt lat="45.65713" lon="5.99985">
        <ele>1354.6347656</ele>
        <time>2011-06-26T09:07:39Z</time>
      </trkpt>
      <trkpt lat="45.6572" lon="5.99988">
        <ele>1353.1928711</ele>
        <time>2011-06-26T09:07:42Z</time>
      </trkpt>
      <trkpt lat="45.65737" lon="6.00013">
        <ele>1350.7895508</ele>
        <time>2011-06-26T09:07:48Z</time>
      </trkpt>
      <trkpt lat="45.65757" lon="6.00041">
        <ele>1351.2702637</ele>
        <time>2011-06-26T09:07:54Z</time>
      </trkpt>
      <trkpt lat="45.65781" lon="6.00078">
        <ele>1352.2314453</ele>
        <time>2011-06-26T09:08:02Z</time>
      </trkpt>
      <trkpt lat="45.65794" lon="6.00098">
        <ele>1353.1928711</ele>
        <time>2011-06-26T09:08:07Z</time>
      </trkpt>
      <trkpt lat="45.65816" lon="6.00119">
        <ele>1353.673584</ele>
        <time>2011-06-26T09:08:14Z</time>
      </trkpt>
      <trkpt lat="45.65833" lon="6.00125">
        <ele>1354.1542969</ele>
        <time>2011-06-26T09:08:19Z</time>
      </trkpt>
      <trkpt lat="45.65844" lon="6.0011">
        <ele>1353.1928711</ele>
        <time>2011-06-26T09:08:23Z</time>
      </trkpt>
      <trkpt lat="45.65859" lon="6.00086">
        <ele>1351.2702637</ele>
        <time>2011-06-26T09:08:29Z</time>
      </trkpt>
      <trkpt lat="45.65873" lon="6.00069">
        <ele>1351.7509766</ele>
        <time>2011-06-26T09:08:35Z</time>
      </trkpt>
      <trkpt lat="45.65884" lon="6.00071">
        <ele>1353.1928711</ele>
        <time>2011-06-26T09:08:39Z</time>
      </trkpt>
      <trkpt lat="45.65896" lon="6.00091">
        <ele>1355.5961914</ele>
        <time>2011-06-26T09:08:44Z</time>
      </trkpt>
      <trkpt lat="45.65909" lon="6.00098">
        <ele>1357.0383301</ele>
        <time>2011-06-26T09:08:49Z</time>
      </trkpt>
      <trkpt lat="45.65918" lon="6.00101">
        <ele>1356.5576172</ele>
        <time>2011-06-26T09:08:53Z</time>
      </trkpt>
      <trkpt lat="45.65932" lon="6.00105">
        <ele>1357.519043</ele>
        <time>2011-06-26T09:08:58Z</time>
      </trkpt>
      <trkpt lat="45.65948" lon="6.00113">
        <ele>1359.9221191</ele>
        <time>2011-06-26T09:09:03Z</time>
      </trkpt>
      <trkpt lat="45.65964" lon="6.00117">
        <ele>1361.3642578</ele>
        <time>2011-06-26T09:09:08Z</time>
      </trkpt>
      <trkpt lat="45.65979" lon="6.00121">
        <ele>1366.6513672</ele>
        <time>2011-06-26T09:09:13Z</time>
      </trkpt>
      <trkpt lat="45.65991" lon="6.00126">
        <ele>1373.8613281</ele>
        <time>2011-06-26T09:09:18Z</time>
      </trkpt>
      <trkpt lat="45.66003" lon="6.00139">
        <ele>1373.8613281</ele>
        <time>2011-06-26T09:09:23Z</time>
      </trkpt>
      <trkpt lat="45.66017" lon="6.00143">
        <ele>1373.3808594</ele>
        <time>2011-06-26T09:09:26Z</time>
      </trkpt>
      <trkpt lat="45.66037" lon="6.00146">
        <ele>1375.7839355</ele>
        <time>2011-06-26T09:09:31Z</time>
      </trkpt>
      <trkpt lat="45.66041" lon="6.00147">
        <ele>1374.8227539</ele>
        <time>2011-06-26T09:09:32Z</time>
      </trkpt>
      <trkpt lat="45.66062" lon="6.00164">
        <ele>1371.4577637</ele>
        <time>2011-06-26T09:09:38Z</time>
      </trkpt>
      <trkpt lat="45.66063" lon="6.00169">
        <ele>1370.9772949</ele>
        <time>2011-06-26T09:09:39Z</time>
      </trkpt>
      <trkpt lat="45.66067" lon="6.00195">
        <ele>1366.6513672</ele>
        <time>2011-06-26T09:09:44Z</time>
      </trkpt>
      <trkpt lat="45.66069" lon="6.00201">
        <ele>1365.6901855</ele>
        <time>2011-06-26T09:09:45Z</time>
      </trkpt>
      <trkpt lat="45.66084" lon="6.00226">
        <ele>1364.2480469</ele>
        <time>2011-06-26T09:09:49Z</time>
      </trkpt>
      <trkpt lat="45.66096" lon="6.00224">
        <ele>1364.2480469</ele>
        <time>2011-06-26T09:09:52Z</time>
      </trkpt>
      <trkpt lat="45.66108" lon="6.00211">
        <ele>1365.2094727</ele>
        <time>2011-06-26T09:09:57Z</time>
      </trkpt>
      <trkpt lat="45.66112" lon="6.00191">
        <ele>1366.1706543</ele>
        <time>2011-06-26T09:10:04Z</time>
      </trkpt>
      <trkpt lat="45.66115" lon="6.00171">
        <ele>1363.767334</ele>
        <time>2011-06-26T09:10:09Z</time>
      </trkpt>
      <trkpt lat="45.66118" lon="6.00148">
        <ele>1365.2094727</ele>
        <time>2011-06-26T09:10:13Z</time>
      </trkpt>
      <trkpt lat="45.66119" lon="6.0012">
        <ele>1366.1706543</ele>
        <time>2011-06-26T09:10:18Z</time>
      </trkpt>
      <trkpt lat="45.66123" lon="6.00097">
        <ele>1369.0546875</ele>
        <time>2011-06-26T09:10:22Z</time>
      </trkpt>
      <trkpt lat="45.66133" lon="6.00077">
        <ele>1369.0546875</ele>
        <time>2011-06-26T09:10:27Z</time>
      </trkpt>
      <trkpt lat="45.66134" lon="6.00061">
        <ele>1374.342041</ele>
        <time>2011-06-26T09:10:31Z</time>
      </trkpt>
      <trkpt lat="45.66135" lon="6.0003">
        <ele>1381.5517578</ele>
        <time>2011-06-26T09:10:37Z</time>
      </trkpt>
      <trkpt lat="45.66131" lon="6.00007">
        <ele>1385.8776855</ele>
        <time>2011-06-26T09:10:41Z</time>
      </trkpt>
      <trkpt lat="45.6613" lon="5.99988">
        <ele>1382.5131836</ele>
        <time>2011-06-26T09:10:44Z</time>
      </trkpt>
      <trkpt lat="45.66122" lon="5.99962">
        <ele>1386.3583984</ele>
        <time>2011-06-26T09:10:48Z</time>
      </trkpt>
      <trkpt lat="45.66105" lon="5.99916">
        <ele>1386.8388672</ele>
        <time>2011-06-26T09:10:52Z</time>
      </trkpt>
      <trkpt lat="45.66096" lon="5.99879">
        <ele>1384.9165039</ele>
        <time>2011-06-26T09:10:56Z</time>
      </trkpt>
      <trkpt lat="45.6609" lon="5.99856">
        <ele>1383.9550781</ele>
        <time>2011-06-26T09:11:00Z</time>
      </trkpt>
      <trkpt lat="45.66086" lon="5.99847">
        <ele>1379.6291504</ele>
        <time>2011-06-26T09:11:02Z</time>
      </trkpt>
      <trkpt lat="45.66081" lon="5.99813">
        <ele>1373.8613281</ele>
        <time>2011-06-26T09:11:07Z</time>
      </trkpt>
      <trkpt lat="45.66077" lon="5.99772">
        <ele>1367.6125488</ele>
        <time>2011-06-26T09:11:12Z</time>
      </trkpt>
      <trkpt lat="45.66075" lon="5.99763">
        <ele>1366.6513672</ele>
        <time>2011-06-26T09:11:13Z</time>
      </trkpt>
      <trkpt lat="45.66065" lon="5.99716">
        <ele>1364.7287598</ele>
        <time>2011-06-26T09:11:18Z</time>
      </trkpt>
      <trkpt lat="45.66058" lon="5.99683">
        <ele>1365.2094727</ele>
        <time>2011-06-26T09:11:22Z</time>
      </trkpt>
      <trkpt lat="45.66054" lon="5.99669">
        <ele>1363.2868652</ele>
        <time>2011-06-26T09:11:24Z</time>
      </trkpt>
      <trkpt lat="45.66058" lon="5.99645">
        <ele>1359.9221191</ele>
        <time>2011-06-26T09:11:28Z</time>
      </trkpt>
      <trkpt lat="45.66068" lon="5.99652">
        <ele>1357.9997559</ele>
        <time>2011-06-26T09:11:31Z</time>
      </trkpt>
      <trkpt lat="45.66081" lon="5.99664">
        <ele>1356.5576172</ele>
        <time>2011-06-26T09:11:35Z</time>
      </trkpt>
      <trkpt lat="45.66093" lon="5.99671">
        <ele>1356.5576172</ele>
        <time>2011-06-26T09:11:38Z</time>
      </trkpt>
      <trkpt lat="45.66107" lon="5.99669">
        <ele>1358.4802246</ele>
        <time>2011-06-26T09:11:43Z</time>
      </trkpt>
      <trkpt lat="45.66125" lon="5.99667">
        <ele>1358.4802246</ele>
        <time>2011-06-26T09:11:47Z</time>
      </trkpt>
      <trkpt lat="45.66141" lon="5.99666">
        <ele>1360.402832</ele>
        <time>2011-06-26T09:11:52Z</time>
      </trkpt>
      <trkpt lat="45.66153" lon="5.99666">
        <ele>1362.8061523</ele>
        <time>2011-06-26T09:11:56Z</time>
      </trkpt>
      <trkpt lat="45.6617" lon="5.99657">
        <ele>1367.6125488</ele>
        <time>2011-06-26T09:12:03Z</time>
      </trkpt>
      <trkpt lat="45.66184" lon="5.9967">
        <ele>1370.496582</ele>
        <time>2011-06-26T09:12:09Z</time>
      </trkpt>
      <trkpt lat="45.66185" lon="5.99675">
        <ele>1370.496582</ele>
        <time>2011-06-26T09:12:10Z</time>
      </trkpt>
      <trkpt lat="45.66195" lon="5.99702">
        <ele>1370.9772949</ele>
        <time>2011-06-26T09:12:16Z</time>
      </trkpt>
      <trkpt lat="45.66216" lon="5.99717">
        <ele>1371.9384766</ele>
        <time>2011-06-26T09:12:23Z</time>
      </trkpt>
      <trkpt lat="45.66229" lon="5.9972">
        <ele>1372.9001465</ele>
        <time>2011-06-26T09:12:28Z</time>
      </trkpt>
      <trkpt lat="45.66246" lon="5.99726">
        <ele>1372.4194336</ele>
        <time>2011-06-26T09:12:34Z</time>
      </trkpt>
      <trkpt lat="45.66263" lon="5.99747">
        <ele>1370.0158691</ele>
        <time>2011-06-26T09:12:40Z</time>
      </trkpt>
      <trkpt lat="45.66278" lon="5.99763">
        <ele>1369.0546875</ele>
        <time>2011-06-26T09:12:45Z</time>
      </trkpt>
      <trkpt lat="45.66289" lon="5.99757">
        <ele>1367.6125488</ele>
        <time>2011-06-26T09:12:49Z</time>
      </trkpt>
      <trkpt lat="45.66306" lon="5.99746">
        <ele>1367.6125488</ele>
        <time>2011-06-26T09:12:54Z</time>
      </trkpt>
      <trkpt lat="45.66313" lon="5.99739">
        <ele>1368.5739746</ele>
        <time>2011-06-26T09:12:57Z</time>
      </trkpt>
      <trkpt lat="45.66321" lon="5.99725">
        <ele>1367.1320801</ele>
        <time>2011-06-26T09:13:02Z</time>
      </trkpt>
      <trkpt lat="45.66329" lon="5.99714">
        <ele>1367.6125488</ele>
        <time>2011-06-26T09:13:06Z</time>
      </trkpt>
      <trkpt lat="45.66334" lon="5.99704">
        <ele>1369.0546875</ele>
        <time>2011-06-26T09:13:10Z</time>
      </trkpt>
      <trkpt lat="45.6634" lon="5.99693">
        <ele>1370.496582</ele>
        <time>2011-06-26T09:13:15Z</time>
      </trkpt>
      <trkpt lat="45.6634" lon="5.99685">
        <ele>1370.496582</ele>
        <time>2011-06-26T09:13:17Z</time>
      </trkpt>
      <trkpt lat="45.66334" lon="5.99666">
        <ele>1374.342041</ele>
        <time>2011-06-26T09:13:22Z</time>
      </trkpt>
      <trkpt lat="45.66329" lon="5.99659">
        <ele>1374.342041</ele>
        <time>2011-06-26T09:13:24Z</time>
      </trkpt>
      <trkpt lat="45.66323" lon="5.99653">
        <ele>1375.7839355</ele>
        <time>2011-06-26T09:13:26Z</time>
      </trkpt>
      <trkpt lat="45.66312" lon="5.99638">
        <ele>1377.706543</ele>
        <time>2011-06-26T09:13:31Z</time>
      </trkpt>
      <trkpt lat="45.66303" lon="5.99632">
        <ele>1379.1484375</ele>
        <time>2011-06-26T09:13:34Z</time>
      </trkpt>
      <trkpt lat="45.66298" lon="5.99626">
        <ele>1381.0712891</ele>
        <time>2011-06-26T09:13:37Z</time>
      </trkpt>
      <trkpt lat="45.66282" lon="5.99618">
        <ele>1382.0324707</ele>
        <time>2011-06-26T09:13:43Z</time>
      </trkpt>
      <trkpt lat="45.66279" lon="5.99612">
        <ele>1383.9550781</ele>
        <time>2011-06-26T09:13:45Z</time>
      </trkpt>
      <trkpt lat="45.66274" lon="5.99592">
        <ele>1384.435791</ele>
        <time>2011-06-26T09:13:51Z</time>
      </trkpt>
      <trkpt lat="45.66266" lon="5.99579">
        <ele>1383.9550781</ele>
        <time>2011-06-26T09:13:56Z</time>
      </trkpt>
      <trkpt lat="45.66263" lon="5.99568">
        <ele>1383.4743652</ele>
        <time>2011-06-26T09:14:00Z</time>
      </trkpt>
      <trkpt lat="45.66263" lon="5.99561">
        <ele>1383.4743652</ele>
        <time>2011-06-26T09:14:02Z</time>
      </trkpt>
      <trkpt lat="45.66264" lon="5.99549">
        <ele>1383.9550781</ele>
        <time>2011-06-26T09:14:05Z</time>
      </trkpt>
      <trkpt lat="45.66268" lon="5.99519">
        <ele>1378.6679688</ele>
        <time>2011-06-26T09:14:11Z</time>
      </trkpt>
      <trkpt lat="45.66271" lon="5.99505">
        <ele>1376.2646484</ele>
        <time>2011-06-26T09:14:15Z</time>
      </trkpt>
      <trkpt lat="45.66269" lon="5.99497">
        <ele>1375.3032227</ele>
        <time>2011-06-26T09:14:19Z</time>
      </trkpt>
      <trkpt lat="45.6626" lon="5.99485">
        <ele>1375.3032227</ele>
        <time>2011-06-26T09:14:24Z</time>
      </trkpt>
      <trkpt lat="45.66254" lon="5.99485">
        <ele>1374.342041</ele>
        <time>2011-06-26T09:14:26Z</time>
      </trkpt>
      <trkpt lat="45.66249" lon="5.99484">
        <ele>1373.3808594</ele>
        <time>2011-06-26T09:14:28Z</time>
      </trkpt>
      <trkpt lat="45.66234" lon="5.99467">
        <ele>1373.8613281</ele>
        <time>2011-06-26T09:14:35Z</time>
      </trkpt>
      <trkpt lat="45.66229" lon="5.99456">
        <ele>1373.8613281</ele>
        <time>2011-06-26T09:14:38Z</time>
      </trkpt>
      <trkpt lat="45.66229" lon="5.99432">
        <ele>1368.0932617</ele>
        <time>2011-06-26T09:14:44Z</time>
      </trkpt>
      <trkpt lat="45.66226" lon="5.99412">
        <ele>1365.6901855</ele>
        <time>2011-06-26T09:14:49Z</time>
      </trkpt>
      <trkpt lat="45.66221" lon="5.99399">
        <ele>1363.767334</ele>
        <time>2011-06-26T09:14:52Z</time>
      </trkpt>
      <trkpt lat="45.66207" lon="5.99385">
        <ele>1362.8061523</ele>
        <time>2011-06-26T09:14:57Z</time>
      </trkpt>
      <trkpt lat="45.66198" lon="5.99377">
        <ele>1361.8449707</ele>
        <time>2011-06-26T09:15:01Z</time>
      </trkpt>
      <trkpt lat="45.66196" lon="5.99376">
        <ele>1361.3642578</ele>
        <time>2011-06-26T09:15:02Z</time>
      </trkpt>
      <trkpt lat="45.66189" lon="5.99375">
        <ele>1361.3642578</ele>
        <time>2011-06-26T09:15:07Z</time>
      </trkpt>
      <trkpt lat="45.66175" lon="5.99367">
        <ele>1362.8061523</ele>
        <time>2011-06-26T09:15:12Z</time>
      </trkpt>
      <trkpt lat="45.66161" lon="5.99357">
        <ele>1361.8449707</ele>
        <time>2011-06-26T09:15:17Z</time>
      </trkpt>
      <trkpt lat="45.66147" lon="5.99338">
        <ele>1364.2480469</ele>
        <time>2011-06-26T09:15:23Z</time>
      </trkpt>
      <trkpt lat="45.66141" lon="5.9932">
        <ele>1363.767334</ele>
        <time>2011-06-26T09:15:28Z</time>
      </trkpt>
      <trkpt lat="45.66133" lon="5.99306">
        <ele>1365.2094727</ele>
        <time>2011-06-26T09:15:33Z</time>
      </trkpt>
      <trkpt lat="45.66114" lon="5.99292">
        <ele>1366.1706543</ele>
        <time>2011-06-26T09:15:39Z</time>
      </trkpt>
      <trkpt lat="45.66094" lon="5.99284">
        <ele>1366.1706543</ele>
        <time>2011-06-26T09:15:45Z</time>
      </trkpt>
      <trkpt lat="45.66074" lon="5.99278">
        <ele>1364.7287598</ele>
        <time>2011-06-26T09:15:50Z</time>
      </trkpt>
      <trkpt lat="45.66058" lon="5.99274">
        <ele>1364.7287598</ele>
        <time>2011-06-26T09:15:55Z</time>
      </trkpt>
      <trkpt lat="45.66055" lon="5.99274">
        <ele>1365.2094727</ele>
        <time>2011-06-26T09:15:56Z</time>
      </trkpt>
      <trkpt lat="45.66052" lon="5.99276">
        <ele>1365.2094727</ele>
        <time>2011-06-26T09:15:58Z</time>
      </trkpt>
      <trkpt lat="45.66045" lon="5.99277">
        <ele>1363.767334</ele>
        <time>2011-06-26T09:16:03Z</time>
      </trkpt>
      <trkpt lat="45.66038" lon="5.99276">
        <ele>1362.8061523</ele>
        <time>2011-06-26T09:16:06Z</time>
      </trkpt>
      <trkpt lat="45.66022" lon="5.99277">
        <ele>1360.8835449</ele>
        <time>2011-06-26T09:16:11Z</time>
      </trkpt>
      <trkpt lat="45.66015" lon="5.99271">
        <ele>1360.8835449</ele>
        <time>2011-06-26T09:16:13Z</time>
      </trkpt>
      <trkpt lat="45.65994" lon="5.99256">
        <ele>1358.4802246</ele>
        <time>2011-06-26T09:16:18Z</time>
      </trkpt>
      <trkpt lat="45.65977" lon="5.99258">
        <ele>1359.4416504</ele>
        <time>2011-06-26T09:16:22Z</time>
      </trkpt>
      <trkpt lat="45.65959" lon="5.99257">
        <ele>1357.519043</ele>
        <time>2011-06-26T09:16:27Z</time>
      </trkpt>
      <trkpt lat="45.65944" lon="5.99253">
        <ele>1359.9221191</ele>
        <time>2011-06-26T09:16:32Z</time>
      </trkpt>
      <trkpt lat="45.65941" lon="5.99251">
        <ele>1360.402832</ele>
        <time>2011-06-26T09:16:33Z</time>
      </trkpt>
      <trkpt lat="45.65922" lon="5.99237">
        <ele>1361.3642578</ele>
        <time>2011-06-26T09:16:40Z</time>
      </trkpt>
      <trkpt lat="45.6591" lon="5.99223">
        <ele>1360.402832</ele>
        <time>2011-06-26T09:16:45Z</time>
      </trkpt>
      <trkpt lat="45.65895" lon="5.99207">
        <ele>1360.8835449</ele>
        <time>2011-06-26T09:16:51Z</time>
      </trkpt>
      <trkpt lat="45.65881" lon="5.9919">
        <ele>1360.8835449</ele>
        <time>2011-06-26T09:16:57Z</time>
      </trkpt>
      <trkpt lat="45.65868" lon="5.99163">
        <ele>1361.8449707</ele>
        <time>2011-06-26T09:17:03Z</time>
      </trkpt>
      <trkpt lat="45.6586" lon="5.99141">
        <ele>1364.7287598</ele>
        <time>2011-06-26T09:17:08Z</time>
      </trkpt>
      <trkpt lat="45.6585" lon="5.9911">
        <ele>1365.6901855</ele>
        <time>2011-06-26T09:17:14Z</time>
      </trkpt>
      <trkpt lat="45.65843" lon="5.99073">
        <ele>1366.1706543</ele>
        <time>2011-06-26T09:17:19Z</time>
      </trkpt>
      <trkpt lat="45.65836" lon="5.99052">
        <ele>1367.1320801</ele>
        <time>2011-06-26T09:17:23Z</time>
      </trkpt>
      <trkpt lat="45.65827" lon="5.99042">
        <ele>1369.0546875</ele>
        <time>2011-06-26T09:17:26Z</time>
      </trkpt>
      <trkpt lat="45.65818" lon="5.99018">
        <ele>1368.5739746</ele>
        <time>2011-06-26T09:17:31Z</time>
      </trkpt>
      <trkpt lat="45.65817" lon="5.98997">
        <ele>1367.1320801</ele>
        <time>2011-06-26T09:17:35Z</time>
      </trkpt>
      <trkpt lat="45.65812" lon="5.98959">
        <ele>1370.496582</ele>
        <time>2011-06-26T09:17:41Z</time>
      </trkpt>
      <trkpt lat="45.65807" lon="5.98939">
        <ele>1370.496582</ele>
        <time>2011-06-26T09:17:44Z</time>
      </trkpt>
      <trkpt lat="45.65799" lon="5.98904">
        <ele>1371.4577637</ele>
        <time>2011-06-26T09:17:50Z</time>
      </trkpt>
      <trkpt lat="45.6579" lon="5.98862">
        <ele>1368.5739746</ele>
        <time>2011-06-26T09:17:55Z</time>
      </trkpt>
      <trkpt lat="45.65786" lon="5.98817">
        <ele>1365.2094727</ele>
        <time>2011-06-26T09:17:59Z</time>
      </trkpt>
      <trkpt lat="45.65785" lon="5.98766">
        <ele>1364.2480469</ele>
        <time>2011-06-26T09:18:04Z</time>
      </trkpt>
      <trkpt lat="45.65782" lon="5.98748">
        <ele>1363.767334</ele>
        <time>2011-06-26T09:18:06Z</time>
      </trkpt>
      <trkpt lat="45.65778" lon="5.98718">
        <ele>1362.8061523</ele>
        <time>2011-06-26T09:18:09Z</time>
      </trkpt>
      <trkpt lat="45.65772" lon="5.98666">
        <ele>1359.9221191</ele>
        <time>2011-06-26T09:18:15Z</time>
      </trkpt>
      <trkpt lat="45.65768" lon="5.98647">
        <ele>1359.9221191</ele>
        <time>2011-06-26T09:18:17Z</time>
      </trkpt>
      <trkpt lat="45.65769" lon="5.9861">
        <ele>1361.8449707</ele>
        <time>2011-06-26T09:18:21Z</time>
      </trkpt>
      <trkpt lat="45.65765" lon="5.98567">
        <ele>1364.2480469</ele>
        <time>2011-06-26T09:18:26Z</time>
      </trkpt>
      <trkpt lat="45.65761" lon="5.98555">
        <ele>1365.2094727</ele>
        <time>2011-06-26T09:18:28Z</time>
      </trkpt>
      <trkpt lat="45.65749" lon="5.98536">
        <ele>1368.5739746</ele>
        <time>2011-06-26T09:18:33Z</time>
      </trkpt>
      <trkpt lat="45.65744" lon="5.98528">
        <ele>1370.9772949</ele>
        <time>2011-06-26T09:18:35Z</time>
      </trkpt>
      <trkpt lat="45.65732" lon="5.98497">
        <ele>1373.3808594</ele>
        <time>2011-06-26T09:18:41Z</time>
      </trkpt>
      <trkpt lat="45.65731" lon="5.98491">
        <ele>1372.9001465</ele>
        <time>2011-06-26T09:18:42Z</time>
      </trkpt>
      <trkpt lat="45.65729" lon="5.98448">
        <ele>1374.342041</ele>
        <time>2011-06-26T09:18:49Z</time>
      </trkpt>
      <trkpt lat="45.65727" lon="5.98413">
        <ele>1379.6291504</ele>
        <time>2011-06-26T09:18:54Z</time>
      </trkpt>
      <trkpt lat="45.65725" lon="5.98392">
        <ele>1379.1484375</ele>
        <time>2011-06-26T09:18:57Z</time>
      </trkpt>
      <trkpt lat="45.65723" lon="5.98373">
        <ele>1382.9936523</ele>
        <time>2011-06-26T09:19:00Z</time>
      </trkpt>
      <trkpt lat="45.65723" lon="5.98341">
        <ele>1387.800293</ele>
        <time>2011-06-26T09:19:05Z</time>
      </trkpt>
      <trkpt lat="45.65719" lon="5.98297">
        <ele>1383.9550781</ele>
        <time>2011-06-26T09:19:11Z</time>
      </trkpt>
      <trkpt lat="45.65718" lon="5.98265">
        <ele>1385.3969727</ele>
        <time>2011-06-26T09:19:15Z</time>
      </trkpt>
      <trkpt lat="45.65721" lon="5.98239">
        <ele>1381.5517578</ele>
        <time>2011-06-26T09:19:19Z</time>
      </trkpt>
      <trkpt lat="45.65722" lon="5.98222">
        <ele>1381.5517578</ele>
        <time>2011-06-26T09:19:22Z</time>
      </trkpt>
      <trkpt lat="45.65719" lon="5.98191">
        <ele>1382.0324707</ele>
        <time>2011-06-26T09:19:28Z</time>
      </trkpt>
      <trkpt lat="45.65707" lon="5.98176">
        <ele>1381.5517578</ele>
        <time>2011-06-26T09:19:32Z</time>
      </trkpt>
      <trkpt lat="45.65703" lon="5.98174">
        <ele>1381.0712891</ele>
        <time>2011-06-26T09:19:33Z</time>
      </trkpt>
      <trkpt lat="45.65684" lon="5.98165">
        <ele>1379.1484375</ele>
        <time>2011-06-26T09:19:38Z</time>
      </trkpt>
      <trkpt lat="45.65673" lon="5.98151">
        <ele>1380.1098633</ele>
        <time>2011-06-26T09:19:42Z</time>
      </trkpt>
      <trkpt lat="45.65679" lon="5.98147">
        <ele>1379.6291504</ele>
        <time>2011-06-26T09:19:44Z</time>
      </trkpt>
      <trkpt lat="45.65682" lon="5.98146">
        <ele>1379.6291504</ele>
        <time>2011-06-26T09:19:45Z</time>
      </trkpt>
      <trkpt lat="45.65702" lon="5.98133">
        <ele>1379.6291504</ele>
        <time>2011-06-26T09:19:51Z</time>
      </trkpt>
      <trkpt lat="45.65711" lon="5.98122">
        <ele>1380.1098633</ele>
        <time>2011-06-26T09:19:55Z</time>
      </trkpt>
      <trkpt lat="45.65726" lon="5.98107">
        <ele>1382.5131836</ele>
        <time>2011-06-26T09:20:00Z</time>
      </trkpt>
      <trkpt lat="45.65741" lon="5.98092">
        <ele>1383.4743652</ele>
        <time>2011-06-26T09:20:05Z</time>
      </trkpt>
      <trkpt lat="45.6576" lon="5.98082">
        <ele>1384.435791</ele>
        <time>2011-06-26T09:20:10Z</time>
      </trkpt>
      <trkpt lat="45.65766" lon="5.98081">
        <ele>1385.3969727</ele>
        <time>2011-06-26T09:20:11Z</time>
      </trkpt>
      <trkpt lat="45.65787" lon="5.98065">
        <ele>1386.8388672</ele>
        <time>2011-06-26T09:20:16Z</time>
      </trkpt>
      <trkpt lat="45.65796" lon="5.98051">
        <ele>1391.645752</ele>
        <time>2011-06-26T09:20:20Z</time>
      </trkpt>
      <trkpt lat="45.65798" lon="5.98048">
        <ele>1393.5683594</ele>
        <time>2011-06-26T09:20:21Z</time>
      </trkpt>
      <trkpt lat="45.6581" lon="5.98034">
        <ele>1391.645752</ele>
        <time>2011-06-26T09:20:27Z</time>
      </trkpt>
      <trkpt lat="45.65826" lon="5.98027">
        <ele>1390.2038574</ele>
        <time>2011-06-26T09:20:32Z</time>
      </trkpt>
      <trkpt lat="45.65836" lon="5.98029">
        <ele>1391.1650391</ele>
        <time>2011-06-26T09:20:36Z</time>
      </trkpt>
      <trkpt lat="45.65854" lon="5.98036">
        <ele>1389.7231445</ele>
        <time>2011-06-26T09:20:42Z</time>
      </trkpt>
      <trkpt lat="45.6588" lon="5.98043">
        <ele>1391.645752</ele>
        <time>2011-06-26T09:20:48Z</time>
      </trkpt>
      <trkpt lat="45.65884" lon="5.98045">
        <ele>1391.1650391</ele>
        <time>2011-06-26T09:20:49Z</time>
      </trkpt>
      <trkpt lat="45.65896" lon="5.98056">
        <ele>1391.1650391</ele>
        <time>2011-06-26T09:20:52Z</time>
      </trkpt>
      <trkpt lat="45.65916" lon="5.98072">
        <ele>1391.1650391</ele>
        <time>2011-06-26T09:20:56Z</time>
      </trkpt>
      <trkpt lat="45.65931" lon="5.98077">
        <ele>1388.28125</ele>
        <time>2011-06-26T09:20:59Z</time>
      </trkpt>
      <trkpt lat="45.65952" lon="5.98065">
        <ele>1388.28125</ele>
        <time>2011-06-26T09:21:05Z</time>
      </trkpt>
      <trkpt lat="45.6596" lon="5.98047">
        <ele>1387.3195801</ele>
        <time>2011-06-26T09:21:09Z</time>
      </trkpt>
      <trkpt lat="45.65964" lon="5.98041">
        <ele>1386.3583984</ele>
        <time>2011-06-26T09:21:11Z</time>
      </trkpt>
      <trkpt lat="45.65975" lon="5.98017">
        <ele>1385.8776855</ele>
        <time>2011-06-26T09:21:17Z</time>
      </trkpt>
      <trkpt lat="45.65984" lon="5.97997">
        <ele>1387.3195801</ele>
        <time>2011-06-26T09:21:22Z</time>
      </trkpt>
      <trkpt lat="45.65991" lon="5.97983">
        <ele>1389.7231445</ele>
        <time>2011-06-26T09:21:28Z</time>
      </trkpt>
      <trkpt lat="45.65996" lon="5.97966">
        <ele>1390.2038574</ele>
        <time>2011-06-26T09:21:34Z</time>
      </trkpt>
      <trkpt lat="45.66006" lon="5.97949">
        <ele>1389.2424316</ele>
        <time>2011-06-26T09:21:39Z</time>
      </trkpt>
      <trkpt lat="45.66021" lon="5.97936">
        <ele>1392.6071777</ele>
        <time>2011-06-26T09:21:43Z</time>
      </trkpt>
      <trkpt lat="45.66039" lon="5.97925">
        <ele>1396.9328613</ele>
        <time>2011-06-26T09:21:48Z</time>
      </trkpt>
      <trkpt lat="45.66062" lon="5.97922">
        <ele>1401.2587891</ele>
        <time>2011-06-26T09:21:54Z</time>
      </trkpt>
      <trkpt lat="45.66087" lon="5.97923">
        <ele>1399.3361816</ele>
        <time>2011-06-26T09:22:00Z</time>
      </trkpt>
      <trkpt lat="45.66104" lon="5.97921">
        <ele>1400.7780762</ele>
        <time>2011-06-26T09:22:05Z</time>
      </trkpt>
      <trkpt lat="45.66114" lon="5.97902">
        <ele>1399.8168945</ele>
        <time>2011-06-26T09:22:10Z</time>
      </trkpt>
      <trkpt lat="45.66126" lon="5.97881">
        <ele>1397.4135742</ele>
        <time>2011-06-26T09:22:14Z</time>
      </trkpt>
      <trkpt lat="45.66136" lon="5.97868">
        <ele>1396.9328613</ele>
        <time>2011-06-26T09:22:18Z</time>
      </trkpt>
      <trkpt lat="45.66133" lon="5.97865">
        <ele>1396.9328613</ele>
        <time>2011-06-26T09:22:20Z</time>
      </trkpt>
      <trkpt lat="45.66128" lon="5.97864">
        <ele>1398.3747559</ele>
        <time>2011-06-26T09:22:24Z</time>
      </trkpt>
      <trkpt lat="45.66118" lon="5.97859">
        <ele>1398.3747559</ele>
        <time>2011-06-26T09:22:30Z</time>
      </trkpt>
      <trkpt lat="45.66112" lon="5.97858">
        <ele>1398.3747559</ele>
        <time>2011-06-26T09:22:34Z</time>
      </trkpt>
      <trkpt lat="45.66098" lon="5.97857">
        <ele>1399.3361816</ele>
        <time>2011-06-26T09:22:41Z</time>
      </trkpt>
      <trkpt lat="45.66086" lon="5.97852">
        <ele>1398.8554688</ele>
        <time>2011-06-26T09:22:47Z</time>
      </trkpt>
      <trkpt lat="45.66079" lon="5.97851">
        <ele>1403.1813965</ele>
        <time>2011-06-26T09:22:51Z</time>
      </trkpt>
      <trkpt lat="45.66067" lon="5.97845">
        <ele>1407.0268555</ele>
        <time>2011-06-26T09:22:57Z</time>
      </trkpt>
      <trkpt lat="45.66052" lon="5.97837">
        <ele>1410.8720703</ele>
        <time>2011-06-26T09:23:03Z</time>
      </trkpt>
      <trkpt lat="45.66046" lon="5.97837">
        <ele>1410.8720703</ele>
        <time>2011-06-26T09:23:06Z</time>
      </trkpt>
      <trkpt lat="45.66032" lon="5.97845">
        <ele>1414.2365723</ele>
        <time>2011-06-26T09:23:12Z</time>
      </trkpt>
      <trkpt lat="45.66013" lon="5.97855">
        <ele>1415.197998</ele>
        <time>2011-06-26T09:23:18Z</time>
      </trkpt>
      <trkpt lat="45.66008" lon="5.97855">
        <ele>1413.7558594</ele>
        <time>2011-06-26T09:23:20Z</time>
      </trkpt>
      <trkpt lat="45.65994" lon="5.97848">
        <ele>1413.2753906</ele>
        <time>2011-06-26T09:23:27Z</time>
      </trkpt>
      <trkpt lat="45.65989" lon="5.97843">
        <ele>1412.7946777</ele>
        <time>2011-06-26T09:23:30Z</time>
      </trkpt>
      <trkpt lat="45.6598" lon="5.97834">
        <ele>1409.9106445</ele>
        <time>2011-06-26T09:23:36Z</time>
      </trkpt>
      <trkpt lat="45.65969" lon="5.97831">
        <ele>1408.9494629</ele>
        <time>2011-06-26T09:23:42Z</time>
      </trkpt>
      <trkpt lat="45.65963" lon="5.97831">
        <ele>1407.5075684</ele>
        <time>2011-06-26T09:23:46Z</time>
      </trkpt>
      <trkpt lat="45.65951" lon="5.9784">
        <ele>1413.2753906</ele>
        <time>2011-06-26T09:23:52Z</time>
      </trkpt>
      <trkpt lat="45.65951" lon="5.97842">
        <ele>1412.3139648</ele>
        <time>2011-06-26T09:23:53Z</time>
      </trkpt>
      <trkpt lat="45.65942" lon="5.9786">
        <ele>1410.8720703</ele>
        <time>2011-06-26T09:23:58Z</time>
      </trkpt>
      <trkpt lat="45.65931" lon="5.97873">
        <ele>1411.3527832</ele>
        <time>2011-06-26T09:24:02Z</time>
      </trkpt>
      <trkpt lat="45.65912" lon="5.97883">
        <ele>1404.1430664</ele>
        <time>2011-06-26T09:24:07Z</time>
      </trkpt>
      <trkpt lat="45.65907" lon="5.97884">
        <ele>1403.6621094</ele>
        <time>2011-06-26T09:24:08Z</time>
      </trkpt>
      <trkpt lat="45.65872" lon="5.97896">
        <ele>1396.4523926</ele>
        <time>2011-06-26T09:24:14Z</time>
      </trkpt>
      <trkpt lat="45.65838" lon="5.97902">
        <ele>1397.8942871</ele>
        <time>2011-06-26T09:24:20Z</time>
      </trkpt>
      <trkpt lat="45.6582" lon="5.97905">
        <ele>1395.0102539</ele>
        <time>2011-06-26T09:24:24Z</time>
      </trkpt>
      <trkpt lat="45.65793" lon="5.97899">
        <ele>1395.0102539</ele>
        <time>2011-06-26T09:24:30Z</time>
      </trkpt>
      <trkpt lat="45.65781" lon="5.97892">
        <ele>1398.8554688</ele>
        <time>2011-06-26T09:24:34Z</time>
      </trkpt>
      <trkpt lat="45.65778" lon="5.97893">
        <ele>1399.8168945</ele>
        <time>2011-06-26T09:24:35Z</time>
      </trkpt>
      <trkpt lat="45.65755" lon="5.97902">
        <ele>1404.6235352</ele>
        <time>2011-06-26T09:24:41Z</time>
      </trkpt>
      <trkpt lat="45.65738" lon="5.97904">
        <ele>1398.3747559</ele>
        <time>2011-06-26T09:24:45Z</time>
      </trkpt>
      <trkpt lat="45.65715" lon="5.97921">
        <ele>1395.4909668</ele>
        <time>2011-06-26T09:24:52Z</time>
      </trkpt>
      <trkpt lat="45.65698" lon="5.97928">
        <ele>1394.529541</ele>
        <time>2011-06-26T09:24:57Z</time>
      </trkpt>
      <trkpt lat="45.65681" lon="5.97935">
        <ele>1393.0876465</ele>
        <time>2011-06-26T09:25:03Z</time>
      </trkpt>
      <trkpt lat="45.65666" lon="5.97944">
        <ele>1392.1264648</ele>
        <time>2011-06-26T09:25:07Z</time>
      </trkpt>
      <trkpt lat="45.65649" lon="5.97949">
        <ele>1392.1264648</ele>
        <time>2011-06-26T09:25:12Z</time>
      </trkpt>
      <trkpt lat="45.65632" lon="5.97947">
        <ele>1392.6071777</ele>
        <time>2011-06-26T09:25:18Z</time>
      </trkpt>
      <trkpt lat="45.65611" lon="5.97951">
        <ele>1392.1264648</ele>
        <time>2011-06-26T09:25:24Z</time>
      </trkpt>
      <trkpt lat="45.65593" lon="5.97957">
        <ele>1393.0876465</ele>
        <time>2011-06-26T09:25:28Z</time>
      </trkpt>
      <trkpt lat="45.65588" lon="5.97958">
        <ele>1393.0876465</ele>
        <time>2011-06-26T09:25:29Z</time>
      </trkpt>
      <trkpt lat="45.6558" lon="5.9796">
        <ele>1391.645752</ele>
        <time>2011-06-26T09:25:31Z</time>
      </trkpt>
      <trkpt lat="45.65557" lon="5.97967">
        <ele>1385.3969727</ele>
        <time>2011-06-26T09:25:36Z</time>
      </trkpt>
      <trkpt lat="45.65528" lon="5.9798">
        <ele>1381.0712891</ele>
        <time>2011-06-26T09:25:41Z</time>
      </trkpt>
      <trkpt lat="45.65521" lon="5.97982">
        <ele>1380.5905762</ele>
        <time>2011-06-26T09:25:42Z</time>
      </trkpt>
      <trkpt lat="45.65492" lon="5.9799">
        <ele>1379.1484375</ele>
        <time>2011-06-26T09:25:48Z</time>
      </trkpt>
      <trkpt lat="45.65487" lon="5.97992">
        <ele>1378.1872559</ele>
        <time>2011-06-26T09:25:49Z</time>
      </trkpt>
      <trkpt lat="45.65477" lon="5.97994">
        <ele>1376.7453613</ele>
        <time>2011-06-26T09:25:51Z</time>
      </trkpt>
      <trkpt lat="45.65466" lon="5.97993">
        <ele>1375.7839355</ele>
        <time>2011-06-26T09:25:53Z</time>
      </trkpt>
      <trkpt lat="45.65454" lon="5.97982">
        <ele>1375.7839355</ele>
        <time>2011-06-26T09:25:56Z</time>
      </trkpt>
      <trkpt lat="45.65439" lon="5.97962">
        <ele>1377.2260742</ele>
        <time>2011-06-26T09:26:01Z</time>
      </trkpt>
      <trkpt lat="45.65435" lon="5.97948">
        <ele>1380.1098633</ele>
        <time>2011-06-26T09:26:05Z</time>
      </trkpt>
      <trkpt lat="45.65425" lon="5.97941">
        <ele>1380.1098633</ele>
        <time>2011-06-26T09:26:09Z</time>
      </trkpt>
      <trkpt lat="45.65423" lon="5.97933">
        <ele>1381.0712891</ele>
        <time>2011-06-26T09:26:12Z</time>
      </trkpt>
      <trkpt lat="45.65424" lon="5.97926">
        <ele>1382.0324707</ele>
        <time>2011-06-26T09:26:14Z</time>
      </trkpt>
      <trkpt lat="45.65427" lon="5.9789">
        <ele>1385.3969727</ele>
        <time>2011-06-26T09:26:21Z</time>
      </trkpt>
      <trkpt lat="45.6543" lon="5.97859">
        <ele>1387.800293</ele>
        <time>2011-06-26T09:26:27Z</time>
      </trkpt>
      <trkpt lat="45.65425" lon="5.97841">
        <ele>1392.6071777</ele>
        <time>2011-06-26T09:26:31Z</time>
      </trkpt>
      <trkpt lat="45.65414" lon="5.97815">
        <ele>1395.0102539</ele>
        <time>2011-06-26T09:26:38Z</time>
      </trkpt>
      <trkpt lat="45.6541" lon="5.97792">
        <ele>1396.4523926</ele>
        <time>2011-06-26T09:26:44Z</time>
      </trkpt>
      <trkpt lat="45.65411" lon="5.97778">
        <ele>1396.9328613</ele>
        <time>2011-06-26T09:26:48Z</time>
      </trkpt>
      <trkpt lat="45.65405" lon="5.97769">
        <ele>1397.4135742</ele>
        <time>2011-06-26T09:26:53Z</time>
      </trkpt>
      <trkpt lat="45.65397" lon="5.9776">
        <ele>1397.8942871</ele>
        <time>2011-06-26T09:26:59Z</time>
      </trkpt>
      <trkpt lat="45.65392" lon="5.97756">
        <ele>1398.8554688</ele>
        <time>2011-06-26T09:27:02Z</time>
      </trkpt>
      <trkpt lat="45.6539" lon="5.97751">
        <ele>1399.3361816</ele>
        <time>2011-06-26T09:27:05Z</time>
      </trkpt>
      <trkpt lat="45.65382" lon="5.97741">
        <ele>1399.8168945</ele>
        <time>2011-06-26T09:27:11Z</time>
      </trkpt>
      <trkpt lat="45.65374" lon="5.97735">
        <ele>1399.8168945</ele>
        <time>2011-06-26T09:27:17Z</time>
      </trkpt>
      <trkpt lat="45.65363" lon="5.97728">
        <ele>1401.739502</ele>
        <time>2011-06-26T09:27:23Z</time>
      </trkpt>
      <trkpt lat="45.65348" lon="5.97724">
        <ele>1404.1430664</ele>
        <time>2011-06-26T09:27:31Z</time>
      </trkpt>
      <trkpt lat="45.65336" lon="5.97722">
        <ele>1407.9882813</ele>
        <time>2011-06-26T09:27:38Z</time>
      </trkpt>
      <trkpt lat="45.65326" lon="5.97721">
        <ele>1410.8720703</ele>
        <time>2011-06-26T09:27:44Z</time>
      </trkpt>
      <trkpt lat="45.65317" lon="5.9772">
        <ele>1413.2753906</ele>
        <time>2011-06-26T09:27:49Z</time>
      </trkpt>
      <trkpt lat="45.65306" lon="5.97715">
        <ele>1414.7172852</ele>
        <time>2011-06-26T09:27:53Z</time>
      </trkpt>
      <trkpt lat="45.65295" lon="5.97708">
        <ele>1415.6787109</ele>
        <time>2011-06-26T09:27:58Z</time>
      </trkpt>
      <trkpt lat="45.65283" lon="5.97703">
        <ele>1416.6398926</ele>
        <time>2011-06-26T09:28:04Z</time>
      </trkpt>
      <trkpt lat="45.65269" lon="5.97702">
        <ele>1415.197998</ele>
        <time>2011-06-26T09:28:10Z</time>
      </trkpt>
      <trkpt lat="45.65259" lon="5.97708">
        <ele>1416.6398926</ele>
        <time>2011-06-26T09:28:15Z</time>
      </trkpt>
      <trkpt lat="45.65249" lon="5.97712">
        <ele>1415.6787109</ele>
        <time>2011-06-26T09:28:20Z</time>
      </trkpt>
      <trkpt lat="45.65247" lon="5.97712">
        <ele>1415.197998</ele>
        <time>2011-06-26T09:28:21Z</time>
      </trkpt>
      <trkpt lat="45.65232" lon="5.97722">
        <ele>1410.8720703</ele>
        <time>2011-06-26T09:28:28Z</time>
      </trkpt>
      <trkpt lat="45.6522" lon="5.97744">
        <ele>1414.7172852</ele>
        <time>2011-06-26T09:28:34Z</time>
      </trkpt>
      <trkpt lat="45.65216" lon="5.97762">
        <ele>1416.6398926</ele>
        <time>2011-06-26T09:28:38Z</time>
      </trkpt>
      <trkpt lat="45.65208" lon="5.97777">
        <ele>1420.0046387</ele>
        <time>2011-06-26T09:28:42Z</time>
      </trkpt>
      <trkpt lat="45.65205" lon="5.97798">
        <ele>1419.0432129</ele>
        <time>2011-06-26T09:28:47Z</time>
      </trkpt>
      <trkpt lat="45.65202" lon="5.97822">
        <ele>1417.1206055</ele>
        <time>2011-06-26T09:28:52Z</time>
      </trkpt>
      <trkpt lat="45.65198" lon="5.97845">
        <ele>1415.197998</ele>
        <time>2011-06-26T09:28:56Z</time>
      </trkpt>
      <trkpt lat="45.65188" lon="5.97871">
        <ele>1411.3527832</ele>
        <time>2011-06-26T09:29:00Z</time>
      </trkpt>
      <trkpt lat="45.65165" lon="5.97894">
        <ele>1405.104248</ele>
        <time>2011-06-26T09:29:05Z</time>
      </trkpt>
      <trkpt lat="45.6516" lon="5.97898">
        <ele>1403.1813965</ele>
        <time>2011-06-26T09:29:06Z</time>
      </trkpt>
      <trkpt lat="45.6515" lon="5.97904">
        <ele>1399.8168945</ele>
        <time>2011-06-26T09:29:08Z</time>
      </trkpt>
      <trkpt lat="45.65137" lon="5.97911">
        <ele>1394.0490723</ele>
        <time>2011-06-26T09:29:12Z</time>
      </trkpt>
      <trkpt lat="45.65125" lon="5.97917">
        <ele>1387.800293</ele>
        <time>2011-06-26T09:29:17Z</time>
      </trkpt>
      <trkpt lat="45.65112" lon="5.97925">
        <ele>1384.435791</ele>
        <time>2011-06-26T09:29:22Z</time>
      </trkpt>
      <trkpt lat="45.65102" lon="5.9793">
        <ele>1382.9936523</ele>
        <time>2011-06-26T09:29:25Z</time>
      </trkpt>
      <trkpt lat="45.6508" lon="5.97941">
        <ele>1382.9936523</ele>
        <time>2011-06-26T09:29:30Z</time>
      </trkpt>
      <trkpt lat="45.65074" lon="5.97947">
        <ele>1383.4743652</ele>
        <time>2011-06-26T09:29:31Z</time>
      </trkpt>
      <trkpt lat="45.65052" lon="5.97976">
        <ele>1384.435791</ele>
        <time>2011-06-26T09:29:36Z</time>
      </trkpt>
      <trkpt lat="45.65044" lon="5.97984">
        <ele>1381.0712891</ele>
        <time>2011-06-26T09:29:39Z</time>
      </trkpt>
      <trkpt lat="45.65039" lon="5.97991">
        <ele>1378.6679688</ele>
        <time>2011-06-26T09:29:41Z</time>
      </trkpt>
      <trkpt lat="45.65034" lon="5.97999">
        <ele>1376.2646484</ele>
        <time>2011-06-26T09:29:43Z</time>
      </trkpt>
      <trkpt lat="45.6502" lon="5.98013">
        <ele>1370.0158691</ele>
        <time>2011-06-26T09:29:48Z</time>
      </trkpt>
      <trkpt lat="45.65004" lon="5.98022">
        <ele>1364.7287598</ele>
        <time>2011-06-26T09:29:52Z</time>
      </trkpt>
      <trkpt lat="45.64998" lon="5.98024">
        <ele>1364.2480469</ele>
        <time>2011-06-26T09:29:53Z</time>
      </trkpt>
      <trkpt lat="45.6498" lon="5.98033">
        <ele>1361.3642578</ele>
        <time>2011-06-26T09:29:56Z</time>
      </trkpt>
      <trkpt lat="45.64963" lon="5.98041">
        <ele>1358.4802246</ele>
        <time>2011-06-26T09:29:59Z</time>
      </trkpt>
      <trkpt lat="45.64937" lon="5.98052">
        <ele>1353.673584</ele>
        <time>2011-06-26T09:30:04Z</time>
      </trkpt>
      <trkpt lat="45.64925" lon="5.98054">
        <ele>1351.7509766</ele>
        <time>2011-06-26T09:30:06Z</time>
      </trkpt>
      <trkpt lat="45.64901" lon="5.98056">
        <ele>1350.309082</ele>
        <time>2011-06-26T09:30:10Z</time>
      </trkpt>
      <trkpt lat="45.64885" lon="5.98058">
        <ele>1346.9443359</ele>
        <time>2011-06-26T09:30:13Z</time>
      </trkpt>
      <trkpt lat="45.64861" lon="5.98065">
        <ele>1345.9831543</ele>
        <time>2011-06-26T09:30:18Z</time>
      </trkpt>
      <trkpt lat="45.64854" lon="5.98065">
        <ele>1344.0605469</ele>
        <time>2011-06-26T09:30:20Z</time>
      </trkpt>
      <trkpt lat="45.6483" lon="5.98063">
        <ele>1341.6572266</ele>
        <time>2011-06-26T09:30:25Z</time>
      </trkpt>
      <trkpt lat="45.64823" lon="5.98062">
        <ele>1341.1765137</ele>
        <time>2011-06-26T09:30:26Z</time>
      </trkpt>
      <trkpt lat="45.64802" lon="5.98062">
        <ele>1344.0605469</ele>
        <time>2011-06-26T09:30:29Z</time>
      </trkpt>
      <trkpt lat="45.64787" lon="5.98054">
        <ele>1344.5410156</ele>
        <time>2011-06-26T09:30:34Z</time>
      </trkpt>
      <trkpt lat="45.64767" lon="5.9805">
        <ele>1349.3476563</ele>
        <time>2011-06-26T09:30:41Z</time>
      </trkpt>
      <trkpt lat="45.64751" lon="5.98045">
        <ele>1354.1542969</ele>
        <time>2011-06-26T09:30:47Z</time>
      </trkpt>
      <trkpt lat="45.64734" lon="5.98034">
        <ele>1355.1154785</ele>
        <time>2011-06-26T09:30:53Z</time>
      </trkpt>
      <trkpt lat="45.64713" lon="5.98034">
        <ele>1353.1928711</ele>
        <time>2011-06-26T09:30:57Z</time>
      </trkpt>
      <trkpt lat="45.64672" lon="5.98034">
        <ele>1350.7895508</ele>
        <time>2011-06-26T09:31:04Z</time>
      </trkpt>
      <trkpt lat="45.64629" lon="5.9803">
        <ele>1345.9831543</ele>
        <time>2011-06-26T09:31:11Z</time>
      </trkpt>
      <trkpt lat="45.64609" lon="5.98029">
        <ele>1343.0991211</ele>
        <time>2011-06-26T09:31:15Z</time>
      </trkpt>
      <trkpt lat="45.64603" lon="5.98028">
        <ele>1341.6572266</ele>
        <time>2011-06-26T09:31:16Z</time>
      </trkpt>
      <trkpt lat="45.64585" lon="5.98025">
        <ele>1338.7731934</ele>
        <time>2011-06-26T09:31:19Z</time>
      </trkpt>
      <trkpt lat="45.64562" lon="5.98031">
        <ele>1335.8891602</ele>
        <time>2011-06-26T09:31:23Z</time>
      </trkpt>
      <trkpt lat="45.64523" lon="5.98059">
        <ele>1333.4858398</ele>
        <time>2011-06-26T09:31:30Z</time>
      </trkpt>
      <trkpt lat="45.64513" lon="5.98065">
        <ele>1333.4858398</ele>
        <time>2011-06-26T09:31:32Z</time>
      </trkpt>
      <trkpt lat="45.64498" lon="5.98069">
        <ele>1333.005127</ele>
        <time>2011-06-26T09:31:35Z</time>
      </trkpt>
      <trkpt lat="45.64479" lon="5.98065">
        <ele>1333.005127</ele>
        <time>2011-06-26T09:31:39Z</time>
      </trkpt>
      <trkpt lat="45.64449" lon="5.98052">
        <ele>1335.8891602</ele>
        <time>2011-06-26T09:31:46Z</time>
      </trkpt>
      <trkpt lat="45.64418" lon="5.98042">
        <ele>1336.8503418</ele>
        <time>2011-06-26T09:31:54Z</time>
      </trkpt>
      <trkpt lat="45.64387" lon="5.98031">
        <ele>1335.4084473</ele>
        <time>2011-06-26T09:32:01Z</time>
      </trkpt>
      <trkpt lat="45.64357" lon="5.98021">
        <ele>1334.4472656</ele>
        <time>2011-06-26T09:32:07Z</time>
      </trkpt>
      <trkpt lat="45.64336" lon="5.98011">
        <ele>1333.9665527</ele>
        <time>2011-06-26T09:32:12Z</time>
      </trkpt>
      <trkpt lat="45.64323" lon="5.98008">
        <ele>1333.4858398</ele>
        <time>2011-06-26T09:32:15Z</time>
      </trkpt>
      <trkpt lat="45.6431" lon="5.98006">
        <ele>1332.0439453</ele>
        <time>2011-06-26T09:32:18Z</time>
      </trkpt>
      <trkpt lat="45.64291" lon="5.98002">
        <ele>1331.0827637</ele>
        <time>2011-06-26T09:32:22Z</time>
      </trkpt>
      <trkpt lat="45.64248" lon="5.97997">
        <ele>1330.6020508</ele>
        <time>2011-06-26T09:32:31Z</time>
      </trkpt>
      <trkpt lat="45.64221" lon="5.97992">
        <ele>1331.0827637</ele>
        <time>2011-06-26T09:32:37Z</time>
      </trkpt>
      <trkpt lat="45.64216" lon="5.97992">
        <ele>1331.0827637</ele>
        <time>2011-06-26T09:32:38Z</time>
      </trkpt>
      <trkpt lat="45.64186" lon="5.97986">
        <ele>1330.6020508</ele>
        <time>2011-06-26T09:32:43Z</time>
      </trkpt>
      <trkpt lat="45.64165" lon="5.97984">
        <ele>1332.0439453</ele>
        <time>2011-06-26T09:32:47Z</time>
      </trkpt>
      <trkpt lat="45.64141" lon="5.97993">
        <ele>1333.9665527</ele>
        <time>2011-06-26T09:32:52Z</time>
      </trkpt>
      <trkpt lat="45.64117" lon="5.98011">
        <ele>1332.5246582</ele>
        <time>2011-06-26T09:32:57Z</time>
      </trkpt>
      <trkpt lat="45.64113" lon="5.98014">
        <ele>1332.0439453</ele>
        <time>2011-06-26T09:32:58Z</time>
      </trkpt>
      <trkpt lat="45.64105" lon="5.98025">
        <ele>1327.7180176</ele>
        <time>2011-06-26T09:33:02Z</time>
      </trkpt>
      <trkpt lat="45.64106" lon="5.98051">
        <ele>1321.4692383</ele>
        <time>2011-06-26T09:33:07Z</time>
      </trkpt>
      <trkpt lat="45.64104" lon="5.98096">
        <ele>1312.817627</ele>
        <time>2011-06-26T09:33:13Z</time>
      </trkpt>
      <trkpt lat="45.64104" lon="5.98142">
        <ele>1307.5302734</ele>
        <time>2011-06-26T09:33:18Z</time>
      </trkpt>
      <trkpt lat="45.64107" lon="5.98219">
        <ele>1299.8398438</ele>
        <time>2011-06-26T09:33:24Z</time>
      </trkpt>
      <trkpt lat="45.6411" lon="5.98273">
        <ele>1295.0332031</ele>
        <time>2011-06-26T09:33:28Z</time>
      </trkpt>
      <trkpt lat="45.64115" lon="5.98317">
        <ele>1293.1105957</ele>
        <time>2011-06-26T09:33:32Z</time>
      </trkpt>
      <trkpt lat="45.64119" lon="5.98364">
        <ele>1291.668457</ele>
        <time>2011-06-26T09:33:38Z</time>
      </trkpt>
      <trkpt lat="45.64111" lon="5.98396">
        <ele>1292.630127</ele>
        <time>2011-06-26T09:33:43Z</time>
      </trkpt>
      <trkpt lat="45.64106" lon="5.9841">
        <ele>1292.630127</ele>
        <time>2011-06-26T09:33:45Z</time>
      </trkpt>
      <trkpt lat="45.641" lon="5.98457">
        <ele>1293.5913086</ele>
        <time>2011-06-26T09:33:51Z</time>
      </trkpt>
      <trkpt lat="45.64101" lon="5.98465">
        <ele>1293.5913086</ele>
        <time>2011-06-26T09:33:52Z</time>
      </trkpt>
      <trkpt lat="45.64116" lon="5.98518">
        <ele>1294.0720215</ele>
        <time>2011-06-26T09:33:59Z</time>
      </trkpt>
      <trkpt lat="45.64137" lon="5.98572">
        <ele>1293.5913086</ele>
        <time>2011-06-26T09:34:06Z</time>
      </trkpt>
      <trkpt lat="45.64162" lon="5.98635">
        <ele>1293.5913086</ele>
        <time>2011-06-26T09:34:14Z</time>
      </trkpt>
      <trkpt lat="45.64171" lon="5.98658">
        <ele>1293.1105957</ele>
        <time>2011-06-26T09:34:17Z</time>
      </trkpt>
      <trkpt lat="45.64189" lon="5.98682">
        <ele>1292.630127</ele>
        <time>2011-06-26T09:34:21Z</time>
      </trkpt>
      <trkpt lat="45.64203" lon="5.98685">
        <ele>1292.630127</ele>
        <time>2011-06-26T09:34:23Z</time>
      </trkpt>
      <trkpt lat="45.64233" lon="5.98682">
        <ele>1294.5524902</ele>
        <time>2011-06-26T09:34:28Z</time>
      </trkpt>
      <trkpt lat="45.64254" lon="5.98674">
        <ele>1296.4753418</ele>
        <time>2011-06-26T09:34:32Z</time>
      </trkpt>
      <trkpt lat="45.64268" lon="5.98671">
        <ele>1297.9172363</ele>
        <time>2011-06-26T09:34:35Z</time>
      </trkpt>
      <trkpt lat="45.64282" lon="5.98665">
        <ele>1299.8398438</ele>
        <time>2011-06-26T09:34:38Z</time>
      </trkpt>
      <trkpt lat="45.64315" lon="5.98635">
        <ele>1302.7236328</ele>
        <time>2011-06-26T09:34:46Z</time>
      </trkpt>
      <trkpt lat="45.6434" lon="5.98609">
        <ele>1304.6462402</ele>
        <time>2011-06-26T09:34:53Z</time>
      </trkpt>
      <trkpt lat="45.64364" lon="5.98583">
        <ele>1306.5688477</ele>
        <time>2011-06-26T09:35:00Z</time>
      </trkpt>
      <trkpt lat="45.64394" lon="5.9855">
        <ele>1308.4916992</ele>
        <time>2011-06-26T09:35:09Z</time>
      </trkpt>
      <trkpt lat="45.64407" lon="5.98535">
        <ele>1309.453125</ele>
        <time>2011-06-26T09:35:13Z</time>
      </trkpt>
      <trkpt lat="45.6443" lon="5.98488">
        <ele>1310.8950195</ele>
        <time>2011-06-26T09:35:22Z</time>
      </trkpt>
      <trkpt lat="45.64445" lon="5.98454">
        <ele>1311.3757324</ele>
        <time>2011-06-26T09:35:28Z</time>
      </trkpt>
      <trkpt lat="45.6445" lon="5.98437">
        <ele>1311.8564453</ele>
        <time>2011-06-26T09:35:31Z</time>
      </trkpt>
      <trkpt lat="45.64469" lon="5.98392">
        <ele>1315.7016602</ele>
        <time>2011-06-26T09:35:39Z</time>
      </trkpt>
      <trkpt lat="45.64487" lon="5.98355">
        <ele>1317.6240234</ele>
        <time>2011-06-26T09:35:47Z</time>
      </trkpt>
      <trkpt lat="45.64495" lon="5.98336">
        <ele>1318.5854492</ele>
        <time>2011-06-26T09:35:51Z</time>
      </trkpt>
    </trkseg>
  </trk>
</gpx>